<?xml version="1.0" encoding="UTF-8" standalone="no" ?>
<gpx xmlns="http://www.topografix.com/GPX/1/1" xmlns:xsi="http://www.w3.org/2001/XMLSchema-instance" xsi:schemaLocation="http://www.topografix.com/GPX/1/1 http://www.topografix.com/GPX/1/1/gpx.xsd" version="1.1" creator="VisuGPX - https://www.visugpx.com">
  <metadata>
    <name>rando saint aubin de cadelech</name>
    <desc><![CDATA[fdgggggggggggggggggggggggggggggggggggggggggggggggggggggggggggggggggggggggggggggggg]]></desc>
  </metadata>
  <trk>
    <name><![CDATA[rando saint aubin de cadelech_1]]></name>
    <trkseg>
      <trkpt lat="44.69115" lon="0.48253">
        <ele>132</ele>
        <time>2012-08-05T06:00:56Z</time>
      </trkpt>
      <trkpt lat="44.69097" lon="0.48284">
        <ele>132</ele>
        <time>2012-08-05T06:01:26Z</time>
      </trkpt>
      <trkpt lat="44.69069" lon="0.48297">
        <ele>130</ele>
        <time>2012-08-05T06:01:31Z</time>
      </trkpt>
      <trkpt lat="44.69036" lon="0.48313">
        <ele>128</ele>
        <time>2012-08-05T06:01:36Z</time>
      </trkpt>
      <trkpt lat="44.69002" lon="0.48327">
        <ele>127</ele>
        <time>2012-08-05T06:01:41Z</time>
      </trkpt>
      <trkpt lat="44.68968" lon="0.48342">
        <ele>126</ele>
        <time>2012-08-05T06:01:46Z</time>
      </trkpt>
      <trkpt lat="44.68933" lon="0.48359">
        <ele>124</ele>
        <time>2012-08-05T06:01:51Z</time>
      </trkpt>
      <trkpt lat="44.68896" lon="0.48376">
        <ele>124</ele>
        <time>2012-08-05T06:01:56Z</time>
      </trkpt>
      <trkpt lat="44.6886" lon="0.48393">
        <ele>124</ele>
        <time>2012-08-05T06:02:01Z</time>
      </trkpt>
      <trkpt lat="44.68824" lon="0.48411">
        <ele>123</ele>
        <time>2012-08-05T06:02:06Z</time>
      </trkpt>
      <trkpt lat="44.68788" lon="0.48427">
        <ele>121</ele>
        <time>2012-08-05T06:02:11Z</time>
      </trkpt>
      <trkpt lat="44.68754" lon="0.48444">
        <ele>121</ele>
        <time>2012-08-05T06:02:16Z</time>
      </trkpt>
      <trkpt lat="44.6872" lon="0.48461">
        <ele>120</ele>
        <time>2012-08-05T06:02:21Z</time>
      </trkpt>
      <trkpt lat="44.68683" lon="0.48477">
        <ele>120</ele>
        <time>2012-08-05T06:02:26Z</time>
      </trkpt>
      <trkpt lat="44.68647" lon="0.48493">
        <ele>120</ele>
        <time>2012-08-05T06:02:31Z</time>
      </trkpt>
      <trkpt lat="44.68609" lon="0.48507">
        <ele>122</ele>
        <time>2012-08-05T06:02:36Z</time>
      </trkpt>
      <trkpt lat="44.68574" lon="0.48521">
        <ele>125</ele>
        <time>2012-08-05T06:02:41Z</time>
      </trkpt>
      <trkpt lat="44.68541" lon="0.48543">
        <ele>125</ele>
        <time>2012-08-05T06:02:46Z</time>
      </trkpt>
      <trkpt lat="44.68503" lon="0.48562">
        <ele>125</ele>
        <time>2012-08-05T06:02:51Z</time>
      </trkpt>
      <trkpt lat="44.68459" lon="0.48564">
        <ele>125</ele>
        <time>2012-08-05T06:02:56Z</time>
      </trkpt>
      <trkpt lat="44.68413" lon="0.48564">
        <ele>125</ele>
        <time>2012-08-05T06:03:01Z</time>
      </trkpt>
      <trkpt lat="44.68367" lon="0.48574">
        <ele>125</ele>
        <time>2012-08-05T06:03:06Z</time>
      </trkpt>
      <trkpt lat="44.6831" lon="0.48603">
        <ele>123</ele>
        <time>2012-08-05T06:03:12Z</time>
      </trkpt>
      <trkpt lat="44.68244" lon="0.48617">
        <ele>120</ele>
        <time>2012-08-05T06:03:18Z</time>
      </trkpt>
      <trkpt lat="44.6821" lon="0.48623">
        <ele>117</ele>
        <time>2012-08-05T06:03:23Z</time>
      </trkpt>
      <trkpt lat="44.68182" lon="0.48627">
        <ele>116</ele>
        <time>2012-08-05T06:03:28Z</time>
      </trkpt>
      <trkpt lat="44.68169" lon="0.48608">
        <ele>114</ele>
        <time>2012-08-05T06:03:33Z</time>
      </trkpt>
      <trkpt lat="44.68167" lon="0.48569">
        <ele>111</ele>
        <time>2012-08-05T06:03:38Z</time>
      </trkpt>
      <trkpt lat="44.68164" lon="0.4852">
        <ele>109</ele>
        <time>2012-08-05T06:03:43Z</time>
      </trkpt>
      <trkpt lat="44.68162" lon="0.48466">
        <ele>105</ele>
        <time>2012-08-05T06:03:48Z</time>
      </trkpt>
      <trkpt lat="44.68164" lon="0.48408">
        <ele>101</ele>
        <time>2012-08-05T06:03:53Z</time>
      </trkpt>
      <trkpt lat="44.6818" lon="0.48354">
        <ele>98</ele>
        <time>2012-08-05T06:03:58Z</time>
      </trkpt>
      <trkpt lat="44.68197" lon="0.48299">
        <ele>97</ele>
        <time>2012-08-05T06:04:03Z</time>
      </trkpt>
      <trkpt lat="44.68206" lon="0.48239">
        <ele>96</ele>
        <time>2012-08-05T06:04:08Z</time>
      </trkpt>
      <trkpt lat="44.68211" lon="0.48179">
        <ele>95</ele>
        <time>2012-08-05T06:04:13Z</time>
      </trkpt>
      <trkpt lat="44.68216" lon="0.48122">
        <ele>93</ele>
        <time>2012-08-05T06:04:18Z</time>
      </trkpt>
      <trkpt lat="44.68226" lon="0.48083">
        <ele>93</ele>
        <time>2012-08-05T06:04:23Z</time>
      </trkpt>
      <trkpt lat="44.68251" lon="0.48084">
        <ele>93</ele>
        <time>2012-08-05T06:04:28Z</time>
      </trkpt>
      <trkpt lat="44.68275" lon="0.48079">
        <ele>93</ele>
        <time>2012-08-05T06:04:33Z</time>
      </trkpt>
      <trkpt lat="44.68281" lon="0.48047">
        <ele>93</ele>
        <time>2012-08-05T06:04:38Z</time>
      </trkpt>
      <trkpt lat="44.68287" lon="0.4801">
        <ele>93</ele>
        <time>2012-08-05T06:04:43Z</time>
      </trkpt>
      <trkpt lat="44.68293" lon="0.47972">
        <ele>93</ele>
        <time>2012-08-05T06:04:48Z</time>
      </trkpt>
      <trkpt lat="44.683" lon="0.47933">
        <ele>93</ele>
        <time>2012-08-05T06:04:53Z</time>
      </trkpt>
      <trkpt lat="44.68306" lon="0.47894">
        <ele>93</ele>
        <time>2012-08-05T06:04:58Z</time>
      </trkpt>
      <trkpt lat="44.68311" lon="0.47853">
        <ele>93</ele>
        <time>2012-08-05T06:05:03Z</time>
      </trkpt>
      <trkpt lat="44.68318" lon="0.47811">
        <ele>93</ele>
        <time>2012-08-05T06:05:08Z</time>
      </trkpt>
      <trkpt lat="44.68328" lon="0.47769">
        <ele>91</ele>
        <time>2012-08-05T06:05:13Z</time>
      </trkpt>
      <trkpt lat="44.68331" lon="0.47726">
        <ele>91</ele>
        <time>2012-08-05T06:05:18Z</time>
      </trkpt>
      <trkpt lat="44.68335" lon="0.47682">
        <ele>91</ele>
        <time>2012-08-05T06:05:23Z</time>
      </trkpt>
      <trkpt lat="44.68339" lon="0.47643">
        <ele>91</ele>
        <time>2012-08-05T06:05:28Z</time>
      </trkpt>
      <trkpt lat="44.68341" lon="0.47603">
        <ele>90</ele>
        <time>2012-08-05T06:05:33Z</time>
      </trkpt>
      <trkpt lat="44.68345" lon="0.47564">
        <ele>89</ele>
        <time>2012-08-05T06:05:38Z</time>
      </trkpt>
      <trkpt lat="44.68337" lon="0.47539">
        <ele>89</ele>
        <time>2012-08-05T06:05:44Z</time>
      </trkpt>
      <trkpt lat="44.68323" lon="0.47516">
        <ele>89</ele>
        <time>2012-08-05T06:05:49Z</time>
      </trkpt>
      <trkpt lat="44.68324" lon="0.4748">
        <ele>89</ele>
        <time>2012-08-05T06:05:54Z</time>
      </trkpt>
      <trkpt lat="44.68325" lon="0.47444">
        <ele>89</ele>
        <time>2012-08-05T06:05:59Z</time>
      </trkpt>
      <trkpt lat="44.68326" lon="0.47409">
        <ele>89</ele>
        <time>2012-08-05T06:06:04Z</time>
      </trkpt>
      <trkpt lat="44.68328" lon="0.47366">
        <ele>89</ele>
        <time>2012-08-05T06:06:09Z</time>
      </trkpt>
      <trkpt lat="44.68331" lon="0.47321">
        <ele>89</ele>
        <time>2012-08-05T06:06:14Z</time>
      </trkpt>
      <trkpt lat="44.68344" lon="0.47284">
        <ele>89</ele>
        <time>2012-08-05T06:06:19Z</time>
      </trkpt>
      <trkpt lat="44.68376" lon="0.47269">
        <ele>91</ele>
        <time>2012-08-05T06:06:24Z</time>
      </trkpt>
      <trkpt lat="44.68413" lon="0.47251">
        <ele>92</ele>
        <time>2012-08-05T06:06:29Z</time>
      </trkpt>
      <trkpt lat="44.68447" lon="0.47223">
        <ele>93</ele>
        <time>2012-08-05T06:06:34Z</time>
      </trkpt>
      <trkpt lat="44.68471" lon="0.47186">
        <ele>93</ele>
        <time>2012-08-05T06:06:39Z</time>
      </trkpt>
      <trkpt lat="44.68491" lon="0.47149">
        <ele>93</ele>
        <time>2012-08-05T06:06:44Z</time>
      </trkpt>
      <trkpt lat="44.68505" lon="0.47102">
        <ele>93</ele>
        <time>2012-08-05T06:06:49Z</time>
      </trkpt>
      <trkpt lat="44.6852" lon="0.47055">
        <ele>93</ele>
        <time>2012-08-05T06:06:54Z</time>
      </trkpt>
      <trkpt lat="44.68548" lon="0.47034">
        <ele>91</ele>
        <time>2012-08-05T06:06:59Z</time>
      </trkpt>
      <trkpt lat="44.6856" lon="0.47022">
        <ele>91</ele>
        <time>2012-08-05T06:07:04Z</time>
      </trkpt>
      <trkpt lat="44.68538" lon="0.4701">
        <ele>88</ele>
        <time>2012-08-05T06:07:09Z</time>
      </trkpt>
      <trkpt lat="44.68514" lon="0.47">
        <ele>86</ele>
        <time>2012-08-05T06:07:14Z</time>
      </trkpt>
      <trkpt lat="44.68512" lon="0.46984">
        <ele>83</ele>
        <time>2012-08-05T06:07:19Z</time>
      </trkpt>
      <trkpt lat="44.68513" lon="0.46966">
        <ele>82</ele>
        <time>2012-08-05T06:07:24Z</time>
      </trkpt>
      <trkpt lat="44.68506" lon="0.46949">
        <ele>82</ele>
        <time>2012-08-05T06:07:29Z</time>
      </trkpt>
      <trkpt lat="44.68503" lon="0.46922">
        <ele>82</ele>
        <time>2012-08-05T06:07:34Z</time>
      </trkpt>
      <trkpt lat="44.68501" lon="0.46896">
        <ele>82</ele>
        <time>2012-08-05T06:07:39Z</time>
      </trkpt>
      <trkpt lat="44.68499" lon="0.46872">
        <ele>82</ele>
        <time>2012-08-05T06:07:44Z</time>
      </trkpt>
      <trkpt lat="44.68499" lon="0.46854">
        <ele>82</ele>
        <time>2012-08-05T06:07:49Z</time>
      </trkpt>
      <trkpt lat="44.68504" lon="0.46841">
        <ele>81</ele>
        <time>2012-08-05T06:07:54Z</time>
      </trkpt>
      <trkpt lat="44.68521" lon="0.46833">
        <ele>78</ele>
        <time>2012-08-05T06:07:59Z</time>
      </trkpt>
      <trkpt lat="44.68542" lon="0.4683">
        <ele>78</ele>
        <time>2012-08-05T06:08:04Z</time>
      </trkpt>
      <trkpt lat="44.68562" lon="0.46834">
        <ele>78</ele>
        <time>2012-08-05T06:08:09Z</time>
      </trkpt>
      <trkpt lat="44.68584" lon="0.46837">
        <ele>78</ele>
        <time>2012-08-05T06:08:14Z</time>
      </trkpt>
      <trkpt lat="44.68606" lon="0.46839">
        <ele>78</ele>
        <time>2012-08-05T06:08:19Z</time>
      </trkpt>
      <trkpt lat="44.68628" lon="0.46841">
        <ele>80</ele>
        <time>2012-08-05T06:08:24Z</time>
      </trkpt>
      <trkpt lat="44.68649" lon="0.46844">
        <ele>82</ele>
        <time>2012-08-05T06:08:29Z</time>
      </trkpt>
      <trkpt lat="44.68671" lon="0.46839">
        <ele>83</ele>
        <time>2012-08-05T06:08:34Z</time>
      </trkpt>
      <trkpt lat="44.68687" lon="0.46838">
        <ele>85</ele>
        <time>2012-08-05T06:08:39Z</time>
      </trkpt>
      <trkpt lat="44.68705" lon="0.46832">
        <ele>85</ele>
        <time>2012-08-05T06:08:44Z</time>
      </trkpt>
      <trkpt lat="44.68727" lon="0.46832">
        <ele>85</ele>
        <time>2012-08-05T06:08:49Z</time>
      </trkpt>
      <trkpt lat="44.68745" lon="0.46837">
        <ele>85</ele>
        <time>2012-08-05T06:08:54Z</time>
      </trkpt>
      <trkpt lat="44.68766" lon="0.46837">
        <ele>86</ele>
        <time>2012-08-05T06:08:59Z</time>
      </trkpt>
      <trkpt lat="44.68789" lon="0.46837">
        <ele>89</ele>
        <time>2012-08-05T06:09:04Z</time>
      </trkpt>
      <trkpt lat="44.68803" lon="0.46823">
        <ele>90</ele>
        <time>2012-08-05T06:09:09Z</time>
      </trkpt>
      <trkpt lat="44.68807" lon="0.46795">
        <ele>87</ele>
        <time>2012-08-05T06:09:14Z</time>
      </trkpt>
      <trkpt lat="44.68814" lon="0.46767">
        <ele>82</ele>
        <time>2012-08-05T06:09:19Z</time>
      </trkpt>
      <trkpt lat="44.68819" lon="0.46744">
        <ele>79</ele>
        <time>2012-08-05T06:09:24Z</time>
      </trkpt>
      <trkpt lat="44.68825" lon="0.4672">
        <ele>81</ele>
        <time>2012-08-05T06:09:29Z</time>
      </trkpt>
      <trkpt lat="44.68831" lon="0.467">
        <ele>82</ele>
        <time>2012-08-05T06:09:34Z</time>
      </trkpt>
      <trkpt lat="44.68843" lon="0.46683">
        <ele>84</ele>
        <time>2012-08-05T06:09:39Z</time>
      </trkpt>
      <trkpt lat="44.68852" lon="0.46664">
        <ele>85</ele>
        <time>2012-08-05T06:09:44Z</time>
      </trkpt>
      <trkpt lat="44.68861" lon="0.46645">
        <ele>85</ele>
        <time>2012-08-05T06:09:49Z</time>
      </trkpt>
      <trkpt lat="44.68869" lon="0.46624">
        <ele>85</ele>
        <time>2012-08-05T06:09:54Z</time>
      </trkpt>
      <trkpt lat="44.68877" lon="0.46607">
        <ele>85</ele>
        <time>2012-08-05T06:09:59Z</time>
      </trkpt>
      <trkpt lat="44.68884" lon="0.46588">
        <ele>85</ele>
        <time>2012-08-05T06:10:04Z</time>
      </trkpt>
      <trkpt lat="44.68888" lon="0.46564">
        <ele>85</ele>
        <time>2012-08-05T06:10:09Z</time>
      </trkpt>
      <trkpt lat="44.68895" lon="0.46541">
        <ele>85</ele>
        <time>2012-08-05T06:10:14Z</time>
      </trkpt>
      <trkpt lat="44.68906" lon="0.4652">
        <ele>87</ele>
        <time>2012-08-05T06:10:19Z</time>
      </trkpt>
      <trkpt lat="44.68914" lon="0.46496">
        <ele>87</ele>
        <time>2012-08-05T06:10:24Z</time>
      </trkpt>
      <trkpt lat="44.68923" lon="0.46471">
        <ele>87</ele>
        <time>2012-08-05T06:10:29Z</time>
      </trkpt>
      <trkpt lat="44.68936" lon="0.46455">
        <ele>87</ele>
        <time>2012-08-05T06:10:34Z</time>
      </trkpt>
      <trkpt lat="44.68956" lon="0.4645">
        <ele>89</ele>
        <time>2012-08-05T06:10:39Z</time>
      </trkpt>
      <trkpt lat="44.68977" lon="0.46445">
        <ele>92</ele>
        <time>2012-08-05T06:10:44Z</time>
      </trkpt>
      <trkpt lat="44.68998" lon="0.46442">
        <ele>94</ele>
        <time>2012-08-05T06:10:49Z</time>
      </trkpt>
      <trkpt lat="44.69018" lon="0.4644">
        <ele>96</ele>
        <time>2012-08-05T06:10:54Z</time>
      </trkpt>
      <trkpt lat="44.6904" lon="0.46437">
        <ele>97</ele>
        <time>2012-08-05T06:10:59Z</time>
      </trkpt>
      <trkpt lat="44.69062" lon="0.46436">
        <ele>99</ele>
        <time>2012-08-05T06:11:04Z</time>
      </trkpt>
      <trkpt lat="44.69081" lon="0.46426">
        <ele>100</ele>
        <time>2012-08-05T06:11:09Z</time>
      </trkpt>
      <trkpt lat="44.69099" lon="0.46406">
        <ele>100</ele>
        <time>2012-08-05T06:11:14Z</time>
      </trkpt>
      <trkpt lat="44.69122" lon="0.46396">
        <ele>101</ele>
        <time>2012-08-05T06:11:19Z</time>
      </trkpt>
      <trkpt lat="44.69145" lon="0.46377">
        <ele>101</ele>
        <time>2012-08-05T06:11:25Z</time>
      </trkpt>
      <trkpt lat="44.69154" lon="0.4635">
        <ele>101</ele>
        <time>2012-08-05T06:11:30Z</time>
      </trkpt>
      <trkpt lat="44.69152" lon="0.46321">
        <ele>101</ele>
        <time>2012-08-05T06:11:35Z</time>
      </trkpt>
      <trkpt lat="44.69143" lon="0.46293">
        <ele>101</ele>
        <time>2012-08-05T06:11:40Z</time>
      </trkpt>
      <trkpt lat="44.69133" lon="0.46265">
        <ele>101</ele>
        <time>2012-08-05T06:11:45Z</time>
      </trkpt>
      <trkpt lat="44.69129" lon="0.46235">
        <ele>101</ele>
        <time>2012-08-05T06:11:50Z</time>
      </trkpt>
      <trkpt lat="44.69148" lon="0.46244">
        <ele>101</ele>
        <time>2012-08-05T06:11:55Z</time>
      </trkpt>
      <trkpt lat="44.69173" lon="0.46263">
        <ele>101</ele>
        <time>2012-08-05T06:12:00Z</time>
      </trkpt>
      <trkpt lat="44.69202" lon="0.46282">
        <ele>101</ele>
        <time>2012-08-05T06:12:05Z</time>
      </trkpt>
      <trkpt lat="44.69229" lon="0.46303">
        <ele>102</ele>
        <time>2012-08-05T06:12:10Z</time>
      </trkpt>
      <trkpt lat="44.69255" lon="0.46323">
        <ele>103</ele>
        <time>2012-08-05T06:12:15Z</time>
      </trkpt>
      <trkpt lat="44.69281" lon="0.46343">
        <ele>104</ele>
        <time>2012-08-05T06:12:20Z</time>
      </trkpt>
      <trkpt lat="44.69306" lon="0.46361">
        <ele>105</ele>
        <time>2012-08-05T06:12:25Z</time>
      </trkpt>
      <trkpt lat="44.69331" lon="0.46378">
        <ele>106</ele>
        <time>2012-08-05T06:12:30Z</time>
      </trkpt>
      <trkpt lat="44.69355" lon="0.46396">
        <ele>107</ele>
        <time>2012-08-05T06:12:35Z</time>
      </trkpt>
      <trkpt lat="44.69379" lon="0.46414">
        <ele>109</ele>
        <time>2012-08-05T06:12:40Z</time>
      </trkpt>
      <trkpt lat="44.69402" lon="0.46433">
        <ele>110</ele>
        <time>2012-08-05T06:12:45Z</time>
      </trkpt>
      <trkpt lat="44.69424" lon="0.46452">
        <ele>112</ele>
        <time>2012-08-05T06:12:50Z</time>
      </trkpt>
      <trkpt lat="44.69446" lon="0.46468">
        <ele>113</ele>
        <time>2012-08-05T06:12:55Z</time>
      </trkpt>
      <trkpt lat="44.6947" lon="0.46483">
        <ele>113</ele>
        <time>2012-08-05T06:13:00Z</time>
      </trkpt>
      <trkpt lat="44.69495" lon="0.46496">
        <ele>113</ele>
        <time>2012-08-05T06:13:05Z</time>
      </trkpt>
      <trkpt lat="44.69519" lon="0.4651">
        <ele>114</ele>
        <time>2012-08-05T06:13:10Z</time>
      </trkpt>
      <trkpt lat="44.69543" lon="0.46523">
        <ele>114</ele>
        <time>2012-08-05T06:13:15Z</time>
      </trkpt>
      <trkpt lat="44.69565" lon="0.4654">
        <ele>115</ele>
        <time>2012-08-05T06:13:20Z</time>
      </trkpt>
      <trkpt lat="44.69585" lon="0.46559">
        <ele>116</ele>
        <time>2012-08-05T06:13:25Z</time>
      </trkpt>
      <trkpt lat="44.69605" lon="0.4658">
        <ele>117</ele>
        <time>2012-08-05T06:13:30Z</time>
      </trkpt>
      <trkpt lat="44.69625" lon="0.46599">
        <ele>117</ele>
        <time>2012-08-05T06:13:35Z</time>
      </trkpt>
      <trkpt lat="44.69646" lon="0.46618">
        <ele>118</ele>
        <time>2012-08-05T06:13:40Z</time>
      </trkpt>
      <trkpt lat="44.69667" lon="0.46637">
        <ele>118</ele>
        <time>2012-08-05T06:13:45Z</time>
      </trkpt>
      <trkpt lat="44.69688" lon="0.46656">
        <ele>119</ele>
        <time>2012-08-05T06:13:50Z</time>
      </trkpt>
      <trkpt lat="44.69708" lon="0.46676">
        <ele>119</ele>
        <time>2012-08-05T06:13:55Z</time>
      </trkpt>
      <trkpt lat="44.69727" lon="0.46694">
        <ele>120</ele>
        <time>2012-08-05T06:14:00Z</time>
      </trkpt>
      <trkpt lat="44.69747" lon="0.46711">
        <ele>121</ele>
        <time>2012-08-05T06:14:05Z</time>
      </trkpt>
      <trkpt lat="44.69765" lon="0.46726">
        <ele>123</ele>
        <time>2012-08-05T06:14:10Z</time>
      </trkpt>
      <trkpt lat="44.69783" lon="0.46741">
        <ele>124</ele>
        <time>2012-08-05T06:14:15Z</time>
      </trkpt>
      <trkpt lat="44.69799" lon="0.46754">
        <ele>127</ele>
        <time>2012-08-05T06:14:20Z</time>
      </trkpt>
      <trkpt lat="44.69815" lon="0.46768">
        <ele>129</ele>
        <time>2012-08-05T06:14:25Z</time>
      </trkpt>
      <trkpt lat="44.69831" lon="0.46781">
        <ele>130</ele>
        <time>2012-08-05T06:14:30Z</time>
      </trkpt>
      <trkpt lat="44.6985" lon="0.46796">
        <ele>131</ele>
        <time>2012-08-05T06:14:35Z</time>
      </trkpt>
      <trkpt lat="44.69869" lon="0.46815">
        <ele>131</ele>
        <time>2012-08-05T06:14:40Z</time>
      </trkpt>
      <trkpt lat="44.69891" lon="0.46835">
        <ele>131</ele>
        <time>2012-08-05T06:14:45Z</time>
      </trkpt>
      <trkpt lat="44.69912" lon="0.46854">
        <ele>131</ele>
        <time>2012-08-05T06:14:50Z</time>
      </trkpt>
      <trkpt lat="44.69933" lon="0.46872">
        <ele>131</ele>
        <time>2012-08-05T06:14:55Z</time>
      </trkpt>
      <trkpt lat="44.69953" lon="0.46889">
        <ele>131</ele>
        <time>2012-08-05T06:15:00Z</time>
      </trkpt>
      <trkpt lat="44.69972" lon="0.46905">
        <ele>132</ele>
        <time>2012-08-05T06:15:05Z</time>
      </trkpt>
      <trkpt lat="44.69992" lon="0.46921">
        <ele>134</ele>
        <time>2012-08-05T06:15:10Z</time>
      </trkpt>
      <trkpt lat="44.70013" lon="0.46937">
        <ele>135</ele>
        <time>2012-08-05T06:15:15Z</time>
      </trkpt>
      <trkpt lat="44.70031" lon="0.46955">
        <ele>136</ele>
        <time>2012-08-05T06:15:20Z</time>
      </trkpt>
      <trkpt lat="44.70043" lon="0.46976">
        <ele>137</ele>
        <time>2012-08-05T06:15:25Z</time>
      </trkpt>
      <trkpt lat="44.70052" lon="0.46998">
        <ele>138</ele>
        <time>2012-08-05T06:15:30Z</time>
      </trkpt>
      <trkpt lat="44.70061" lon="0.47021">
        <ele>138</ele>
        <time>2012-08-05T06:15:35Z</time>
      </trkpt>
      <trkpt lat="44.70071" lon="0.47051">
        <ele>138</ele>
        <time>2012-08-05T06:15:40Z</time>
      </trkpt>
      <trkpt lat="44.70083" lon="0.47071">
        <ele>138</ele>
        <time>2012-08-05T06:15:46Z</time>
      </trkpt>
      <trkpt lat="44.70099" lon="0.47089">
        <ele>138</ele>
        <time>2012-08-05T06:15:51Z</time>
      </trkpt>
      <trkpt lat="44.70116" lon="0.47103">
        <ele>138</ele>
        <time>2012-08-05T06:15:56Z</time>
      </trkpt>
      <trkpt lat="44.70135" lon="0.47117">
        <ele>142</ele>
        <time>2012-08-05T06:16:01Z</time>
      </trkpt>
      <trkpt lat="44.70153" lon="0.47128">
        <ele>146</ele>
        <time>2012-08-05T06:16:06Z</time>
      </trkpt>
      <trkpt lat="44.70172" lon="0.4714">
        <ele>150</ele>
        <time>2012-08-05T06:16:11Z</time>
      </trkpt>
      <trkpt lat="44.70196" lon="0.47153">
        <ele>154</ele>
        <time>2012-08-05T06:16:16Z</time>
      </trkpt>
      <trkpt lat="44.70215" lon="0.47164">
        <ele>158</ele>
        <time>2012-08-05T06:16:21Z</time>
      </trkpt>
      <trkpt lat="44.70234" lon="0.47175">
        <ele>160</ele>
        <time>2012-08-05T06:16:26Z</time>
      </trkpt>
      <trkpt lat="44.70253" lon="0.47187">
        <ele>160</ele>
        <time>2012-08-05T06:16:31Z</time>
      </trkpt>
      <trkpt lat="44.70269" lon="0.47199">
        <ele>160</ele>
        <time>2012-08-05T06:16:36Z</time>
      </trkpt>
      <trkpt lat="44.70285" lon="0.47212">
        <ele>160</ele>
        <time>2012-08-05T06:16:41Z</time>
      </trkpt>
      <trkpt lat="44.70301" lon="0.47224">
        <ele>164</ele>
        <time>2012-08-05T06:16:46Z</time>
      </trkpt>
      <trkpt lat="44.70317" lon="0.47231">
        <ele>167</ele>
        <time>2012-08-05T06:16:51Z</time>
      </trkpt>
      <trkpt lat="44.70333" lon="0.47238">
        <ele>171</ele>
        <time>2012-08-05T06:16:56Z</time>
      </trkpt>
      <trkpt lat="44.7035" lon="0.47245">
        <ele>171</ele>
        <time>2012-08-05T06:17:01Z</time>
      </trkpt>
      <trkpt lat="44.70366" lon="0.47251">
        <ele>172</ele>
        <time>2012-08-05T06:17:06Z</time>
      </trkpt>
      <trkpt lat="44.70385" lon="0.47259">
        <ele>172</ele>
        <time>2012-08-05T06:17:11Z</time>
      </trkpt>
      <trkpt lat="44.70404" lon="0.47268">
        <ele>172</ele>
        <time>2012-08-05T06:17:17Z</time>
      </trkpt>
      <trkpt lat="44.70421" lon="0.47284">
        <ele>172</ele>
        <time>2012-08-05T06:17:22Z</time>
      </trkpt>
      <trkpt lat="44.70435" lon="0.47311">
        <ele>172</ele>
        <time>2012-08-05T06:17:27Z</time>
      </trkpt>
      <trkpt lat="44.70455" lon="0.47344">
        <ele>170</ele>
        <time>2012-08-05T06:17:32Z</time>
      </trkpt>
      <trkpt lat="44.70477" lon="0.4735">
        <ele>165</ele>
        <time>2012-08-05T06:17:37Z</time>
      </trkpt>
      <trkpt lat="44.70496" lon="0.47318">
        <ele>159</ele>
        <time>2012-08-05T06:17:42Z</time>
      </trkpt>
      <trkpt lat="44.70517" lon="0.47279">
        <ele>154</ele>
        <time>2012-08-05T06:17:47Z</time>
      </trkpt>
      <trkpt lat="44.70535" lon="0.47244">
        <ele>149</ele>
        <time>2012-08-05T06:17:52Z</time>
      </trkpt>
      <trkpt lat="44.70552" lon="0.47209">
        <ele>146</ele>
        <time>2012-08-05T06:17:57Z</time>
      </trkpt>
      <trkpt lat="44.70573" lon="0.4717">
        <ele>145</ele>
        <time>2012-08-05T06:18:03Z</time>
      </trkpt>
      <trkpt lat="44.70586" lon="0.4714">
        <ele>145</ele>
        <time>2012-08-05T06:18:08Z</time>
      </trkpt>
      <trkpt lat="44.70594" lon="0.47111">
        <ele>145</ele>
        <time>2012-08-05T06:18:13Z</time>
      </trkpt>
      <trkpt lat="44.70598" lon="0.47084">
        <ele>142</ele>
        <time>2012-08-05T06:18:18Z</time>
      </trkpt>
      <trkpt lat="44.70602" lon="0.47049">
        <ele>141</ele>
        <time>2012-08-05T06:18:24Z</time>
      </trkpt>
      <trkpt lat="44.70604" lon="0.4702">
        <ele>141</ele>
        <time>2012-08-05T06:18:29Z</time>
      </trkpt>
      <trkpt lat="44.70604" lon="0.46993">
        <ele>140</ele>
        <time>2012-08-05T06:18:34Z</time>
      </trkpt>
      <trkpt lat="44.70603" lon="0.46972">
        <ele>138</ele>
        <time>2012-08-05T06:18:39Z</time>
      </trkpt>
      <trkpt lat="44.70605" lon="0.46948">
        <ele>138</ele>
        <time>2012-08-05T06:18:44Z</time>
      </trkpt>
      <trkpt lat="44.70617" lon="0.46913">
        <ele>138</ele>
        <time>2012-08-05T06:18:49Z</time>
      </trkpt>
      <trkpt lat="44.70634" lon="0.46864">
        <ele>138</ele>
        <time>2012-08-05T06:18:55Z</time>
      </trkpt>
      <trkpt lat="44.70648" lon="0.4682">
        <ele>138</ele>
        <time>2012-08-05T06:19:00Z</time>
      </trkpt>
      <trkpt lat="44.70663" lon="0.46775">
        <ele>138</ele>
        <time>2012-08-05T06:19:05Z</time>
      </trkpt>
      <trkpt lat="44.70676" lon="0.46734">
        <ele>138</ele>
        <time>2012-08-05T06:19:10Z</time>
      </trkpt>
      <trkpt lat="44.70681" lon="0.46705">
        <ele>138</ele>
        <time>2012-08-05T06:19:15Z</time>
      </trkpt>
      <trkpt lat="44.70684" lon="0.46664">
        <ele>138</ele>
        <time>2012-08-05T06:19:20Z</time>
      </trkpt>
      <trkpt lat="44.7069" lon="0.46615">
        <ele>137</ele>
        <time>2012-08-05T06:19:25Z</time>
      </trkpt>
      <trkpt lat="44.70695" lon="0.46565">
        <ele>136</ele>
        <time>2012-08-05T06:19:30Z</time>
      </trkpt>
      <trkpt lat="44.707" lon="0.46513">
        <ele>136</ele>
        <time>2012-08-05T06:19:35Z</time>
      </trkpt>
      <trkpt lat="44.70707" lon="0.46461">
        <ele>136</ele>
        <time>2012-08-05T06:19:40Z</time>
      </trkpt>
      <trkpt lat="44.70713" lon="0.46406">
        <ele>136</ele>
        <time>2012-08-05T06:19:45Z</time>
      </trkpt>
      <trkpt lat="44.70718" lon="0.46351">
        <ele>135</ele>
        <time>2012-08-05T06:19:50Z</time>
      </trkpt>
      <trkpt lat="44.70723" lon="0.46297">
        <ele>131</ele>
        <time>2012-08-05T06:19:55Z</time>
      </trkpt>
      <trkpt lat="44.70726" lon="0.46226">
        <ele>127</ele>
        <time>2012-08-05T06:20:01Z</time>
      </trkpt>
      <trkpt lat="44.70713" lon="0.4617">
        <ele>126</ele>
        <time>2012-08-05T06:20:06Z</time>
      </trkpt>
      <trkpt lat="44.70698" lon="0.4611">
        <ele>125</ele>
        <time>2012-08-05T06:20:11Z</time>
      </trkpt>
      <trkpt lat="44.70684" lon="0.46061">
        <ele>124</ele>
        <time>2012-08-05T06:20:16Z</time>
      </trkpt>
      <trkpt lat="44.7067" lon="0.46012">
        <ele>123</ele>
        <time>2012-08-05T06:20:21Z</time>
      </trkpt>
      <trkpt lat="44.70656" lon="0.45964">
        <ele>121</ele>
        <time>2012-08-05T06:20:26Z</time>
      </trkpt>
      <trkpt lat="44.70644" lon="0.45918">
        <ele>119</ele>
        <time>2012-08-05T06:20:31Z</time>
      </trkpt>
      <trkpt lat="44.70633" lon="0.45877">
        <ele>119</ele>
        <time>2012-08-05T06:20:36Z</time>
      </trkpt>
      <trkpt lat="44.70625" lon="0.45849">
        <ele>119</ele>
        <time>2012-08-05T06:20:41Z</time>
      </trkpt>
      <trkpt lat="44.7062" lon="0.4583">
        <ele>119</ele>
        <time>2012-08-05T06:20:46Z</time>
      </trkpt>
      <trkpt lat="44.70623" lon="0.45806">
        <ele>119</ele>
        <time>2012-08-05T06:20:51Z</time>
      </trkpt>
      <trkpt lat="44.70626" lon="0.45786">
        <ele>119</ele>
        <time>2012-08-05T06:20:56Z</time>
      </trkpt>
      <trkpt lat="44.70626" lon="0.45767">
        <ele>121</ele>
        <time>2012-08-05T06:21:01Z</time>
      </trkpt>
      <trkpt lat="44.70624" lon="0.4575">
        <ele>124</ele>
        <time>2012-08-05T06:21:06Z</time>
      </trkpt>
      <trkpt lat="44.70624" lon="0.45733">
        <ele>128</ele>
        <time>2012-08-05T06:21:11Z</time>
      </trkpt>
      <trkpt lat="44.70623" lon="0.45713">
        <ele>131</ele>
        <time>2012-08-05T06:21:16Z</time>
      </trkpt>
      <trkpt lat="44.70624" lon="0.45696">
        <ele>134</ele>
        <time>2012-08-05T06:21:21Z</time>
      </trkpt>
      <trkpt lat="44.70621" lon="0.4568">
        <ele>134</ele>
        <time>2012-08-05T06:21:26Z</time>
      </trkpt>
      <trkpt lat="44.70607" lon="0.45674">
        <ele>134</ele>
        <time>2012-08-05T06:21:31Z</time>
      </trkpt>
      <trkpt lat="44.70589" lon="0.4567">
        <ele>134</ele>
        <time>2012-08-05T06:21:36Z</time>
      </trkpt>
      <trkpt lat="44.70571" lon="0.45666">
        <ele>134</ele>
        <time>2012-08-05T06:21:41Z</time>
      </trkpt>
      <trkpt lat="44.70554" lon="0.45658">
        <ele>134</ele>
        <time>2012-08-05T06:21:46Z</time>
      </trkpt>
      <trkpt lat="44.70551" lon="0.45636">
        <ele>134</ele>
        <time>2012-08-05T06:21:51Z</time>
      </trkpt>
      <trkpt lat="44.70548" lon="0.45613">
        <ele>134</ele>
        <time>2012-08-05T06:21:56Z</time>
      </trkpt>
      <trkpt lat="44.70544" lon="0.45587">
        <ele>135</ele>
        <time>2012-08-05T06:22:01Z</time>
      </trkpt>
      <trkpt lat="44.70539" lon="0.45559">
        <ele>135</ele>
        <time>2012-08-05T06:22:06Z</time>
      </trkpt>
      <trkpt lat="44.70535" lon="0.45528">
        <ele>135</ele>
        <time>2012-08-05T06:22:11Z</time>
      </trkpt>
      <trkpt lat="44.70536" lon="0.45495">
        <ele>135</ele>
        <time>2012-08-05T06:22:16Z</time>
      </trkpt>
      <trkpt lat="44.70554" lon="0.45478">
        <ele>133</ele>
        <time>2012-08-05T06:22:21Z</time>
      </trkpt>
      <trkpt lat="44.70578" lon="0.45464">
        <ele>131</ele>
        <time>2012-08-05T06:22:26Z</time>
      </trkpt>
      <trkpt lat="44.70608" lon="0.45439">
        <ele>128</ele>
        <time>2012-08-05T06:22:31Z</time>
      </trkpt>
      <trkpt lat="44.70643" lon="0.45408">
        <ele>123</ele>
        <time>2012-08-05T06:22:36Z</time>
      </trkpt>
      <trkpt lat="44.70675" lon="0.45362">
        <ele>117</ele>
        <time>2012-08-05T06:22:41Z</time>
      </trkpt>
      <trkpt lat="44.70715" lon="0.45328">
        <ele>112</ele>
        <time>2012-08-05T06:22:46Z</time>
      </trkpt>
      <trkpt lat="44.70762" lon="0.45299">
        <ele>107</ele>
        <time>2012-08-05T06:22:51Z</time>
      </trkpt>
      <trkpt lat="44.70808" lon="0.4528">
        <ele>102</ele>
        <time>2012-08-05T06:22:56Z</time>
      </trkpt>
      <trkpt lat="44.70847" lon="0.45267">
        <ele>101</ele>
        <time>2012-08-05T06:23:01Z</time>
      </trkpt>
      <trkpt lat="44.70883" lon="0.45256">
        <ele>101</ele>
        <time>2012-08-05T06:23:06Z</time>
      </trkpt>
      <trkpt lat="44.70918" lon="0.45241">
        <ele>101</ele>
        <time>2012-08-05T06:23:11Z</time>
      </trkpt>
      <trkpt lat="44.70953" lon="0.45226">
        <ele>101</ele>
        <time>2012-08-05T06:23:16Z</time>
      </trkpt>
      <trkpt lat="44.70988" lon="0.45213">
        <ele>101</ele>
        <time>2012-08-05T06:23:21Z</time>
      </trkpt>
      <trkpt lat="44.71022" lon="0.45203">
        <ele>101</ele>
        <time>2012-08-05T06:23:26Z</time>
      </trkpt>
      <trkpt lat="44.71053" lon="0.45205">
        <ele>101</ele>
        <time>2012-08-05T06:23:31Z</time>
      </trkpt>
      <trkpt lat="44.71078" lon="0.45224">
        <ele>101</ele>
        <time>2012-08-05T06:23:36Z</time>
      </trkpt>
      <trkpt lat="44.71097" lon="0.45197">
        <ele>101</ele>
        <time>2012-08-05T06:23:41Z</time>
      </trkpt>
      <trkpt lat="44.71111" lon="0.45153">
        <ele>101</ele>
        <time>2012-08-05T06:23:46Z</time>
      </trkpt>
      <trkpt lat="44.71138" lon="0.45122">
        <ele>101</ele>
        <time>2012-08-05T06:23:51Z</time>
      </trkpt>
      <trkpt lat="44.71174" lon="0.45096">
        <ele>101</ele>
        <time>2012-08-05T06:23:56Z</time>
      </trkpt>
      <trkpt lat="44.71215" lon="0.45063">
        <ele>101</ele>
        <time>2012-08-05T06:24:01Z</time>
      </trkpt>
      <trkpt lat="44.71254" lon="0.45015">
        <ele>98</ele>
        <time>2012-08-05T06:24:06Z</time>
      </trkpt>
      <trkpt lat="44.71295" lon="0.44988">
        <ele>93</ele>
        <time>2012-08-05T06:24:11Z</time>
      </trkpt>
      <trkpt lat="44.71324" lon="0.44956">
        <ele>89</ele>
        <time>2012-08-05T06:24:16Z</time>
      </trkpt>
      <trkpt lat="44.71334" lon="0.44894">
        <ele>87</ele>
        <time>2012-08-05T06:24:21Z</time>
      </trkpt>
      <trkpt lat="44.71353" lon="0.44831">
        <ele>83</ele>
        <time>2012-08-05T06:24:26Z</time>
      </trkpt>
      <trkpt lat="44.71385" lon="0.44792">
        <ele>80</ele>
        <time>2012-08-05T06:24:31Z</time>
      </trkpt>
      <trkpt lat="44.71418" lon="0.44789">
        <ele>79</ele>
        <time>2012-08-05T06:24:36Z</time>
      </trkpt>
      <trkpt lat="44.7146" lon="0.448">
        <ele>77</ele>
        <time>2012-08-05T06:24:41Z</time>
      </trkpt>
      <trkpt lat="44.71495" lon="0.44785">
        <ele>75</ele>
        <time>2012-08-05T06:24:46Z</time>
      </trkpt>
      <trkpt lat="44.71525" lon="0.4476">
        <ele>75</ele>
        <time>2012-08-05T06:24:51Z</time>
      </trkpt>
      <trkpt lat="44.71551" lon="0.44763">
        <ele>75</ele>
        <time>2012-08-05T06:24:56Z</time>
      </trkpt>
      <trkpt lat="44.71561" lon="0.44803">
        <ele>75</ele>
        <time>2012-08-05T06:25:01Z</time>
      </trkpt>
      <trkpt lat="44.7157" lon="0.44847">
        <ele>77</ele>
        <time>2012-08-05T06:25:06Z</time>
      </trkpt>
      <trkpt lat="44.71576" lon="0.44892">
        <ele>80</ele>
        <time>2012-08-05T06:25:11Z</time>
      </trkpt>
      <trkpt lat="44.71575" lon="0.44937">
        <ele>82</ele>
        <time>2012-08-05T06:25:16Z</time>
      </trkpt>
      <trkpt lat="44.71571" lon="0.44982">
        <ele>84</ele>
        <time>2012-08-05T06:25:21Z</time>
      </trkpt>
      <trkpt lat="44.71568" lon="0.45026">
        <ele>84</ele>
        <time>2012-08-05T06:25:26Z</time>
      </trkpt>
      <trkpt lat="44.71568" lon="0.45071">
        <ele>85</ele>
        <time>2012-08-05T06:25:31Z</time>
      </trkpt>
      <trkpt lat="44.71574" lon="0.45113">
        <ele>86</ele>
        <time>2012-08-05T06:25:36Z</time>
      </trkpt>
      <trkpt lat="44.7158" lon="0.45153">
        <ele>87</ele>
        <time>2012-08-05T06:25:41Z</time>
      </trkpt>
      <trkpt lat="44.71585" lon="0.45193">
        <ele>88</ele>
        <time>2012-08-05T06:25:46Z</time>
      </trkpt>
      <trkpt lat="44.71588" lon="0.45232">
        <ele>88</ele>
        <time>2012-08-05T06:25:51Z</time>
      </trkpt>
      <trkpt lat="44.71588" lon="0.45272">
        <ele>89</ele>
        <time>2012-08-05T06:25:56Z</time>
      </trkpt>
      <trkpt lat="44.7159" lon="0.45306">
        <ele>89</ele>
        <time>2012-08-05T06:26:01Z</time>
      </trkpt>
      <trkpt lat="44.71611" lon="0.45304">
        <ele>89</ele>
        <time>2012-08-05T06:26:06Z</time>
      </trkpt>
      <trkpt lat="44.71632" lon="0.45294">
        <ele>89</ele>
        <time>2012-08-05T06:26:11Z</time>
      </trkpt>
      <trkpt lat="44.71654" lon="0.45284">
        <ele>89</ele>
        <time>2012-08-05T06:26:16Z</time>
      </trkpt>
      <trkpt lat="44.71676" lon="0.45275">
        <ele>89</ele>
        <time>2012-08-05T06:26:21Z</time>
      </trkpt>
      <trkpt lat="44.71698" lon="0.45266">
        <ele>89</ele>
        <time>2012-08-05T06:26:26Z</time>
      </trkpt>
      <trkpt lat="44.7172" lon="0.45257">
        <ele>89</ele>
        <time>2012-08-05T06:26:31Z</time>
      </trkpt>
      <trkpt lat="44.7174" lon="0.45259">
        <ele>89</ele>
        <time>2012-08-05T06:26:36Z</time>
      </trkpt>
      <trkpt lat="44.7176" lon="0.45257">
        <ele>89</ele>
        <time>2012-08-05T06:26:41Z</time>
      </trkpt>
      <trkpt lat="44.71781" lon="0.45261">
        <ele>89</ele>
        <time>2012-08-05T06:26:46Z</time>
      </trkpt>
      <trkpt lat="44.71788" lon="0.45242">
        <ele>89</ele>
        <time>2012-08-05T06:26:51Z</time>
      </trkpt>
      <trkpt lat="44.71796" lon="0.4522">
        <ele>89</ele>
        <time>2012-08-05T06:26:56Z</time>
      </trkpt>
      <trkpt lat="44.71813" lon="0.45221">
        <ele>89</ele>
        <time>2012-08-05T06:27:01Z</time>
      </trkpt>
      <trkpt lat="44.71832" lon="0.45226">
        <ele>89</ele>
        <time>2012-08-05T06:27:06Z</time>
      </trkpt>
      <trkpt lat="44.71848" lon="0.45231">
        <ele>89</ele>
        <time>2012-08-05T06:27:11Z</time>
      </trkpt>
      <trkpt lat="44.71855" lon="0.45212">
        <ele>89</ele>
        <time>2012-08-05T06:27:16Z</time>
      </trkpt>
      <trkpt lat="44.71862" lon="0.4519">
        <ele>89</ele>
        <time>2012-08-05T06:27:21Z</time>
      </trkpt>
      <trkpt lat="44.71878" lon="0.4519">
        <ele>90</ele>
        <time>2012-08-05T06:27:26Z</time>
      </trkpt>
      <trkpt lat="44.71897" lon="0.45196">
        <ele>92</ele>
        <time>2012-08-05T06:27:31Z</time>
      </trkpt>
      <trkpt lat="44.71909" lon="0.45186">
        <ele>94</ele>
        <time>2012-08-05T06:27:36Z</time>
      </trkpt>
      <trkpt lat="44.71915" lon="0.45164">
        <ele>95</ele>
        <time>2012-08-05T06:27:41Z</time>
      </trkpt>
      <trkpt lat="44.71934" lon="0.45165">
        <ele>95</ele>
        <time>2012-08-05T06:27:46Z</time>
      </trkpt>
      <trkpt lat="44.71953" lon="0.4517">
        <ele>98</ele>
        <time>2012-08-05T06:27:51Z</time>
      </trkpt>
      <trkpt lat="44.71972" lon="0.45175">
        <ele>100</ele>
        <time>2012-08-05T06:27:56Z</time>
      </trkpt>
      <trkpt lat="44.71992" lon="0.4518">
        <ele>101</ele>
        <time>2012-08-05T06:28:01Z</time>
      </trkpt>
      <trkpt lat="44.72012" lon="0.45184">
        <ele>101</ele>
        <time>2012-08-05T06:28:06Z</time>
      </trkpt>
      <trkpt lat="44.72031" lon="0.45189">
        <ele>101</ele>
        <time>2012-08-05T06:28:11Z</time>
      </trkpt>
      <trkpt lat="44.72051" lon="0.45193">
        <ele>102</ele>
        <time>2012-08-05T06:28:16Z</time>
      </trkpt>
      <trkpt lat="44.72071" lon="0.45198">
        <ele>102</ele>
        <time>2012-08-05T06:28:21Z</time>
      </trkpt>
      <trkpt lat="44.72092" lon="0.45203">
        <ele>102</ele>
        <time>2012-08-05T06:28:26Z</time>
      </trkpt>
      <trkpt lat="44.72114" lon="0.45209">
        <ele>102</ele>
        <time>2012-08-05T06:28:31Z</time>
      </trkpt>
      <trkpt lat="44.7214" lon="0.45216">
        <ele>102</ele>
        <time>2012-08-05T06:28:36Z</time>
      </trkpt>
      <trkpt lat="44.72166" lon="0.45222">
        <ele>102</ele>
        <time>2012-08-05T06:28:41Z</time>
      </trkpt>
      <trkpt lat="44.7219" lon="0.45228">
        <ele>102</ele>
        <time>2012-08-05T06:28:46Z</time>
      </trkpt>
      <trkpt lat="44.72213" lon="0.45232">
        <ele>102</ele>
        <time>2012-08-05T06:28:51Z</time>
      </trkpt>
      <trkpt lat="44.72232" lon="0.45237">
        <ele>102</ele>
        <time>2012-08-05T06:28:56Z</time>
      </trkpt>
      <trkpt lat="44.72246" lon="0.45242">
        <ele>102</ele>
        <time>2012-08-05T06:29:01Z</time>
      </trkpt>
      <trkpt lat="44.72266" lon="0.45248">
        <ele>102</ele>
        <time>2012-08-05T06:29:06Z</time>
      </trkpt>
      <trkpt lat="44.72289" lon="0.45256">
        <ele>102</ele>
        <time>2012-08-05T06:29:11Z</time>
      </trkpt>
      <trkpt lat="44.72316" lon="0.45265">
        <ele>102</ele>
        <time>2012-08-05T06:29:16Z</time>
      </trkpt>
      <trkpt lat="44.72344" lon="0.45274">
        <ele>102</ele>
        <time>2012-08-05T06:29:21Z</time>
      </trkpt>
      <trkpt lat="44.72372" lon="0.45283">
        <ele>102</ele>
        <time>2012-08-05T06:29:26Z</time>
      </trkpt>
      <trkpt lat="44.72401" lon="0.45293">
        <ele>102</ele>
        <time>2012-08-05T06:29:31Z</time>
      </trkpt>
      <trkpt lat="44.72432" lon="0.45303">
        <ele>102</ele>
        <time>2012-08-05T06:29:36Z</time>
      </trkpt>
      <trkpt lat="44.72463" lon="0.45313">
        <ele>101</ele>
        <time>2012-08-05T06:29:41Z</time>
      </trkpt>
      <trkpt lat="44.72491" lon="0.45321">
        <ele>100</ele>
        <time>2012-08-05T06:29:46Z</time>
      </trkpt>
      <trkpt lat="44.72504" lon="0.45344">
        <ele>100</ele>
        <time>2012-08-05T06:29:51Z</time>
      </trkpt>
      <trkpt lat="44.72503" lon="0.45379">
        <ele>100</ele>
        <time>2012-08-05T06:29:56Z</time>
      </trkpt>
      <trkpt lat="44.72501" lon="0.45412">
        <ele>102</ele>
        <time>2012-08-05T06:30:01Z</time>
      </trkpt>
      <trkpt lat="44.72509" lon="0.45441">
        <ele>105</ele>
        <time>2012-08-05T06:30:06Z</time>
      </trkpt>
      <trkpt lat="44.72522" lon="0.45466">
        <ele>108</ele>
        <time>2012-08-05T06:30:11Z</time>
      </trkpt>
      <trkpt lat="44.72523" lon="0.45496">
        <ele>109</ele>
        <time>2012-08-05T06:30:16Z</time>
      </trkpt>
      <trkpt lat="44.7252" lon="0.45526">
        <ele>111</ele>
        <time>2012-08-05T06:30:21Z</time>
      </trkpt>
      <trkpt lat="44.72517" lon="0.45553">
        <ele>112</ele>
        <time>2012-08-05T06:30:26Z</time>
      </trkpt>
      <trkpt lat="44.72515" lon="0.45579">
        <ele>114</ele>
        <time>2012-08-05T06:30:31Z</time>
      </trkpt>
      <trkpt lat="44.72517" lon="0.45605">
        <ele>115</ele>
        <time>2012-08-05T06:30:36Z</time>
      </trkpt>
      <trkpt lat="44.7252" lon="0.45631">
        <ele>115</ele>
        <time>2012-08-05T06:30:41Z</time>
      </trkpt>
      <trkpt lat="44.72525" lon="0.45655">
        <ele>115</ele>
        <time>2012-08-05T06:30:46Z</time>
      </trkpt>
      <trkpt lat="44.7253" lon="0.45677">
        <ele>115</ele>
        <time>2012-08-05T06:30:51Z</time>
      </trkpt>
      <trkpt lat="44.72537" lon="0.45697">
        <ele>115</ele>
        <time>2012-08-05T06:30:56Z</time>
      </trkpt>
      <trkpt lat="44.72541" lon="0.45719">
        <ele>116</ele>
        <time>2012-08-05T06:31:01Z</time>
      </trkpt>
      <trkpt lat="44.72544" lon="0.45743">
        <ele>117</ele>
        <time>2012-08-05T06:31:06Z</time>
      </trkpt>
      <trkpt lat="44.72543" lon="0.45767">
        <ele>118</ele>
        <time>2012-08-05T06:31:11Z</time>
      </trkpt>
      <trkpt lat="44.72541" lon="0.45792">
        <ele>119</ele>
        <time>2012-08-05T06:31:16Z</time>
      </trkpt>
      <trkpt lat="44.72541" lon="0.45815">
        <ele>120</ele>
        <time>2012-08-05T06:31:21Z</time>
      </trkpt>
      <trkpt lat="44.72539" lon="0.45836">
        <ele>121</ele>
        <time>2012-08-05T06:31:26Z</time>
      </trkpt>
      <trkpt lat="44.72536" lon="0.45856">
        <ele>122</ele>
        <time>2012-08-05T06:31:31Z</time>
      </trkpt>
      <trkpt lat="44.72533" lon="0.45874">
        <ele>124</ele>
        <time>2012-08-05T06:31:36Z</time>
      </trkpt>
      <trkpt lat="44.7253" lon="0.4589">
        <ele>126</ele>
        <time>2012-08-05T06:31:41Z</time>
      </trkpt>
      <trkpt lat="44.72533" lon="0.45905">
        <ele>127</ele>
        <time>2012-08-05T06:31:46Z</time>
      </trkpt>
      <trkpt lat="44.72546" lon="0.45917">
        <ele>127</ele>
        <time>2012-08-05T06:31:51Z</time>
      </trkpt>
      <trkpt lat="44.72559" lon="0.45926">
        <ele>128</ele>
        <time>2012-08-05T06:31:56Z</time>
      </trkpt>
      <trkpt lat="44.72574" lon="0.45938">
        <ele>129</ele>
        <time>2012-08-05T06:32:01Z</time>
      </trkpt>
      <trkpt lat="44.7259" lon="0.4595">
        <ele>130</ele>
        <time>2012-08-05T06:32:06Z</time>
      </trkpt>
      <trkpt lat="44.72606" lon="0.45963">
        <ele>130</ele>
        <time>2012-08-05T06:32:11Z</time>
      </trkpt>
      <trkpt lat="44.72617" lon="0.45977">
        <ele>131</ele>
        <time>2012-08-05T06:32:16Z</time>
      </trkpt>
      <trkpt lat="44.72615" lon="0.46">
        <ele>132</ele>
        <time>2012-08-05T06:32:21Z</time>
      </trkpt>
      <trkpt lat="44.7261" lon="0.46021">
        <ele>134</ele>
        <time>2012-08-05T06:32:26Z</time>
      </trkpt>
      <trkpt lat="44.72607" lon="0.46042">
        <ele>135</ele>
        <time>2012-08-05T06:32:31Z</time>
      </trkpt>
      <trkpt lat="44.72604" lon="0.46063">
        <ele>136</ele>
        <time>2012-08-05T06:32:36Z</time>
      </trkpt>
      <trkpt lat="44.726" lon="0.46083">
        <ele>138</ele>
        <time>2012-08-05T06:32:41Z</time>
      </trkpt>
      <trkpt lat="44.72597" lon="0.46103">
        <ele>139</ele>
        <time>2012-08-05T06:32:46Z</time>
      </trkpt>
      <trkpt lat="44.72594" lon="0.46124">
        <ele>141</ele>
        <time>2012-08-05T06:32:51Z</time>
      </trkpt>
      <trkpt lat="44.7259" lon="0.46144">
        <ele>141</ele>
        <time>2012-08-05T06:32:56Z</time>
      </trkpt>
      <trkpt lat="44.72594" lon="0.46163">
        <ele>141</ele>
        <time>2012-08-05T06:33:01Z</time>
      </trkpt>
      <trkpt lat="44.7261" lon="0.46176">
        <ele>141</ele>
        <time>2012-08-05T06:33:06Z</time>
      </trkpt>
      <trkpt lat="44.7263" lon="0.46181">
        <ele>141</ele>
        <time>2012-08-05T06:33:11Z</time>
      </trkpt>
      <trkpt lat="44.72653" lon="0.46183">
        <ele>141</ele>
        <time>2012-08-05T06:33:16Z</time>
      </trkpt>
      <trkpt lat="44.72676" lon="0.46186">
        <ele>141</ele>
        <time>2012-08-05T06:33:21Z</time>
      </trkpt>
      <trkpt lat="44.72702" lon="0.46187">
        <ele>141</ele>
        <time>2012-08-05T06:33:26Z</time>
      </trkpt>
      <trkpt lat="44.7273" lon="0.4619">
        <ele>141</ele>
        <time>2012-08-05T06:33:31Z</time>
      </trkpt>
      <trkpt lat="44.72756" lon="0.46196">
        <ele>141</ele>
        <time>2012-08-05T06:33:36Z</time>
      </trkpt>
      <trkpt lat="44.72782" lon="0.46204">
        <ele>141</ele>
        <time>2012-08-05T06:33:41Z</time>
      </trkpt>
      <trkpt lat="44.72807" lon="0.46215">
        <ele>141</ele>
        <time>2012-08-05T06:33:46Z</time>
      </trkpt>
      <trkpt lat="44.72829" lon="0.46232">
        <ele>141</ele>
        <time>2012-08-05T06:33:51Z</time>
      </trkpt>
      <trkpt lat="44.72849" lon="0.46253">
        <ele>141</ele>
        <time>2012-08-05T06:33:56Z</time>
      </trkpt>
      <trkpt lat="44.72871" lon="0.46263">
        <ele>141</ele>
        <time>2012-08-05T06:34:01Z</time>
      </trkpt>
      <trkpt lat="44.72892" lon="0.46259">
        <ele>141</ele>
        <time>2012-08-05T06:34:06Z</time>
      </trkpt>
      <trkpt lat="44.72903" lon="0.46242">
        <ele>142</ele>
        <time>2012-08-05T06:34:11Z</time>
      </trkpt>
      <trkpt lat="44.72911" lon="0.46214">
        <ele>144</ele>
        <time>2012-08-05T06:34:16Z</time>
      </trkpt>
      <trkpt lat="44.72917" lon="0.46186">
        <ele>147</ele>
        <time>2012-08-05T06:34:21Z</time>
      </trkpt>
      <trkpt lat="44.72925" lon="0.46159">
        <ele>149</ele>
        <time>2012-08-05T06:34:26Z</time>
      </trkpt>
      <trkpt lat="44.72932" lon="0.4613">
        <ele>150</ele>
        <time>2012-08-05T06:34:31Z</time>
      </trkpt>
      <trkpt lat="44.72939" lon="0.46102">
        <ele>151</ele>
        <time>2012-08-05T06:34:36Z</time>
      </trkpt>
      <trkpt lat="44.72945" lon="0.4607">
        <ele>152</ele>
        <time>2012-08-05T06:34:41Z</time>
      </trkpt>
      <trkpt lat="44.72954" lon="0.46037">
        <ele>152</ele>
        <time>2012-08-05T06:34:46Z</time>
      </trkpt>
      <trkpt lat="44.72959" lon="0.46002">
        <ele>152</ele>
        <time>2012-08-05T06:34:51Z</time>
      </trkpt>
      <trkpt lat="44.72965" lon="0.45963">
        <ele>152</ele>
        <time>2012-08-05T06:34:56Z</time>
      </trkpt>
      <trkpt lat="44.72966" lon="0.45929">
        <ele>149</ele>
        <time>2012-08-05T06:35:01Z</time>
      </trkpt>
      <trkpt lat="44.7298" lon="0.459">
        <ele>149</ele>
        <time>2012-08-05T06:35:06Z</time>
      </trkpt>
      <trkpt lat="44.72998" lon="0.45877">
        <ele>148</ele>
        <time>2012-08-05T06:35:11Z</time>
      </trkpt>
      <trkpt lat="44.73019" lon="0.45859">
        <ele>148</ele>
        <time>2012-08-05T06:35:16Z</time>
      </trkpt>
      <trkpt lat="44.73039" lon="0.45845">
        <ele>148</ele>
        <time>2012-08-05T06:35:21Z</time>
      </trkpt>
      <trkpt lat="44.73062" lon="0.45826">
        <ele>148</ele>
        <time>2012-08-05T06:35:26Z</time>
      </trkpt>
      <trkpt lat="44.73089" lon="0.45806">
        <ele>148</ele>
        <time>2012-08-05T06:35:31Z</time>
      </trkpt>
      <trkpt lat="44.73109" lon="0.45784">
        <ele>148</ele>
        <time>2012-08-05T06:35:36Z</time>
      </trkpt>
      <trkpt lat="44.7313" lon="0.45763">
        <ele>150</ele>
        <time>2012-08-05T06:35:41Z</time>
      </trkpt>
      <trkpt lat="44.73153" lon="0.45743">
        <ele>150</ele>
        <time>2012-08-05T06:35:46Z</time>
      </trkpt>
      <trkpt lat="44.73174" lon="0.45726">
        <ele>152</ele>
        <time>2012-08-05T06:35:51Z</time>
      </trkpt>
      <trkpt lat="44.73192" lon="0.45717">
        <ele>152</ele>
        <time>2012-08-05T06:35:56Z</time>
      </trkpt>
      <trkpt lat="44.73205" lon="0.45748">
        <ele>153</ele>
        <time>2012-08-05T06:36:01Z</time>
      </trkpt>
      <trkpt lat="44.73223" lon="0.45801">
        <ele>154</ele>
        <time>2012-08-05T06:36:06Z</time>
      </trkpt>
      <trkpt lat="44.73243" lon="0.45867">
        <ele>152</ele>
        <time>2012-08-05T06:36:11Z</time>
      </trkpt>
      <trkpt lat="44.73258" lon="0.45935">
        <ele>149</ele>
        <time>2012-08-05T06:36:16Z</time>
      </trkpt>
      <trkpt lat="44.73282" lon="0.45969">
        <ele>145</ele>
        <time>2012-08-05T06:36:21Z</time>
      </trkpt>
      <trkpt lat="44.73307" lon="0.46005">
        <ele>142</ele>
        <time>2012-08-05T06:36:26Z</time>
      </trkpt>
      <trkpt lat="44.73338" lon="0.46051">
        <ele>140</ele>
        <time>2012-08-05T06:36:31Z</time>
      </trkpt>
      <trkpt lat="44.73373" lon="0.46094">
        <ele>138</ele>
        <time>2012-08-05T06:36:36Z</time>
      </trkpt>
      <trkpt lat="44.73405" lon="0.46128">
        <ele>138</ele>
        <time>2012-08-05T06:36:41Z</time>
      </trkpt>
      <trkpt lat="44.7344" lon="0.46153">
        <ele>137</ele>
        <time>2012-08-05T06:36:46Z</time>
      </trkpt>
      <trkpt lat="44.7347" lon="0.46185">
        <ele>135</ele>
        <time>2012-08-05T06:36:51Z</time>
      </trkpt>
      <trkpt lat="44.73494" lon="0.46231">
        <ele>134</ele>
        <time>2012-08-05T06:36:56Z</time>
      </trkpt>
      <trkpt lat="44.73511" lon="0.46287">
        <ele>130</ele>
        <time>2012-08-05T06:37:01Z</time>
      </trkpt>
      <trkpt lat="44.73526" lon="0.46347">
        <ele>128</ele>
        <time>2012-08-05T06:37:06Z</time>
      </trkpt>
      <trkpt lat="44.73544" lon="0.46393">
        <ele>127</ele>
        <time>2012-08-05T06:37:11Z</time>
      </trkpt>
      <trkpt lat="44.73573" lon="0.46423">
        <ele>127</ele>
        <time>2012-08-05T06:37:16Z</time>
      </trkpt>
      <trkpt lat="44.73601" lon="0.46449">
        <ele>127</ele>
        <time>2012-08-05T06:37:21Z</time>
      </trkpt>
      <trkpt lat="44.73624" lon="0.46471">
        <ele>127</ele>
        <time>2012-08-05T06:37:26Z</time>
      </trkpt>
      <trkpt lat="44.73639" lon="0.46496">
        <ele>127</ele>
        <time>2012-08-05T06:37:31Z</time>
      </trkpt>
      <trkpt lat="44.73652" lon="0.46519">
        <ele>129</ele>
        <time>2012-08-05T06:37:36Z</time>
      </trkpt>
      <trkpt lat="44.73673" lon="0.46531">
        <ele>131</ele>
        <time>2012-08-05T06:37:41Z</time>
      </trkpt>
      <trkpt lat="44.73697" lon="0.46536">
        <ele>131</ele>
        <time>2012-08-05T06:37:46Z</time>
      </trkpt>
      <trkpt lat="44.73719" lon="0.46543">
        <ele>131</ele>
        <time>2012-08-05T06:37:51Z</time>
      </trkpt>
      <trkpt lat="44.73742" lon="0.46549">
        <ele>131</ele>
        <time>2012-08-05T06:37:56Z</time>
      </trkpt>
      <trkpt lat="44.73761" lon="0.46556">
        <ele>131</ele>
        <time>2012-08-05T06:38:01Z</time>
      </trkpt>
      <trkpt lat="44.73782" lon="0.46564">
        <ele>131</ele>
        <time>2012-08-05T06:38:06Z</time>
      </trkpt>
      <trkpt lat="44.73802" lon="0.46572">
        <ele>131</ele>
        <time>2012-08-05T06:38:11Z</time>
      </trkpt>
      <trkpt lat="44.73822" lon="0.46578">
        <ele>131</ele>
        <time>2012-08-05T06:38:16Z</time>
      </trkpt>
      <trkpt lat="44.73841" lon="0.46583">
        <ele>131</ele>
        <time>2012-08-05T06:38:21Z</time>
      </trkpt>
      <trkpt lat="44.73859" lon="0.46595">
        <ele>131</ele>
        <time>2012-08-05T06:38:26Z</time>
      </trkpt>
      <trkpt lat="44.73867" lon="0.46624">
        <ele>134</ele>
        <time>2012-08-05T06:38:31Z</time>
      </trkpt>
      <trkpt lat="44.73876" lon="0.46651">
        <ele>136</ele>
        <time>2012-08-05T06:38:36Z</time>
      </trkpt>
      <trkpt lat="44.73889" lon="0.46675">
        <ele>138</ele>
        <time>2012-08-05T06:38:41Z</time>
      </trkpt>
      <trkpt lat="44.73904" lon="0.46696">
        <ele>140</ele>
        <time>2012-08-05T06:38:46Z</time>
      </trkpt>
      <trkpt lat="44.73917" lon="0.46714">
        <ele>141</ele>
        <time>2012-08-05T06:38:51Z</time>
      </trkpt>
      <trkpt lat="44.73931" lon="0.46732">
        <ele>142</ele>
        <time>2012-08-05T06:38:56Z</time>
      </trkpt>
      <trkpt lat="44.73945" lon="0.4675">
        <ele>143</ele>
        <time>2012-08-05T06:39:01Z</time>
      </trkpt>
      <trkpt lat="44.73959" lon="0.46769">
        <ele>144</ele>
        <time>2012-08-05T06:39:06Z</time>
      </trkpt>
      <trkpt lat="44.73974" lon="0.4679">
        <ele>145</ele>
        <time>2012-08-05T06:39:11Z</time>
      </trkpt>
      <trkpt lat="44.73996" lon="0.46817">
        <ele>145</ele>
        <time>2012-08-05T06:39:16Z</time>
      </trkpt>
      <trkpt lat="44.74025" lon="0.46848">
        <ele>145</ele>
        <time>2012-08-05T06:39:21Z</time>
      </trkpt>
      <trkpt lat="44.74061" lon="0.46878">
        <ele>144</ele>
        <time>2012-08-05T06:39:26Z</time>
      </trkpt>
      <trkpt lat="44.741" lon="0.46904">
        <ele>142</ele>
        <time>2012-08-05T06:39:31Z</time>
      </trkpt>
      <trkpt lat="44.74136" lon="0.4694">
        <ele>139</ele>
        <time>2012-08-05T06:39:36Z</time>
      </trkpt>
      <trkpt lat="44.74165" lon="0.46976">
        <ele>138</ele>
        <time>2012-08-05T06:39:41Z</time>
      </trkpt>
      <trkpt lat="44.74193" lon="0.47006">
        <ele>138</ele>
        <time>2012-08-05T06:39:46Z</time>
      </trkpt>
      <trkpt lat="44.74222" lon="0.47032">
        <ele>138</ele>
        <time>2012-08-05T06:39:51Z</time>
      </trkpt>
      <trkpt lat="44.74248" lon="0.47057">
        <ele>137</ele>
        <time>2012-08-05T06:39:56Z</time>
      </trkpt>
      <trkpt lat="44.74263" lon="0.47084">
        <ele>136</ele>
        <time>2012-08-05T06:40:01Z</time>
      </trkpt>
      <trkpt lat="44.74259" lon="0.47115">
        <ele>136</ele>
        <time>2012-08-05T06:40:06Z</time>
      </trkpt>
      <trkpt lat="44.74247" lon="0.47145">
        <ele>136</ele>
        <time>2012-08-05T06:40:11Z</time>
      </trkpt>
      <trkpt lat="44.74235" lon="0.47171">
        <ele>136</ele>
        <time>2012-08-05T06:40:16Z</time>
      </trkpt>
      <trkpt lat="44.74218" lon="0.47196">
        <ele>136</ele>
        <time>2012-08-05T06:40:21Z</time>
      </trkpt>
      <trkpt lat="44.74203" lon="0.47221">
        <ele>136</ele>
        <time>2012-08-05T06:40:26Z</time>
      </trkpt>
      <trkpt lat="44.74192" lon="0.47247">
        <ele>136</ele>
        <time>2012-08-05T06:40:31Z</time>
      </trkpt>
      <trkpt lat="44.74186" lon="0.47274">
        <ele>136</ele>
        <time>2012-08-05T06:40:36Z</time>
      </trkpt>
      <trkpt lat="44.74179" lon="0.47297">
        <ele>136</ele>
        <time>2012-08-05T06:40:41Z</time>
      </trkpt>
      <trkpt lat="44.74172" lon="0.4732">
        <ele>136</ele>
        <time>2012-08-05T06:40:46Z</time>
      </trkpt>
      <trkpt lat="44.74164" lon="0.47343">
        <ele>136</ele>
        <time>2012-08-05T06:40:51Z</time>
      </trkpt>
      <trkpt lat="44.74155" lon="0.47365">
        <ele>139</ele>
        <time>2012-08-05T06:40:56Z</time>
      </trkpt>
      <trkpt lat="44.74143" lon="0.47388">
        <ele>141</ele>
        <time>2012-08-05T06:41:01Z</time>
      </trkpt>
      <trkpt lat="44.74131" lon="0.47416">
        <ele>142</ele>
        <time>2012-08-05T06:41:06Z</time>
      </trkpt>
      <trkpt lat="44.74123" lon="0.47442">
        <ele>142</ele>
        <time>2012-08-05T06:41:11Z</time>
      </trkpt>
      <trkpt lat="44.7414" lon="0.47471">
        <ele>142</ele>
        <time>2012-08-05T06:41:16Z</time>
      </trkpt>
      <trkpt lat="44.74169" lon="0.47509">
        <ele>140</ele>
        <time>2012-08-05T06:41:21Z</time>
      </trkpt>
      <trkpt lat="44.74196" lon="0.47543">
        <ele>136</ele>
        <time>2012-08-05T06:41:26Z</time>
      </trkpt>
      <trkpt lat="44.74207" lon="0.4757">
        <ele>132</ele>
        <time>2012-08-05T06:41:31Z</time>
      </trkpt>
      <trkpt lat="44.74193" lon="0.47593">
        <ele>132</ele>
        <time>2012-08-05T06:41:36Z</time>
      </trkpt>
      <trkpt lat="44.74178" lon="0.47621">
        <ele>132</ele>
        <time>2012-08-05T06:41:41Z</time>
      </trkpt>
      <trkpt lat="44.74162" lon="0.47652">
        <ele>132</ele>
        <time>2012-08-05T06:41:46Z</time>
      </trkpt>
      <trkpt lat="44.74148" lon="0.47682">
        <ele>132</ele>
        <time>2012-08-05T06:41:51Z</time>
      </trkpt>
      <trkpt lat="44.74131" lon="0.47708">
        <ele>133</ele>
        <time>2012-08-05T06:41:56Z</time>
      </trkpt>
      <trkpt lat="44.74113" lon="0.47733">
        <ele>133</ele>
        <time>2012-08-05T06:42:01Z</time>
      </trkpt>
      <trkpt lat="44.74095" lon="0.4776">
        <ele>134</ele>
        <time>2012-08-05T06:42:06Z</time>
      </trkpt>
      <trkpt lat="44.74077" lon="0.47786">
        <ele>135</ele>
        <time>2012-08-05T06:42:11Z</time>
      </trkpt>
      <trkpt lat="44.74058" lon="0.47812">
        <ele>136</ele>
        <time>2012-08-05T06:42:16Z</time>
      </trkpt>
      <trkpt lat="44.74039" lon="0.47837">
        <ele>137</ele>
        <time>2012-08-05T06:42:21Z</time>
      </trkpt>
      <trkpt lat="44.74022" lon="0.47862">
        <ele>138</ele>
        <time>2012-08-05T06:42:26Z</time>
      </trkpt>
      <trkpt lat="44.74004" lon="0.47886">
        <ele>138</ele>
        <time>2012-08-05T06:42:31Z</time>
      </trkpt>
      <trkpt lat="44.73987" lon="0.47906">
        <ele>139</ele>
        <time>2012-08-05T06:42:36Z</time>
      </trkpt>
      <trkpt lat="44.73983" lon="0.47931">
        <ele>139</ele>
        <time>2012-08-05T06:42:41Z</time>
      </trkpt>
      <trkpt lat="44.73993" lon="0.47956">
        <ele>140</ele>
        <time>2012-08-05T06:42:46Z</time>
      </trkpt>
      <trkpt lat="44.74005" lon="0.47982">
        <ele>140</ele>
        <time>2012-08-05T06:42:51Z</time>
      </trkpt>
      <trkpt lat="44.74018" lon="0.48008">
        <ele>142</ele>
        <time>2012-08-05T06:42:56Z</time>
      </trkpt>
      <trkpt lat="44.74031" lon="0.4803">
        <ele>143</ele>
        <time>2012-08-05T06:43:01Z</time>
      </trkpt>
      <trkpt lat="44.74044" lon="0.48052">
        <ele>145</ele>
        <time>2012-08-05T06:43:06Z</time>
      </trkpt>
      <trkpt lat="44.74057" lon="0.48073">
        <ele>147</ele>
        <time>2012-08-05T06:43:11Z</time>
      </trkpt>
      <trkpt lat="44.74069" lon="0.48095">
        <ele>148</ele>
        <time>2012-08-05T06:43:16Z</time>
      </trkpt>
      <trkpt lat="44.74083" lon="0.48116">
        <ele>149</ele>
        <time>2012-08-05T06:43:21Z</time>
      </trkpt>
      <trkpt lat="44.74095" lon="0.48137">
        <ele>150</ele>
        <time>2012-08-05T06:43:26Z</time>
      </trkpt>
      <trkpt lat="44.74108" lon="0.48159">
        <ele>151</ele>
        <time>2012-08-05T06:43:31Z</time>
      </trkpt>
      <trkpt lat="44.7412" lon="0.48179">
        <ele>152</ele>
        <time>2012-08-05T06:43:36Z</time>
      </trkpt>
      <trkpt lat="44.74133" lon="0.48199">
        <ele>152</ele>
        <time>2012-08-05T06:43:41Z</time>
      </trkpt>
      <trkpt lat="44.74146" lon="0.48218">
        <ele>152</ele>
        <time>2012-08-05T06:43:46Z</time>
      </trkpt>
      <trkpt lat="44.7416" lon="0.48239">
        <ele>152</ele>
        <time>2012-08-05T06:43:51Z</time>
      </trkpt>
      <trkpt lat="44.74169" lon="0.48262">
        <ele>152</ele>
        <time>2012-08-05T06:43:56Z</time>
      </trkpt>
      <trkpt lat="44.7416" lon="0.48286">
        <ele>152</ele>
        <time>2012-08-05T06:44:01Z</time>
      </trkpt>
      <trkpt lat="44.74157" lon="0.48311">
        <ele>153</ele>
        <time>2012-08-05T06:44:06Z</time>
      </trkpt>
      <trkpt lat="44.74176" lon="0.48327">
        <ele>153</ele>
        <time>2012-08-05T06:44:11Z</time>
      </trkpt>
      <trkpt lat="44.74193" lon="0.48345">
        <ele>153</ele>
        <time>2012-08-05T06:44:16Z</time>
      </trkpt>
      <trkpt lat="44.74209" lon="0.4837">
        <ele>153</ele>
        <time>2012-08-05T06:44:21Z</time>
      </trkpt>
      <trkpt lat="44.74232" lon="0.48402">
        <ele>153</ele>
        <time>2012-08-05T06:44:26Z</time>
      </trkpt>
      <trkpt lat="44.74261" lon="0.48439">
        <ele>153</ele>
        <time>2012-08-05T06:44:31Z</time>
      </trkpt>
      <trkpt lat="44.7429" lon="0.48483">
        <ele>153</ele>
        <time>2012-08-05T06:44:36Z</time>
      </trkpt>
      <trkpt lat="44.74325" lon="0.48532">
        <ele>149</ele>
        <time>2012-08-05T06:44:41Z</time>
      </trkpt>
      <trkpt lat="44.7436" lon="0.48573">
        <ele>144</ele>
        <time>2012-08-05T06:44:46Z</time>
      </trkpt>
      <trkpt lat="44.74382" lon="0.48618">
        <ele>141</ele>
        <time>2012-08-05T06:44:51Z</time>
      </trkpt>
      <trkpt lat="44.74378" lon="0.48647">
        <ele>141</ele>
        <time>2012-08-05T06:44:56Z</time>
      </trkpt>
      <trkpt lat="44.74363" lon="0.48658">
        <ele>145</ele>
        <time>2012-08-05T06:45:01Z</time>
      </trkpt>
      <trkpt lat="44.74343" lon="0.48677">
        <ele>150</ele>
        <time>2012-08-05T06:45:06Z</time>
      </trkpt>
      <trkpt lat="44.74323" lon="0.48695">
        <ele>155</ele>
        <time>2012-08-05T06:45:11Z</time>
      </trkpt>
      <trkpt lat="44.74306" lon="0.48709">
        <ele>160</ele>
        <time>2012-08-05T06:45:16Z</time>
      </trkpt>
      <trkpt lat="44.7429" lon="0.48723">
        <ele>164</ele>
        <time>2012-08-05T06:45:21Z</time>
      </trkpt>
      <trkpt lat="44.74275" lon="0.48739">
        <ele>164</ele>
        <time>2012-08-05T06:45:26Z</time>
      </trkpt>
      <trkpt lat="44.74259" lon="0.4876">
        <ele>164</ele>
        <time>2012-08-05T06:45:31Z</time>
      </trkpt>
      <trkpt lat="44.74242" lon="0.48772">
        <ele>162</ele>
        <time>2012-08-05T06:45:36Z</time>
      </trkpt>
      <trkpt lat="44.74227" lon="0.48782">
        <ele>157</ele>
        <time>2012-08-05T06:45:41Z</time>
      </trkpt>
      <trkpt lat="44.74212" lon="0.48795">
        <ele>152</ele>
        <time>2012-08-05T06:45:46Z</time>
      </trkpt>
      <trkpt lat="44.74194" lon="0.48818">
        <ele>149</ele>
        <time>2012-08-05T06:45:51Z</time>
      </trkpt>
      <trkpt lat="44.74172" lon="0.48834">
        <ele>151</ele>
        <time>2012-08-05T06:45:56Z</time>
      </trkpt>
      <trkpt lat="44.74154" lon="0.48853">
        <ele>156</ele>
        <time>2012-08-05T06:46:01Z</time>
      </trkpt>
      <trkpt lat="44.74137" lon="0.48873">
        <ele>160</ele>
        <time>2012-08-05T06:46:06Z</time>
      </trkpt>
      <trkpt lat="44.74122" lon="0.48885">
        <ele>164</ele>
        <time>2012-08-05T06:46:11Z</time>
      </trkpt>
      <trkpt lat="44.74122" lon="0.48899">
        <ele>166</ele>
        <time>2012-08-05T06:46:16Z</time>
      </trkpt>
      <trkpt lat="44.7414" lon="0.48918">
        <ele>166</ele>
        <time>2012-08-05T06:46:21Z</time>
      </trkpt>
      <trkpt lat="44.74159" lon="0.4896">
        <ele>161</ele>
        <time>2012-08-05T06:46:26Z</time>
      </trkpt>
      <trkpt lat="44.74177" lon="0.48999">
        <ele>155</ele>
        <time>2012-08-05T06:46:31Z</time>
      </trkpt>
      <trkpt lat="44.74192" lon="0.49019">
        <ele>152</ele>
        <time>2012-08-05T06:46:36Z</time>
      </trkpt>
      <trkpt lat="44.7421" lon="0.49025">
        <ele>152</ele>
        <time>2012-08-05T06:46:41Z</time>
      </trkpt>
      <trkpt lat="44.7421" lon="0.49051">
        <ele>152</ele>
        <time>2012-08-05T06:46:46Z</time>
      </trkpt>
      <trkpt lat="44.74212" lon="0.49075">
        <ele>152</ele>
        <time>2012-08-05T06:46:51Z</time>
      </trkpt>
      <trkpt lat="44.74213" lon="0.49099">
        <ele>152</ele>
        <time>2012-08-05T06:46:56Z</time>
      </trkpt>
      <trkpt lat="44.74213" lon="0.49124">
        <ele>152</ele>
        <time>2012-08-05T06:47:01Z</time>
      </trkpt>
      <trkpt lat="44.74212" lon="0.49147">
        <ele>152</ele>
        <time>2012-08-05T06:47:06Z</time>
      </trkpt>
      <trkpt lat="44.7421" lon="0.49167">
        <ele>152</ele>
        <time>2012-08-05T06:47:11Z</time>
      </trkpt>
      <trkpt lat="44.74205" lon="0.49185">
        <ele>155</ele>
        <time>2012-08-05T06:47:16Z</time>
      </trkpt>
      <trkpt lat="44.74201" lon="0.49199">
        <ele>156</ele>
        <time>2012-08-05T06:47:21Z</time>
      </trkpt>
      <trkpt lat="44.74201" lon="0.49212">
        <ele>157</ele>
        <time>2012-08-05T06:47:26Z</time>
      </trkpt>
      <trkpt lat="44.74201" lon="0.49226">
        <ele>159</ele>
        <time>2012-08-05T06:47:31Z</time>
      </trkpt>
      <trkpt lat="44.74198" lon="0.49239">
        <ele>160</ele>
        <time>2012-08-05T06:47:36Z</time>
      </trkpt>
      <trkpt lat="44.74193" lon="0.49251">
        <ele>162</ele>
        <time>2012-08-05T06:47:41Z</time>
      </trkpt>
      <trkpt lat="44.74189" lon="0.49261">
        <ele>165</ele>
        <time>2012-08-05T06:47:46Z</time>
      </trkpt>
      <trkpt lat="44.74187" lon="0.49272">
        <ele>168</ele>
        <time>2012-08-05T06:47:51Z</time>
      </trkpt>
      <trkpt lat="44.74188" lon="0.49283">
        <ele>170</ele>
        <time>2012-08-05T06:47:56Z</time>
      </trkpt>
      <trkpt lat="44.7419" lon="0.49295">
        <ele>171</ele>
        <time>2012-08-05T06:48:01Z</time>
      </trkpt>
      <trkpt lat="44.74195" lon="0.4931">
        <ele>172</ele>
        <time>2012-08-05T06:48:06Z</time>
      </trkpt>
      <trkpt lat="44.74201" lon="0.49331">
        <ele>172</ele>
        <time>2012-08-05T06:48:11Z</time>
      </trkpt>
      <trkpt lat="44.74203" lon="0.49355">
        <ele>172</ele>
        <time>2012-08-05T06:48:16Z</time>
      </trkpt>
      <trkpt lat="44.74205" lon="0.4938">
        <ele>172</ele>
        <time>2012-08-05T06:48:21Z</time>
      </trkpt>
      <trkpt lat="44.74205" lon="0.49408">
        <ele>172</ele>
        <time>2012-08-05T06:48:26Z</time>
      </trkpt>
      <trkpt lat="44.74205" lon="0.49435">
        <ele>172</ele>
        <time>2012-08-05T06:48:31Z</time>
      </trkpt>
      <trkpt lat="44.74204" lon="0.49462">
        <ele>172</ele>
        <time>2012-08-05T06:48:36Z</time>
      </trkpt>
      <trkpt lat="44.74204" lon="0.4949">
        <ele>172</ele>
        <time>2012-08-05T06:48:41Z</time>
      </trkpt>
      <trkpt lat="44.74201" lon="0.49519">
        <ele>172</ele>
        <time>2012-08-05T06:48:46Z</time>
      </trkpt>
      <trkpt lat="44.74197" lon="0.49552">
        <ele>172</ele>
        <time>2012-08-05T06:48:51Z</time>
      </trkpt>
      <trkpt lat="44.74202" lon="0.49586">
        <ele>172</ele>
        <time>2012-08-05T06:48:56Z</time>
      </trkpt>
      <trkpt lat="44.7424" lon="0.49594">
        <ele>170</ele>
        <time>2012-08-05T06:49:01Z</time>
      </trkpt>
      <trkpt lat="44.74276" lon="0.49608">
        <ele>165</ele>
        <time>2012-08-05T06:49:06Z</time>
      </trkpt>
      <trkpt lat="44.74274" lon="0.4964">
        <ele>161</ele>
        <time>2012-08-05T06:49:11Z</time>
      </trkpt>
      <trkpt lat="44.74265" lon="0.49676">
        <ele>161</ele>
        <time>2012-08-05T06:49:16Z</time>
      </trkpt>
      <trkpt lat="44.74257" lon="0.49707">
        <ele>161</ele>
        <time>2012-08-05T06:49:21Z</time>
      </trkpt>
      <trkpt lat="44.74249" lon="0.49734">
        <ele>161</ele>
        <time>2012-08-05T06:49:26Z</time>
      </trkpt>
      <trkpt lat="44.74242" lon="0.4976">
        <ele>161</ele>
        <time>2012-08-05T06:49:31Z</time>
      </trkpt>
      <trkpt lat="44.74234" lon="0.49785">
        <ele>161</ele>
        <time>2012-08-05T06:49:36Z</time>
      </trkpt>
      <trkpt lat="44.74224" lon="0.4981">
        <ele>161</ele>
        <time>2012-08-05T06:49:41Z</time>
      </trkpt>
      <trkpt lat="44.74215" lon="0.4984">
        <ele>161</ele>
        <time>2012-08-05T06:49:46Z</time>
      </trkpt>
      <trkpt lat="44.74204" lon="0.49876">
        <ele>161</ele>
        <time>2012-08-05T06:49:51Z</time>
      </trkpt>
      <trkpt lat="44.74198" lon="0.49916">
        <ele>161</ele>
        <time>2012-08-05T06:49:56Z</time>
      </trkpt>
      <trkpt lat="44.74185" lon="0.49953">
        <ele>161</ele>
        <time>2012-08-05T06:50:01Z</time>
      </trkpt>
      <trkpt lat="44.74174" lon="0.49993">
        <ele>163</ele>
        <time>2012-08-05T06:50:06Z</time>
      </trkpt>
      <trkpt lat="44.74163" lon="0.50034">
        <ele>165</ele>
        <time>2012-08-05T06:50:11Z</time>
      </trkpt>
      <trkpt lat="44.7415" lon="0.50086">
        <ele>165</ele>
        <time>2012-08-05T06:50:16Z</time>
      </trkpt>
      <trkpt lat="44.74131" lon="0.50143">
        <ele>165</ele>
        <time>2012-08-05T06:50:21Z</time>
      </trkpt>
      <trkpt lat="44.74114" lon="0.50201">
        <ele>163</ele>
        <time>2012-08-05T06:50:26Z</time>
      </trkpt>
      <trkpt lat="44.74096" lon="0.50236">
        <ele>160</ele>
        <time>2012-08-05T06:50:31Z</time>
      </trkpt>
      <trkpt lat="44.74092" lon="0.5022">
        <ele>157</ele>
        <time>2012-08-05T06:50:36Z</time>
      </trkpt>
      <trkpt lat="44.74077" lon="0.50197">
        <ele>153</ele>
        <time>2012-08-05T06:50:41Z</time>
      </trkpt>
      <trkpt lat="44.74056" lon="0.50192">
        <ele>152</ele>
        <time>2012-08-05T06:50:46Z</time>
      </trkpt>
      <trkpt lat="44.74033" lon="0.50203">
        <ele>152</ele>
        <time>2012-08-05T06:50:51Z</time>
      </trkpt>
      <trkpt lat="44.74007" lon="0.50211">
        <ele>152</ele>
        <time>2012-08-05T06:50:56Z</time>
      </trkpt>
      <trkpt lat="44.7397" lon="0.50214">
        <ele>154</ele>
        <time>2012-08-05T06:51:01Z</time>
      </trkpt>
      <trkpt lat="44.73927" lon="0.50228">
        <ele>154</ele>
        <time>2012-08-05T06:51:06Z</time>
      </trkpt>
      <trkpt lat="44.73899" lon="0.50233">
        <ele>153</ele>
        <time>2012-08-05T06:51:11Z</time>
      </trkpt>
      <trkpt lat="44.73867" lon="0.50228">
        <ele>148</ele>
        <time>2012-08-05T06:51:16Z</time>
      </trkpt>
      <trkpt lat="44.73824" lon="0.50219">
        <ele>143</ele>
        <time>2012-08-05T06:51:21Z</time>
      </trkpt>
      <trkpt lat="44.7379" lon="0.50217">
        <ele>138</ele>
        <time>2012-08-05T06:51:26Z</time>
      </trkpt>
      <trkpt lat="44.73755" lon="0.50214">
        <ele>134</ele>
        <time>2012-08-05T06:51:31Z</time>
      </trkpt>
      <trkpt lat="44.7372" lon="0.50207">
        <ele>134</ele>
        <time>2012-08-05T06:51:36Z</time>
      </trkpt>
      <trkpt lat="44.73688" lon="0.50199">
        <ele>134</ele>
        <time>2012-08-05T06:51:41Z</time>
      </trkpt>
      <trkpt lat="44.73662" lon="0.50194">
        <ele>134</ele>
        <time>2012-08-05T06:51:46Z</time>
      </trkpt>
      <trkpt lat="44.73638" lon="0.50194">
        <ele>135</ele>
        <time>2012-08-05T06:51:51Z</time>
      </trkpt>
      <trkpt lat="44.7361" lon="0.50199">
        <ele>136</ele>
        <time>2012-08-05T06:51:56Z</time>
      </trkpt>
      <trkpt lat="44.73578" lon="0.50216">
        <ele>136</ele>
        <time>2012-08-05T06:52:01Z</time>
      </trkpt>
      <trkpt lat="44.73546" lon="0.50234">
        <ele>136</ele>
        <time>2012-08-05T06:52:06Z</time>
      </trkpt>
      <trkpt lat="44.73511" lon="0.50251">
        <ele>135</ele>
        <time>2012-08-05T06:52:11Z</time>
      </trkpt>
      <trkpt lat="44.73477" lon="0.50265">
        <ele>134</ele>
        <time>2012-08-05T06:52:16Z</time>
      </trkpt>
      <trkpt lat="44.73443" lon="0.5027">
        <ele>134</ele>
        <time>2012-08-05T06:52:21Z</time>
      </trkpt>
      <trkpt lat="44.73411" lon="0.50265">
        <ele>134</ele>
        <time>2012-08-05T06:52:26Z</time>
      </trkpt>
      <trkpt lat="44.73384" lon="0.50269">
        <ele>134</ele>
        <time>2012-08-05T06:52:31Z</time>
      </trkpt>
      <trkpt lat="44.73355" lon="0.50283">
        <ele>134</ele>
        <time>2012-08-05T06:52:36Z</time>
      </trkpt>
      <trkpt lat="44.7333" lon="0.50303">
        <ele>134</ele>
        <time>2012-08-05T06:52:41Z</time>
      </trkpt>
      <trkpt lat="44.733" lon="0.50315">
        <ele>134</ele>
        <time>2012-08-05T06:52:46Z</time>
      </trkpt>
      <trkpt lat="44.7327" lon="0.50314">
        <ele>134</ele>
        <time>2012-08-05T06:52:51Z</time>
      </trkpt>
      <trkpt lat="44.73243" lon="0.50307">
        <ele>134</ele>
        <time>2012-08-05T06:52:56Z</time>
      </trkpt>
      <trkpt lat="44.73229" lon="0.50328">
        <ele>134</ele>
        <time>2012-08-05T06:53:01Z</time>
      </trkpt>
      <trkpt lat="44.73222" lon="0.50359">
        <ele>134</ele>
        <time>2012-08-05T06:53:06Z</time>
      </trkpt>
      <trkpt lat="44.73211" lon="0.50388">
        <ele>134</ele>
        <time>2012-08-05T06:53:11Z</time>
      </trkpt>
      <trkpt lat="44.732" lon="0.50418">
        <ele>134</ele>
        <time>2012-08-05T06:53:16Z</time>
      </trkpt>
      <trkpt lat="44.73189" lon="0.50446">
        <ele>134</ele>
        <time>2012-08-05T06:53:21Z</time>
      </trkpt>
      <trkpt lat="44.73177" lon="0.50478">
        <ele>135</ele>
        <time>2012-08-05T06:53:26Z</time>
      </trkpt>
      <trkpt lat="44.73163" lon="0.50511">
        <ele>135</ele>
        <time>2012-08-05T06:53:31Z</time>
      </trkpt>
      <trkpt lat="44.73146" lon="0.50539">
        <ele>135</ele>
        <time>2012-08-05T06:53:36Z</time>
      </trkpt>
      <trkpt lat="44.73127" lon="0.50563">
        <ele>135</ele>
        <time>2012-08-05T06:53:41Z</time>
      </trkpt>
      <trkpt lat="44.73109" lon="0.50585">
        <ele>135</ele>
        <time>2012-08-05T06:53:46Z</time>
      </trkpt>
      <trkpt lat="44.73092" lon="0.50605">
        <ele>135</ele>
        <time>2012-08-05T06:53:51Z</time>
      </trkpt>
      <trkpt lat="44.73075" lon="0.50623">
        <ele>135</ele>
        <time>2012-08-05T06:53:56Z</time>
      </trkpt>
      <trkpt lat="44.73059" lon="0.50642">
        <ele>137</ele>
        <time>2012-08-05T06:54:01Z</time>
      </trkpt>
      <trkpt lat="44.73044" lon="0.50661">
        <ele>139</ele>
        <time>2012-08-05T06:54:06Z</time>
      </trkpt>
      <trkpt lat="44.7303" lon="0.50679">
        <ele>140</ele>
        <time>2012-08-05T06:54:11Z</time>
      </trkpt>
      <trkpt lat="44.73016" lon="0.507">
        <ele>140</ele>
        <time>2012-08-05T06:54:16Z</time>
      </trkpt>
      <trkpt lat="44.73002" lon="0.5072">
        <ele>140</ele>
        <time>2012-08-05T06:54:21Z</time>
      </trkpt>
      <trkpt lat="44.72987" lon="0.50741">
        <ele>140</ele>
        <time>2012-08-05T06:54:26Z</time>
      </trkpt>
      <trkpt lat="44.72972" lon="0.50761">
        <ele>140</ele>
        <time>2012-08-05T06:54:31Z</time>
      </trkpt>
      <trkpt lat="44.72957" lon="0.50783">
        <ele>140</ele>
        <time>2012-08-05T06:54:36Z</time>
      </trkpt>
      <trkpt lat="44.72944" lon="0.508">
        <ele>141</ele>
        <time>2012-08-05T06:54:41Z</time>
      </trkpt>
      <trkpt lat="44.72932" lon="0.50816">
        <ele>144</ele>
        <time>2012-08-05T06:54:46Z</time>
      </trkpt>
      <trkpt lat="44.72916" lon="0.50829">
        <ele>145</ele>
        <time>2012-08-05T06:54:51Z</time>
      </trkpt>
      <trkpt lat="44.72894" lon="0.5084">
        <ele>146</ele>
        <time>2012-08-05T06:54:56Z</time>
      </trkpt>
      <trkpt lat="44.72866" lon="0.50844">
        <ele>146</ele>
        <time>2012-08-05T06:55:01Z</time>
      </trkpt>
      <trkpt lat="44.72841" lon="0.50857">
        <ele>146</ele>
        <time>2012-08-05T06:55:06Z</time>
      </trkpt>
      <trkpt lat="44.72824" lon="0.50872">
        <ele>146</ele>
        <time>2012-08-05T06:55:11Z</time>
      </trkpt>
      <trkpt lat="44.72808" lon="0.50885">
        <ele>146</ele>
        <time>2012-08-05T06:55:16Z</time>
      </trkpt>
      <trkpt lat="44.72793" lon="0.50898">
        <ele>146</ele>
        <time>2012-08-05T06:55:21Z</time>
      </trkpt>
      <trkpt lat="44.7278" lon="0.50916">
        <ele>147</ele>
        <time>2012-08-05T06:55:26Z</time>
      </trkpt>
      <trkpt lat="44.72775" lon="0.5094">
        <ele>150</ele>
        <time>2012-08-05T06:55:31Z</time>
      </trkpt>
      <trkpt lat="44.72772" lon="0.50965">
        <ele>152</ele>
        <time>2012-08-05T06:55:36Z</time>
      </trkpt>
      <trkpt lat="44.7277" lon="0.5099">
        <ele>154</ele>
        <time>2012-08-05T06:55:41Z</time>
      </trkpt>
      <trkpt lat="44.72765" lon="0.51015">
        <ele>156</ele>
        <time>2012-08-05T06:55:46Z</time>
      </trkpt>
      <trkpt lat="44.72759" lon="0.51039">
        <ele>157</ele>
        <time>2012-08-05T06:55:51Z</time>
      </trkpt>
      <trkpt lat="44.72753" lon="0.5106">
        <ele>158</ele>
        <time>2012-08-05T06:55:56Z</time>
      </trkpt>
      <trkpt lat="44.72753" lon="0.51061">
        <ele>158</ele>
        <time>2012-08-05T06:56:03Z</time>
      </trkpt>
      <trkpt lat="44.72754" lon="0.5106">
        <ele>159</ele>
        <time>2012-08-05T06:56:12Z</time>
      </trkpt>
      <trkpt lat="44.72753" lon="0.51059">
        <ele>169</ele>
        <time>2012-08-05T06:58:47Z</time>
      </trkpt>
      <trkpt lat="44.72752" lon="0.51058">
        <ele>170</ele>
        <time>2012-08-05T06:59:24Z</time>
      </trkpt>
      <trkpt lat="44.72751" lon="0.51061">
        <ele>170</ele>
        <time>2012-08-05T06:59:32Z</time>
      </trkpt>
      <trkpt lat="44.72747" lon="0.51071">
        <ele>170</ele>
        <time>2012-08-05T06:59:37Z</time>
      </trkpt>
      <trkpt lat="44.72755" lon="0.51088">
        <ele>170</ele>
        <time>2012-08-05T06:59:43Z</time>
      </trkpt>
      <trkpt lat="44.72765" lon="0.51104">
        <ele>170</ele>
        <time>2012-08-05T06:59:48Z</time>
      </trkpt>
      <trkpt lat="44.7278" lon="0.51123">
        <ele>170</ele>
        <time>2012-08-05T06:59:54Z</time>
      </trkpt>
      <trkpt lat="44.72789" lon="0.51141">
        <ele>170</ele>
        <time>2012-08-05T06:59:59Z</time>
      </trkpt>
      <trkpt lat="44.72785" lon="0.51165">
        <ele>170</ele>
        <time>2012-08-05T07:00:04Z</time>
      </trkpt>
      <trkpt lat="44.72777" lon="0.5119">
        <ele>170</ele>
        <time>2012-08-05T07:00:09Z</time>
      </trkpt>
      <trkpt lat="44.7277" lon="0.51216">
        <ele>169</ele>
        <time>2012-08-05T07:00:14Z</time>
      </trkpt>
      <trkpt lat="44.72764" lon="0.51242">
        <ele>168</ele>
        <time>2012-08-05T07:00:19Z</time>
      </trkpt>
      <trkpt lat="44.7276" lon="0.51267">
        <ele>168</ele>
        <time>2012-08-05T07:00:24Z</time>
      </trkpt>
      <trkpt lat="44.72759" lon="0.51299">
        <ele>168</ele>
        <time>2012-08-05T07:00:30Z</time>
      </trkpt>
      <trkpt lat="44.72758" lon="0.51331">
        <ele>168</ele>
        <time>2012-08-05T07:00:36Z</time>
      </trkpt>
      <trkpt lat="44.72757" lon="0.51358">
        <ele>168</ele>
        <time>2012-08-05T07:00:41Z</time>
      </trkpt>
      <trkpt lat="44.72757" lon="0.51386">
        <ele>168</ele>
        <time>2012-08-05T07:00:46Z</time>
      </trkpt>
      <trkpt lat="44.72757" lon="0.51413">
        <ele>168</ele>
        <time>2012-08-05T07:00:51Z</time>
      </trkpt>
      <trkpt lat="44.72756" lon="0.51444">
        <ele>168</ele>
        <time>2012-08-05T07:00:56Z</time>
      </trkpt>
      <trkpt lat="44.72755" lon="0.51478">
        <ele>168</ele>
        <time>2012-08-05T07:01:01Z</time>
      </trkpt>
      <trkpt lat="44.72753" lon="0.51521">
        <ele>168</ele>
        <time>2012-08-05T07:01:06Z</time>
      </trkpt>
      <trkpt lat="44.7275" lon="0.51573">
        <ele>168</ele>
        <time>2012-08-05T07:01:11Z</time>
      </trkpt>
      <trkpt lat="44.72749" lon="0.51634">
        <ele>165</ele>
        <time>2012-08-05T07:01:16Z</time>
      </trkpt>
      <trkpt lat="44.72748" lon="0.517">
        <ele>164</ele>
        <time>2012-08-05T07:01:21Z</time>
      </trkpt>
      <trkpt lat="44.72749" lon="0.51759">
        <ele>164</ele>
        <time>2012-08-05T07:01:26Z</time>
      </trkpt>
      <trkpt lat="44.72743" lon="0.51822">
        <ele>162</ele>
        <time>2012-08-05T07:01:31Z</time>
      </trkpt>
      <trkpt lat="44.72729" lon="0.51899">
        <ele>160</ele>
        <time>2012-08-05T07:01:37Z</time>
      </trkpt>
      <trkpt lat="44.7272" lon="0.51964">
        <ele>156</ele>
        <time>2012-08-05T07:01:42Z</time>
      </trkpt>
      <trkpt lat="44.72712" lon="0.52031">
        <ele>153</ele>
        <time>2012-08-05T07:01:47Z</time>
      </trkpt>
      <trkpt lat="44.72704" lon="0.52097">
        <ele>152</ele>
        <time>2012-08-05T07:01:52Z</time>
      </trkpt>
      <trkpt lat="44.72695" lon="0.52162">
        <ele>152</ele>
        <time>2012-08-05T07:01:57Z</time>
      </trkpt>
      <trkpt lat="44.72679" lon="0.52219">
        <ele>152</ele>
        <time>2012-08-05T07:02:02Z</time>
      </trkpt>
      <trkpt lat="44.72657" lon="0.52272">
        <ele>152</ele>
        <time>2012-08-05T07:02:07Z</time>
      </trkpt>
      <trkpt lat="44.72633" lon="0.52327">
        <ele>152</ele>
        <time>2012-08-05T07:02:12Z</time>
      </trkpt>
      <trkpt lat="44.72612" lon="0.52385">
        <ele>152</ele>
        <time>2012-08-05T07:02:17Z</time>
      </trkpt>
      <trkpt lat="44.72594" lon="0.52441">
        <ele>148</ele>
        <time>2012-08-05T07:02:22Z</time>
      </trkpt>
      <trkpt lat="44.72575" lon="0.5249">
        <ele>144</ele>
        <time>2012-08-05T07:02:27Z</time>
      </trkpt>
      <trkpt lat="44.72556" lon="0.5253">
        <ele>144</ele>
        <time>2012-08-05T07:02:32Z</time>
      </trkpt>
      <trkpt lat="44.72537" lon="0.52568">
        <ele>144</ele>
        <time>2012-08-05T07:02:37Z</time>
      </trkpt>
      <trkpt lat="44.72516" lon="0.52611">
        <ele>144</ele>
        <time>2012-08-05T07:02:42Z</time>
      </trkpt>
      <trkpt lat="44.72496" lon="0.52654">
        <ele>143</ele>
        <time>2012-08-05T07:02:47Z</time>
      </trkpt>
      <trkpt lat="44.7248" lon="0.52698">
        <ele>141</ele>
        <time>2012-08-05T07:02:52Z</time>
      </trkpt>
      <trkpt lat="44.72478" lon="0.52737">
        <ele>140</ele>
        <time>2012-08-05T07:02:57Z</time>
      </trkpt>
      <trkpt lat="44.72498" lon="0.52769">
        <ele>138</ele>
        <time>2012-08-05T07:03:02Z</time>
      </trkpt>
      <trkpt lat="44.72529" lon="0.52803">
        <ele>137</ele>
        <time>2012-08-05T07:03:07Z</time>
      </trkpt>
      <trkpt lat="44.72556" lon="0.52836">
        <ele>137</ele>
        <time>2012-08-05T07:03:12Z</time>
      </trkpt>
      <trkpt lat="44.72578" lon="0.5288">
        <ele>137</ele>
        <time>2012-08-05T07:03:18Z</time>
      </trkpt>
      <trkpt lat="44.72577" lon="0.52916">
        <ele>137</ele>
        <time>2012-08-05T07:03:23Z</time>
      </trkpt>
      <trkpt lat="44.72568" lon="0.52957">
        <ele>135</ele>
        <time>2012-08-05T07:03:28Z</time>
      </trkpt>
      <trkpt lat="44.72573" lon="0.53005">
        <ele>133</ele>
        <time>2012-08-05T07:03:33Z</time>
      </trkpt>
      <trkpt lat="44.7259" lon="0.5306">
        <ele>130</ele>
        <time>2012-08-05T07:03:38Z</time>
      </trkpt>
      <trkpt lat="44.72599" lon="0.53131">
        <ele>127</ele>
        <time>2012-08-05T07:03:43Z</time>
      </trkpt>
      <trkpt lat="44.72615" lon="0.53185">
        <ele>123</ele>
        <time>2012-08-05T07:03:48Z</time>
      </trkpt>
      <trkpt lat="44.72662" lon="0.53207">
        <ele>118</ele>
        <time>2012-08-05T07:03:53Z</time>
      </trkpt>
      <trkpt lat="44.7271" lon="0.53245">
        <ele>115</ele>
        <time>2012-08-05T07:03:58Z</time>
      </trkpt>
      <trkpt lat="44.72742" lon="0.53275">
        <ele>113</ele>
        <time>2012-08-05T07:04:03Z</time>
      </trkpt>
      <trkpt lat="44.72749" lon="0.53303">
        <ele>113</ele>
        <time>2012-08-05T07:04:08Z</time>
      </trkpt>
      <trkpt lat="44.72735" lon="0.53332">
        <ele>110</ele>
        <time>2012-08-05T07:04:13Z</time>
      </trkpt>
      <trkpt lat="44.72712" lon="0.53356">
        <ele>105</ele>
        <time>2012-08-05T07:04:18Z</time>
      </trkpt>
      <trkpt lat="44.72683" lon="0.53374">
        <ele>101</ele>
        <time>2012-08-05T07:04:23Z</time>
      </trkpt>
      <trkpt lat="44.7265" lon="0.53397">
        <ele>101</ele>
        <time>2012-08-05T07:04:28Z</time>
      </trkpt>
      <trkpt lat="44.72615" lon="0.53419">
        <ele>101</ele>
        <time>2012-08-05T07:04:33Z</time>
      </trkpt>
      <trkpt lat="44.72577" lon="0.53424">
        <ele>101</ele>
        <time>2012-08-05T07:04:38Z</time>
      </trkpt>
      <trkpt lat="44.72539" lon="0.53428">
        <ele>99</ele>
        <time>2012-08-05T07:04:43Z</time>
      </trkpt>
      <trkpt lat="44.72505" lon="0.53457">
        <ele>98</ele>
        <time>2012-08-05T07:04:48Z</time>
      </trkpt>
      <trkpt lat="44.72469" lon="0.53482">
        <ele>95</ele>
        <time>2012-08-05T07:04:53Z</time>
      </trkpt>
      <trkpt lat="44.7243" lon="0.53496">
        <ele>94</ele>
        <time>2012-08-05T07:04:58Z</time>
      </trkpt>
      <trkpt lat="44.72395" lon="0.53513">
        <ele>94</ele>
        <time>2012-08-05T07:05:03Z</time>
      </trkpt>
      <trkpt lat="44.72359" lon="0.5353">
        <ele>94</ele>
        <time>2012-08-05T07:05:08Z</time>
      </trkpt>
      <trkpt lat="44.72327" lon="0.53547">
        <ele>94</ele>
        <time>2012-08-05T07:05:13Z</time>
      </trkpt>
      <trkpt lat="44.72305" lon="0.53559">
        <ele>94</ele>
        <time>2012-08-05T07:05:18Z</time>
      </trkpt>
      <trkpt lat="44.72288" lon="0.53591">
        <ele>94</ele>
        <time>2012-08-05T07:05:23Z</time>
      </trkpt>
      <trkpt lat="44.72261" lon="0.53617">
        <ele>94</ele>
        <time>2012-08-05T07:05:28Z</time>
      </trkpt>
      <trkpt lat="44.72229" lon="0.53642">
        <ele>94</ele>
        <time>2012-08-05T07:05:33Z</time>
      </trkpt>
      <trkpt lat="44.72198" lon="0.5367">
        <ele>94</ele>
        <time>2012-08-05T07:05:38Z</time>
      </trkpt>
      <trkpt lat="44.72172" lon="0.53698">
        <ele>94</ele>
        <time>2012-08-05T07:05:43Z</time>
      </trkpt>
      <trkpt lat="44.72146" lon="0.53725">
        <ele>94</ele>
        <time>2012-08-05T07:05:48Z</time>
      </trkpt>
      <trkpt lat="44.72123" lon="0.53736">
        <ele>94</ele>
        <time>2012-08-05T07:05:53Z</time>
      </trkpt>
      <trkpt lat="44.72105" lon="0.53745">
        <ele>94</ele>
        <time>2012-08-05T07:05:58Z</time>
      </trkpt>
      <trkpt lat="44.72089" lon="0.5375">
        <ele>94</ele>
        <time>2012-08-05T07:06:03Z</time>
      </trkpt>
      <trkpt lat="44.72074" lon="0.53755">
        <ele>94</ele>
        <time>2012-08-05T07:06:08Z</time>
      </trkpt>
      <trkpt lat="44.72059" lon="0.53759">
        <ele>94</ele>
        <time>2012-08-05T07:06:13Z</time>
      </trkpt>
      <trkpt lat="44.72042" lon="0.53764">
        <ele>94</ele>
        <time>2012-08-05T07:06:18Z</time>
      </trkpt>
      <trkpt lat="44.72024" lon="0.53775">
        <ele>94</ele>
        <time>2012-08-05T07:06:23Z</time>
      </trkpt>
      <trkpt lat="44.72007" lon="0.53786">
        <ele>94</ele>
        <time>2012-08-05T07:06:28Z</time>
      </trkpt>
      <trkpt lat="44.71989" lon="0.53803">
        <ele>94</ele>
        <time>2012-08-05T07:06:33Z</time>
      </trkpt>
      <trkpt lat="44.71973" lon="0.53821">
        <ele>95</ele>
        <time>2012-08-05T07:06:38Z</time>
      </trkpt>
      <trkpt lat="44.71959" lon="0.53837">
        <ele>98</ele>
        <time>2012-08-05T07:06:43Z</time>
      </trkpt>
      <trkpt lat="44.71944" lon="0.53852">
        <ele>100</ele>
        <time>2012-08-05T07:06:48Z</time>
      </trkpt>
      <trkpt lat="44.7193" lon="0.53866">
        <ele>101</ele>
        <time>2012-08-05T07:06:53Z</time>
      </trkpt>
      <trkpt lat="44.71921" lon="0.53877">
        <ele>101</ele>
        <time>2012-08-05T07:06:58Z</time>
      </trkpt>
      <trkpt lat="44.71909" lon="0.53889">
        <ele>101</ele>
        <time>2012-08-05T07:07:03Z</time>
      </trkpt>
      <trkpt lat="44.71896" lon="0.53904">
        <ele>101</ele>
        <time>2012-08-05T07:07:08Z</time>
      </trkpt>
      <trkpt lat="44.71882" lon="0.53921">
        <ele>101</ele>
        <time>2012-08-05T07:07:13Z</time>
      </trkpt>
      <trkpt lat="44.71867" lon="0.53937">
        <ele>101</ele>
        <time>2012-08-05T07:07:18Z</time>
      </trkpt>
      <trkpt lat="44.71852" lon="0.5395">
        <ele>102</ele>
        <time>2012-08-05T07:07:23Z</time>
      </trkpt>
      <trkpt lat="44.71837" lon="0.53962">
        <ele>102</ele>
        <time>2012-08-05T07:07:28Z</time>
      </trkpt>
      <trkpt lat="44.71821" lon="0.53974">
        <ele>102</ele>
        <time>2012-08-05T07:07:33Z</time>
      </trkpt>
      <trkpt lat="44.71806" lon="0.53987">
        <ele>102</ele>
        <time>2012-08-05T07:07:38Z</time>
      </trkpt>
      <trkpt lat="44.7179" lon="0.54">
        <ele>103</ele>
        <time>2012-08-05T07:07:43Z</time>
      </trkpt>
      <trkpt lat="44.71772" lon="0.54011">
        <ele>104</ele>
        <time>2012-08-05T07:07:48Z</time>
      </trkpt>
      <trkpt lat="44.71756" lon="0.54026">
        <ele>104</ele>
        <time>2012-08-05T07:07:53Z</time>
      </trkpt>
      <trkpt lat="44.7174" lon="0.54044">
        <ele>104</ele>
        <time>2012-08-05T07:07:58Z</time>
      </trkpt>
      <trkpt lat="44.71724" lon="0.5406">
        <ele>105</ele>
        <time>2012-08-05T07:08:03Z</time>
      </trkpt>
      <trkpt lat="44.71709" lon="0.54076">
        <ele>108</ele>
        <time>2012-08-05T07:08:08Z</time>
      </trkpt>
      <trkpt lat="44.71692" lon="0.54091">
        <ele>111</ele>
        <time>2012-08-05T07:08:13Z</time>
      </trkpt>
      <trkpt lat="44.71677" lon="0.54106">
        <ele>113</ele>
        <time>2012-08-05T07:08:18Z</time>
      </trkpt>
      <trkpt lat="44.71663" lon="0.5412">
        <ele>114</ele>
        <time>2012-08-05T07:08:23Z</time>
      </trkpt>
      <trkpt lat="44.71649" lon="0.54134">
        <ele>116</ele>
        <time>2012-08-05T07:08:28Z</time>
      </trkpt>
      <trkpt lat="44.7164" lon="0.54149">
        <ele>118</ele>
        <time>2012-08-05T07:08:33Z</time>
      </trkpt>
      <trkpt lat="44.7163" lon="0.54163">
        <ele>119</ele>
        <time>2012-08-05T07:08:38Z</time>
      </trkpt>
      <trkpt lat="44.7162" lon="0.54179">
        <ele>122</ele>
        <time>2012-08-05T07:08:43Z</time>
      </trkpt>
      <trkpt lat="44.71611" lon="0.54195">
        <ele>123</ele>
        <time>2012-08-05T07:08:48Z</time>
      </trkpt>
      <trkpt lat="44.71599" lon="0.5421">
        <ele>123</ele>
        <time>2012-08-05T07:08:53Z</time>
      </trkpt>
      <trkpt lat="44.71586" lon="0.54223">
        <ele>124</ele>
        <time>2012-08-05T07:08:58Z</time>
      </trkpt>
      <trkpt lat="44.71574" lon="0.54236">
        <ele>125</ele>
        <time>2012-08-05T07:09:03Z</time>
      </trkpt>
      <trkpt lat="44.71561" lon="0.54248">
        <ele>126</ele>
        <time>2012-08-05T07:09:08Z</time>
      </trkpt>
      <trkpt lat="44.71548" lon="0.54261">
        <ele>126</ele>
        <time>2012-08-05T07:09:13Z</time>
      </trkpt>
      <trkpt lat="44.71535" lon="0.54274">
        <ele>127</ele>
        <time>2012-08-05T07:09:18Z</time>
      </trkpt>
      <trkpt lat="44.71523" lon="0.54289">
        <ele>128</ele>
        <time>2012-08-05T07:09:23Z</time>
      </trkpt>
      <trkpt lat="44.71512" lon="0.54304">
        <ele>128</ele>
        <time>2012-08-05T07:09:28Z</time>
      </trkpt>
      <trkpt lat="44.715" lon="0.54319">
        <ele>128</ele>
        <time>2012-08-05T07:09:33Z</time>
      </trkpt>
      <trkpt lat="44.71488" lon="0.54333">
        <ele>129</ele>
        <time>2012-08-05T07:09:38Z</time>
      </trkpt>
      <trkpt lat="44.71476" lon="0.54347">
        <ele>130</ele>
        <time>2012-08-05T07:09:43Z</time>
      </trkpt>
      <trkpt lat="44.71462" lon="0.5436">
        <ele>132</ele>
        <time>2012-08-05T07:09:48Z</time>
      </trkpt>
      <trkpt lat="44.71448" lon="0.54374">
        <ele>133</ele>
        <time>2012-08-05T07:09:53Z</time>
      </trkpt>
      <trkpt lat="44.71434" lon="0.54387">
        <ele>136</ele>
        <time>2012-08-05T07:09:58Z</time>
      </trkpt>
      <trkpt lat="44.71417" lon="0.54403">
        <ele>136</ele>
        <time>2012-08-05T07:10:03Z</time>
      </trkpt>
      <trkpt lat="44.71391" lon="0.54425">
        <ele>136</ele>
        <time>2012-08-05T07:10:08Z</time>
      </trkpt>
      <trkpt lat="44.71356" lon="0.54454">
        <ele>136</ele>
        <time>2012-08-05T07:10:13Z</time>
      </trkpt>
      <trkpt lat="44.71317" lon="0.54495">
        <ele>134</ele>
        <time>2012-08-05T07:10:18Z</time>
      </trkpt>
      <trkpt lat="44.71289" lon="0.54559">
        <ele>129</ele>
        <time>2012-08-05T07:10:23Z</time>
      </trkpt>
      <trkpt lat="44.7127" lon="0.54609">
        <ele>124</ele>
        <time>2012-08-05T07:10:28Z</time>
      </trkpt>
      <trkpt lat="44.7127" lon="0.54634">
        <ele>119</ele>
        <time>2012-08-05T07:10:33Z</time>
      </trkpt>
      <trkpt lat="44.71291" lon="0.54648">
        <ele>119</ele>
        <time>2012-08-05T07:10:38Z</time>
      </trkpt>
      <trkpt lat="44.71314" lon="0.54664">
        <ele>119</ele>
        <time>2012-08-05T07:10:43Z</time>
      </trkpt>
      <trkpt lat="44.71337" lon="0.54681">
        <ele>119</ele>
        <time>2012-08-05T07:10:48Z</time>
      </trkpt>
      <trkpt lat="44.71359" lon="0.54699">
        <ele>119</ele>
        <time>2012-08-05T07:10:53Z</time>
      </trkpt>
      <trkpt lat="44.71378" lon="0.5472">
        <ele>121</ele>
        <time>2012-08-05T07:10:58Z</time>
      </trkpt>
      <trkpt lat="44.71396" lon="0.54744">
        <ele>123</ele>
        <time>2012-08-05T07:11:03Z</time>
      </trkpt>
      <trkpt lat="44.71413" lon="0.54772">
        <ele>126</ele>
        <time>2012-08-05T07:11:08Z</time>
      </trkpt>
      <trkpt lat="44.71429" lon="0.54799">
        <ele>130</ele>
        <time>2012-08-05T07:11:13Z</time>
      </trkpt>
      <trkpt lat="44.71444" lon="0.54817">
        <ele>131</ele>
        <time>2012-08-05T07:11:18Z</time>
      </trkpt>
      <trkpt lat="44.71435" lon="0.5484">
        <ele>131</ele>
        <time>2012-08-05T07:11:23Z</time>
      </trkpt>
      <trkpt lat="44.71409" lon="0.54868">
        <ele>131</ele>
        <time>2012-08-05T07:11:28Z</time>
      </trkpt>
      <trkpt lat="44.7138" lon="0.54899">
        <ele>129</ele>
        <time>2012-08-05T07:11:33Z</time>
      </trkpt>
      <trkpt lat="44.71348" lon="0.54931">
        <ele>125</ele>
        <time>2012-08-05T07:11:38Z</time>
      </trkpt>
      <trkpt lat="44.71317" lon="0.54958">
        <ele>120</ele>
        <time>2012-08-05T07:11:43Z</time>
      </trkpt>
      <trkpt lat="44.71315" lon="0.54969">
        <ele>117</ele>
        <time>2012-08-05T07:11:48Z</time>
      </trkpt>
      <trkpt lat="44.7131" lon="0.55008">
        <ele>115</ele>
        <time>2012-08-05T07:11:53Z</time>
      </trkpt>
      <trkpt lat="44.71282" lon="0.5503">
        <ele>113</ele>
        <time>2012-08-05T07:11:58Z</time>
      </trkpt>
      <trkpt lat="44.71261" lon="0.55041">
        <ele>109</ele>
        <time>2012-08-05T07:12:03Z</time>
      </trkpt>
      <trkpt lat="44.71246" lon="0.55067">
        <ele>106</ele>
        <time>2012-08-05T07:12:08Z</time>
      </trkpt>
      <trkpt lat="44.71229" lon="0.55094">
        <ele>102</ele>
        <time>2012-08-05T07:12:13Z</time>
      </trkpt>
      <trkpt lat="44.71212" lon="0.55132">
        <ele>97</ele>
        <time>2012-08-05T07:12:18Z</time>
      </trkpt>
      <trkpt lat="44.71185" lon="0.55158">
        <ele>96</ele>
        <time>2012-08-05T07:12:23Z</time>
      </trkpt>
      <trkpt lat="44.71155" lon="0.55183">
        <ele>96</ele>
        <time>2012-08-05T07:12:28Z</time>
      </trkpt>
      <trkpt lat="44.71138" lon="0.55186">
        <ele>95</ele>
        <time>2012-08-05T07:12:33Z</time>
      </trkpt>
      <trkpt lat="44.71131" lon="0.55161">
        <ele>95</ele>
        <time>2012-08-05T07:12:38Z</time>
      </trkpt>
      <trkpt lat="44.71124" lon="0.55137">
        <ele>95</ele>
        <time>2012-08-05T07:12:43Z</time>
      </trkpt>
      <trkpt lat="44.7112" lon="0.55112">
        <ele>95</ele>
        <time>2012-08-05T07:12:48Z</time>
      </trkpt>
      <trkpt lat="44.71115" lon="0.55088">
        <ele>95</ele>
        <time>2012-08-05T07:12:53Z</time>
      </trkpt>
      <trkpt lat="44.71111" lon="0.55067">
        <ele>98</ele>
        <time>2012-08-05T07:12:58Z</time>
      </trkpt>
      <trkpt lat="44.71101" lon="0.55058">
        <ele>101</ele>
        <time>2012-08-05T07:13:03Z</time>
      </trkpt>
      <trkpt lat="44.7109" lon="0.55058">
        <ele>101</ele>
        <time>2012-08-05T07:13:08Z</time>
      </trkpt>
      <trkpt lat="44.71077" lon="0.55054">
        <ele>101</ele>
        <time>2012-08-05T07:13:13Z</time>
      </trkpt>
      <trkpt lat="44.71058" lon="0.55045">
        <ele>101</ele>
        <time>2012-08-05T07:13:18Z</time>
      </trkpt>
      <trkpt lat="44.71026" lon="0.55043">
        <ele>101</ele>
        <time>2012-08-05T07:13:23Z</time>
      </trkpt>
      <trkpt lat="44.71001" lon="0.55049">
        <ele>99</ele>
        <time>2012-08-05T07:13:28Z</time>
      </trkpt>
      <trkpt lat="44.70999" lon="0.55076">
        <ele>97</ele>
        <time>2012-08-05T07:13:33Z</time>
      </trkpt>
      <trkpt lat="44.71" lon="0.55115">
        <ele>97</ele>
        <time>2012-08-05T07:13:38Z</time>
      </trkpt>
      <trkpt lat="44.70994" lon="0.55151">
        <ele>95</ele>
        <time>2012-08-05T07:13:43Z</time>
      </trkpt>
      <trkpt lat="44.70972" lon="0.55142">
        <ele>94</ele>
        <time>2012-08-05T07:13:48Z</time>
      </trkpt>
      <trkpt lat="44.70956" lon="0.55137">
        <ele>94</ele>
        <time>2012-08-05T07:13:53Z</time>
      </trkpt>
      <trkpt lat="44.7095" lon="0.55129">
        <ele>97</ele>
        <time>2012-08-05T07:13:58Z</time>
      </trkpt>
      <trkpt lat="44.70941" lon="0.55123">
        <ele>98</ele>
        <time>2012-08-05T07:14:03Z</time>
      </trkpt>
      <trkpt lat="44.70928" lon="0.55121">
        <ele>98</ele>
        <time>2012-08-05T07:14:08Z</time>
      </trkpt>
      <trkpt lat="44.70922" lon="0.55128">
        <ele>100</ele>
        <time>2012-08-05T07:14:13Z</time>
      </trkpt>
      <trkpt lat="44.70919" lon="0.55138">
        <ele>100</ele>
        <time>2012-08-05T07:14:18Z</time>
      </trkpt>
      <trkpt lat="44.70917" lon="0.5515">
        <ele>102</ele>
        <time>2012-08-05T07:14:23Z</time>
      </trkpt>
      <trkpt lat="44.70913" lon="0.5516">
        <ele>107</ele>
        <time>2012-08-05T07:14:28Z</time>
      </trkpt>
      <trkpt lat="44.70913" lon="0.55174">
        <ele>109</ele>
        <time>2012-08-05T07:14:33Z</time>
      </trkpt>
      <trkpt lat="44.70912" lon="0.5519">
        <ele>109</ele>
        <time>2012-08-05T07:14:38Z</time>
      </trkpt>
      <trkpt lat="44.70909" lon="0.55209">
        <ele>109</ele>
        <time>2012-08-05T07:14:43Z</time>
      </trkpt>
      <trkpt lat="44.70903" lon="0.5523">
        <ele>109</ele>
        <time>2012-08-05T07:14:48Z</time>
      </trkpt>
      <trkpt lat="44.70892" lon="0.55251">
        <ele>109</ele>
        <time>2012-08-05T07:14:53Z</time>
      </trkpt>
      <trkpt lat="44.70876" lon="0.55273">
        <ele>109</ele>
        <time>2012-08-05T07:14:58Z</time>
      </trkpt>
      <trkpt lat="44.70859" lon="0.55302">
        <ele>109</ele>
        <time>2012-08-05T07:15:03Z</time>
      </trkpt>
      <trkpt lat="44.70837" lon="0.55319">
        <ele>109</ele>
        <time>2012-08-05T07:15:08Z</time>
      </trkpt>
      <trkpt lat="44.70808" lon="0.55341">
        <ele>109</ele>
        <time>2012-08-05T07:15:13Z</time>
      </trkpt>
      <trkpt lat="44.70795" lon="0.55366">
        <ele>106</ele>
        <time>2012-08-05T07:15:18Z</time>
      </trkpt>
      <trkpt lat="44.70773" lon="0.55366">
        <ele>105</ele>
        <time>2012-08-05T07:15:23Z</time>
      </trkpt>
      <trkpt lat="44.70759" lon="0.5539">
        <ele>104</ele>
        <time>2012-08-05T07:15:28Z</time>
      </trkpt>
      <trkpt lat="44.70741" lon="0.55409">
        <ele>102</ele>
        <time>2012-08-05T07:15:33Z</time>
      </trkpt>
      <trkpt lat="44.70724" lon="0.55421">
        <ele>102</ele>
        <time>2012-08-05T07:15:38Z</time>
      </trkpt>
      <trkpt lat="44.70706" lon="0.55441">
        <ele>102</ele>
        <time>2012-08-05T07:15:43Z</time>
      </trkpt>
      <trkpt lat="44.70691" lon="0.55458">
        <ele>102</ele>
        <time>2012-08-05T07:15:48Z</time>
      </trkpt>
      <trkpt lat="44.70689" lon="0.55457">
        <ele>108</ele>
        <time>2012-08-05T07:15:57Z</time>
      </trkpt>
      <trkpt lat="44.70689" lon="0.55455">
        <ele>117</ele>
        <time>2012-08-05T07:16:09Z</time>
      </trkpt>
      <trkpt lat="44.70691" lon="0.55454">
        <ele>120</ele>
        <time>2012-08-05T07:16:20Z</time>
      </trkpt>
      <trkpt lat="44.70692" lon="0.55453">
        <ele>120</ele>
        <time>2012-08-05T07:16:36Z</time>
      </trkpt>
      <trkpt lat="44.70689" lon="0.55455">
        <ele>120</ele>
        <time>2012-08-05T07:16:48Z</time>
      </trkpt>
      <trkpt lat="44.70688" lon="0.55455">
        <ele>120</ele>
        <time>2012-08-05T07:16:54Z</time>
      </trkpt>
      <trkpt lat="44.70676" lon="0.55469">
        <ele>120</ele>
        <time>2012-08-05T07:16:59Z</time>
      </trkpt>
      <trkpt lat="44.70655" lon="0.55498">
        <ele>119</ele>
        <time>2012-08-05T07:17:04Z</time>
      </trkpt>
      <trkpt lat="44.70629" lon="0.55521">
        <ele>116</ele>
        <time>2012-08-05T07:17:09Z</time>
      </trkpt>
      <trkpt lat="44.70607" lon="0.55533">
        <ele>116</ele>
        <time>2012-08-05T07:17:14Z</time>
      </trkpt>
      <trkpt lat="44.7059" lon="0.55564">
        <ele>115</ele>
        <time>2012-08-05T07:17:19Z</time>
      </trkpt>
      <trkpt lat="44.70574" lon="0.55596">
        <ele>111</ele>
        <time>2012-08-05T07:17:24Z</time>
      </trkpt>
      <trkpt lat="44.70556" lon="0.55622">
        <ele>108</ele>
        <time>2012-08-05T07:17:29Z</time>
      </trkpt>
      <trkpt lat="44.70531" lon="0.55631">
        <ele>108</ele>
        <time>2012-08-05T07:17:34Z</time>
      </trkpt>
      <trkpt lat="44.70503" lon="0.55626">
        <ele>108</ele>
        <time>2012-08-05T07:17:39Z</time>
      </trkpt>
      <trkpt lat="44.70474" lon="0.5562">
        <ele>108</ele>
        <time>2012-08-05T07:17:44Z</time>
      </trkpt>
      <trkpt lat="44.70449" lon="0.55612">
        <ele>107</ele>
        <time>2012-08-05T07:17:49Z</time>
      </trkpt>
      <trkpt lat="44.70432" lon="0.55586">
        <ele>107</ele>
        <time>2012-08-05T07:17:54Z</time>
      </trkpt>
      <trkpt lat="44.70404" lon="0.55579">
        <ele>106</ele>
        <time>2012-08-05T07:17:59Z</time>
      </trkpt>
      <trkpt lat="44.70375" lon="0.55581">
        <ele>106</ele>
        <time>2012-08-05T07:18:04Z</time>
      </trkpt>
      <trkpt lat="44.70341" lon="0.55595">
        <ele>104</ele>
        <time>2012-08-05T07:18:09Z</time>
      </trkpt>
      <trkpt lat="44.70301" lon="0.5561">
        <ele>102</ele>
        <time>2012-08-05T07:18:14Z</time>
      </trkpt>
      <trkpt lat="44.70265" lon="0.55623">
        <ele>99</ele>
        <time>2012-08-05T07:18:19Z</time>
      </trkpt>
      <trkpt lat="44.7023" lon="0.55617">
        <ele>99</ele>
        <time>2012-08-05T07:18:24Z</time>
      </trkpt>
      <trkpt lat="44.70195" lon="0.55624">
        <ele>98</ele>
        <time>2012-08-05T07:18:29Z</time>
      </trkpt>
      <trkpt lat="44.70174" lon="0.55655">
        <ele>96</ele>
        <time>2012-08-05T07:18:34Z</time>
      </trkpt>
      <trkpt lat="44.70138" lon="0.55687">
        <ele>93</ele>
        <time>2012-08-05T07:18:39Z</time>
      </trkpt>
      <trkpt lat="44.70104" lon="0.55716">
        <ele>89</ele>
        <time>2012-08-05T07:18:44Z</time>
      </trkpt>
      <trkpt lat="44.70069" lon="0.55742">
        <ele>85</ele>
        <time>2012-08-05T07:18:49Z</time>
      </trkpt>
      <trkpt lat="44.70036" lon="0.55743">
        <ele>85</ele>
        <time>2012-08-05T07:18:54Z</time>
      </trkpt>
      <trkpt lat="44.70011" lon="0.55725">
        <ele>83</ele>
        <time>2012-08-05T07:18:59Z</time>
      </trkpt>
      <trkpt lat="44.69986" lon="0.55735">
        <ele>78</ele>
        <time>2012-08-05T07:19:04Z</time>
      </trkpt>
      <trkpt lat="44.69958" lon="0.55753">
        <ele>76</ele>
        <time>2012-08-05T07:19:09Z</time>
      </trkpt>
      <trkpt lat="44.69937" lon="0.55763">
        <ele>72</ele>
        <time>2012-08-05T07:19:14Z</time>
      </trkpt>
      <trkpt lat="44.69918" lon="0.55769">
        <ele>67</ele>
        <time>2012-08-05T07:19:19Z</time>
      </trkpt>
      <trkpt lat="44.69904" lon="0.5577">
        <ele>65</ele>
        <time>2012-08-05T07:19:24Z</time>
      </trkpt>
      <trkpt lat="44.69878" lon="0.55768">
        <ele>65</ele>
        <time>2012-08-05T07:19:29Z</time>
      </trkpt>
      <trkpt lat="44.6984" lon="0.55757">
        <ele>62</ele>
        <time>2012-08-05T07:19:34Z</time>
      </trkpt>
      <trkpt lat="44.69806" lon="0.55747">
        <ele>62</ele>
        <time>2012-08-05T07:19:39Z</time>
      </trkpt>
      <trkpt lat="44.69775" lon="0.55737">
        <ele>62</ele>
        <time>2012-08-05T07:19:44Z</time>
      </trkpt>
      <trkpt lat="44.69742" lon="0.55724">
        <ele>62</ele>
        <time>2012-08-05T07:19:49Z</time>
      </trkpt>
      <trkpt lat="44.6972" lon="0.55698">
        <ele>62</ele>
        <time>2012-08-05T07:19:54Z</time>
      </trkpt>
      <trkpt lat="44.69707" lon="0.55686">
        <ele>62</ele>
        <time>2012-08-05T07:20:00Z</time>
      </trkpt>
      <trkpt lat="44.69706" lon="0.55682">
        <ele>66</ele>
        <time>2012-08-05T07:20:11Z</time>
      </trkpt>
      <trkpt lat="44.69707" lon="0.5568">
        <ele>75</ele>
        <time>2012-08-05T07:20:18Z</time>
      </trkpt>
      <trkpt lat="44.69707" lon="0.55683">
        <ele>91</ele>
        <time>2012-08-05T07:20:26Z</time>
      </trkpt>
      <trkpt lat="44.69704" lon="0.55685">
        <ele>102</ele>
        <time>2012-08-05T07:20:32Z</time>
      </trkpt>
      <trkpt lat="44.697" lon="0.55684">
        <ele>109</ele>
        <time>2012-08-05T07:20:39Z</time>
      </trkpt>
      <trkpt lat="44.697" lon="0.55684">
        <ele>112</ele>
        <time>2012-08-05T07:20:46Z</time>
      </trkpt>
      <trkpt lat="44.69702" lon="0.55687">
        <ele>112</ele>
        <time>2012-08-05T07:20:53Z</time>
      </trkpt>
      <trkpt lat="44.69705" lon="0.55689">
        <ele>108</ele>
        <time>2012-08-05T07:20:59Z</time>
      </trkpt>
      <trkpt lat="44.69709" lon="0.55692">
        <ele>102</ele>
        <time>2012-08-05T07:21:05Z</time>
      </trkpt>
      <trkpt lat="44.69712" lon="0.55695">
        <ele>96</ele>
        <time>2012-08-05T07:21:11Z</time>
      </trkpt>
      <trkpt lat="44.69712" lon="0.55694">
        <ele>86</ele>
        <time>2012-08-05T07:21:21Z</time>
      </trkpt>
      <trkpt lat="44.69709" lon="0.55689">
        <ele>85</ele>
        <time>2012-08-05T07:21:31Z</time>
      </trkpt>
      <trkpt lat="44.69706" lon="0.55687">
        <ele>85</ele>
        <time>2012-08-05T07:21:40Z</time>
      </trkpt>
      <trkpt lat="44.69705" lon="0.55686">
        <ele>85</ele>
        <time>2012-08-05T07:21:45Z</time>
      </trkpt>
      <trkpt lat="44.69704" lon="0.55685">
        <ele>85</ele>
        <time>2012-08-05T07:21:51Z</time>
      </trkpt>
      <trkpt lat="44.69703" lon="0.55683">
        <ele>84</ele>
        <time>2012-08-05T07:21:59Z</time>
      </trkpt>
      <trkpt lat="44.69701" lon="0.55682">
        <ele>84</ele>
        <time>2012-08-05T07:22:07Z</time>
      </trkpt>
      <trkpt lat="44.697" lon="0.55683">
        <ele>84</ele>
        <time>2012-08-05T07:22:17Z</time>
      </trkpt>
      <trkpt lat="44.69699" lon="0.5568">
        <ele>81</ele>
        <time>2012-08-05T07:22:30Z</time>
      </trkpt>
      <trkpt lat="44.69694" lon="0.55672">
        <ele>76</ele>
        <time>2012-08-05T07:22:35Z</time>
      </trkpt>
      <trkpt lat="44.69687" lon="0.55657">
        <ele>72</ele>
        <time>2012-08-05T07:22:40Z</time>
      </trkpt>
      <trkpt lat="44.69678" lon="0.55651">
        <ele>68</ele>
        <time>2012-08-05T07:22:46Z</time>
      </trkpt>
      <trkpt lat="44.69671" lon="0.55658">
        <ele>64</ele>
        <time>2012-08-05T07:22:51Z</time>
      </trkpt>
      <trkpt lat="44.69658" lon="0.55657">
        <ele>60</ele>
        <time>2012-08-05T07:22:56Z</time>
      </trkpt>
      <trkpt lat="44.69647" lon="0.55661">
        <ele>58</ele>
        <time>2012-08-05T07:23:01Z</time>
      </trkpt>
      <trkpt lat="44.69635" lon="0.55664">
        <ele>57</ele>
        <time>2012-08-05T07:23:06Z</time>
      </trkpt>
      <trkpt lat="44.69624" lon="0.55668">
        <ele>57</ele>
        <time>2012-08-05T07:23:11Z</time>
      </trkpt>
      <trkpt lat="44.69613" lon="0.55676">
        <ele>57</ele>
        <time>2012-08-05T07:23:16Z</time>
      </trkpt>
      <trkpt lat="44.69599" lon="0.55682">
        <ele>62</ele>
        <time>2012-08-05T07:23:21Z</time>
      </trkpt>
      <trkpt lat="44.69589" lon="0.55689">
        <ele>67</ele>
        <time>2012-08-05T07:23:26Z</time>
      </trkpt>
      <trkpt lat="44.6958" lon="0.55699">
        <ele>71</ele>
        <time>2012-08-05T07:23:31Z</time>
      </trkpt>
      <trkpt lat="44.69573" lon="0.55708">
        <ele>75</ele>
        <time>2012-08-05T07:23:36Z</time>
      </trkpt>
      <trkpt lat="44.69566" lon="0.55717">
        <ele>79</ele>
        <time>2012-08-05T07:23:41Z</time>
      </trkpt>
      <trkpt lat="44.6956" lon="0.55729">
        <ele>81</ele>
        <time>2012-08-05T07:23:46Z</time>
      </trkpt>
      <trkpt lat="44.69555" lon="0.55742">
        <ele>83</ele>
        <time>2012-08-05T07:23:51Z</time>
      </trkpt>
      <trkpt lat="44.69547" lon="0.55756">
        <ele>83</ele>
        <time>2012-08-05T07:23:56Z</time>
      </trkpt>
      <trkpt lat="44.69534" lon="0.55776">
        <ele>83</ele>
        <time>2012-08-05T07:24:01Z</time>
      </trkpt>
      <trkpt lat="44.69521" lon="0.55796">
        <ele>82</ele>
        <time>2012-08-05T07:24:06Z</time>
      </trkpt>
      <trkpt lat="44.69505" lon="0.55814">
        <ele>82</ele>
        <time>2012-08-05T07:24:11Z</time>
      </trkpt>
      <trkpt lat="44.6948" lon="0.55818">
        <ele>82</ele>
        <time>2012-08-05T07:24:16Z</time>
      </trkpt>
      <trkpt lat="44.69465" lon="0.55811">
        <ele>82</ele>
        <time>2012-08-05T07:24:21Z</time>
      </trkpt>
      <trkpt lat="44.69453" lon="0.55801">
        <ele>82</ele>
        <time>2012-08-05T07:24:26Z</time>
      </trkpt>
      <trkpt lat="44.69448" lon="0.55794">
        <ele>82</ele>
        <time>2012-08-05T07:24:31Z</time>
      </trkpt>
      <trkpt lat="44.69442" lon="0.55784">
        <ele>82</ele>
        <time>2012-08-05T07:24:36Z</time>
      </trkpt>
      <trkpt lat="44.69434" lon="0.55771">
        <ele>82</ele>
        <time>2012-08-05T07:24:41Z</time>
      </trkpt>
      <trkpt lat="44.69432" lon="0.55762">
        <ele>83</ele>
        <time>2012-08-05T07:24:46Z</time>
      </trkpt>
      <trkpt lat="44.69429" lon="0.55746">
        <ele>85</ele>
        <time>2012-08-05T07:24:51Z</time>
      </trkpt>
      <trkpt lat="44.69424" lon="0.55732">
        <ele>85</ele>
        <time>2012-08-05T07:24:56Z</time>
      </trkpt>
      <trkpt lat="44.69417" lon="0.55721">
        <ele>85</ele>
        <time>2012-08-05T07:25:01Z</time>
      </trkpt>
      <trkpt lat="44.69417" lon="0.55705">
        <ele>85</ele>
        <time>2012-08-05T07:25:06Z</time>
      </trkpt>
      <trkpt lat="44.69426" lon="0.55697">
        <ele>85</ele>
        <time>2012-08-05T07:25:11Z</time>
      </trkpt>
      <trkpt lat="44.69438" lon="0.55679">
        <ele>85</ele>
        <time>2012-08-05T07:25:16Z</time>
      </trkpt>
      <trkpt lat="44.69444" lon="0.55639">
        <ele>82</ele>
        <time>2012-08-05T07:25:21Z</time>
      </trkpt>
      <trkpt lat="44.69455" lon="0.55602">
        <ele>79</ele>
        <time>2012-08-05T07:25:26Z</time>
      </trkpt>
      <trkpt lat="44.69442" lon="0.55576">
        <ele>77</ele>
        <time>2012-08-05T07:25:31Z</time>
      </trkpt>
      <trkpt lat="44.69413" lon="0.55561">
        <ele>76</ele>
        <time>2012-08-05T07:25:36Z</time>
      </trkpt>
      <trkpt lat="44.69385" lon="0.55528">
        <ele>76</ele>
        <time>2012-08-05T07:25:41Z</time>
      </trkpt>
      <trkpt lat="44.69355" lon="0.55501">
        <ele>75</ele>
        <time>2012-08-05T07:25:46Z</time>
      </trkpt>
      <trkpt lat="44.69323" lon="0.55475">
        <ele>74</ele>
        <time>2012-08-05T07:25:51Z</time>
      </trkpt>
      <trkpt lat="44.69279" lon="0.55452">
        <ele>71</ele>
        <time>2012-08-05T07:25:56Z</time>
      </trkpt>
      <trkpt lat="44.69238" lon="0.55433">
        <ele>69</ele>
        <time>2012-08-05T07:26:01Z</time>
      </trkpt>
      <trkpt lat="44.69208" lon="0.55407">
        <ele>68</ele>
        <time>2012-08-05T07:26:06Z</time>
      </trkpt>
      <trkpt lat="44.6918" lon="0.55383">
        <ele>68</ele>
        <time>2012-08-05T07:26:11Z</time>
      </trkpt>
      <trkpt lat="44.69151" lon="0.55357">
        <ele>67</ele>
        <time>2012-08-05T07:26:16Z</time>
      </trkpt>
      <trkpt lat="44.6912" lon="0.55333">
        <ele>65</ele>
        <time>2012-08-05T07:26:21Z</time>
      </trkpt>
      <trkpt lat="44.69091" lon="0.55308">
        <ele>65</ele>
        <time>2012-08-05T07:26:26Z</time>
      </trkpt>
      <trkpt lat="44.69062" lon="0.55283">
        <ele>64</ele>
        <time>2012-08-05T07:26:31Z</time>
      </trkpt>
      <trkpt lat="44.69037" lon="0.55257">
        <ele>64</ele>
        <time>2012-08-05T07:26:36Z</time>
      </trkpt>
      <trkpt lat="44.69012" lon="0.55234">
        <ele>64</ele>
        <time>2012-08-05T07:26:41Z</time>
      </trkpt>
      <trkpt lat="44.68993" lon="0.55208">
        <ele>62</ele>
        <time>2012-08-05T07:26:46Z</time>
      </trkpt>
      <trkpt lat="44.68998" lon="0.55177">
        <ele>61</ele>
        <time>2012-08-05T07:26:51Z</time>
      </trkpt>
      <trkpt lat="44.69025" lon="0.55164">
        <ele>61</ele>
        <time>2012-08-05T07:26:56Z</time>
      </trkpt>
      <trkpt lat="44.69056" lon="0.55162">
        <ele>61</ele>
        <time>2012-08-05T07:27:01Z</time>
      </trkpt>
      <trkpt lat="44.69087" lon="0.55159">
        <ele>61</ele>
        <time>2012-08-05T07:27:06Z</time>
      </trkpt>
      <trkpt lat="44.69112" lon="0.55136">
        <ele>61</ele>
        <time>2012-08-05T07:27:11Z</time>
      </trkpt>
      <trkpt lat="44.69131" lon="0.55105">
        <ele>61</ele>
        <time>2012-08-05T07:27:16Z</time>
      </trkpt>
      <trkpt lat="44.69148" lon="0.55073">
        <ele>61</ele>
        <time>2012-08-05T07:27:21Z</time>
      </trkpt>
      <trkpt lat="44.69162" lon="0.55038">
        <ele>59</ele>
        <time>2012-08-05T07:27:26Z</time>
      </trkpt>
      <trkpt lat="44.69177" lon="0.55003">
        <ele>57</ele>
        <time>2012-08-05T07:27:31Z</time>
      </trkpt>
      <trkpt lat="44.69193" lon="0.54969">
        <ele>56</ele>
        <time>2012-08-05T07:27:36Z</time>
      </trkpt>
      <trkpt lat="44.69208" lon="0.54941">
        <ele>56</ele>
        <time>2012-08-05T07:27:41Z</time>
      </trkpt>
      <trkpt lat="44.69231" lon="0.54946">
        <ele>56</ele>
        <time>2012-08-05T07:27:46Z</time>
      </trkpt>
      <trkpt lat="44.69255" lon="0.54957">
        <ele>59</ele>
        <time>2012-08-05T07:27:51Z</time>
      </trkpt>
      <trkpt lat="44.69276" lon="0.54962">
        <ele>61</ele>
        <time>2012-08-05T07:27:56Z</time>
      </trkpt>
      <trkpt lat="44.69276" lon="0.54947">
        <ele>62</ele>
        <time>2012-08-05T07:28:01Z</time>
      </trkpt>
      <trkpt lat="44.69272" lon="0.54931">
        <ele>62</ele>
        <time>2012-08-05T07:28:06Z</time>
      </trkpt>
      <trkpt lat="44.69267" lon="0.54916">
        <ele>64</ele>
        <time>2012-08-05T07:28:11Z</time>
      </trkpt>
      <trkpt lat="44.69261" lon="0.549">
        <ele>65</ele>
        <time>2012-08-05T07:28:16Z</time>
      </trkpt>
      <trkpt lat="44.69252" lon="0.54882">
        <ele>67</ele>
        <time>2012-08-05T07:28:21Z</time>
      </trkpt>
      <trkpt lat="44.69247" lon="0.54868">
        <ele>70</ele>
        <time>2012-08-05T07:28:26Z</time>
      </trkpt>
      <trkpt lat="44.69239" lon="0.5485">
        <ele>74</ele>
        <time>2012-08-05T07:28:31Z</time>
      </trkpt>
      <trkpt lat="44.69232" lon="0.54836">
        <ele>76</ele>
        <time>2012-08-05T07:28:36Z</time>
      </trkpt>
      <trkpt lat="44.69224" lon="0.54821">
        <ele>77</ele>
        <time>2012-08-05T07:28:41Z</time>
      </trkpt>
      <trkpt lat="44.69217" lon="0.5481">
        <ele>78</ele>
        <time>2012-08-05T07:28:46Z</time>
      </trkpt>
      <trkpt lat="44.69208" lon="0.548">
        <ele>78</ele>
        <time>2012-08-05T07:28:51Z</time>
      </trkpt>
      <trkpt lat="44.69199" lon="0.5479">
        <ele>78</ele>
        <time>2012-08-05T07:28:56Z</time>
      </trkpt>
      <trkpt lat="44.69189" lon="0.54775">
        <ele>78</ele>
        <time>2012-08-05T07:29:01Z</time>
      </trkpt>
      <trkpt lat="44.69181" lon="0.54758">
        <ele>80</ele>
        <time>2012-08-05T07:29:06Z</time>
      </trkpt>
      <trkpt lat="44.69176" lon="0.54737">
        <ele>85</ele>
        <time>2012-08-05T07:29:11Z</time>
      </trkpt>
      <trkpt lat="44.69181" lon="0.5472">
        <ele>86</ele>
        <time>2012-08-05T07:29:16Z</time>
      </trkpt>
      <trkpt lat="44.69185" lon="0.54703">
        <ele>86</ele>
        <time>2012-08-05T07:29:21Z</time>
      </trkpt>
      <trkpt lat="44.69188" lon="0.5469">
        <ele>86</ele>
        <time>2012-08-05T07:29:26Z</time>
      </trkpt>
      <trkpt lat="44.69196" lon="0.54675">
        <ele>86</ele>
        <time>2012-08-05T07:29:31Z</time>
      </trkpt>
      <trkpt lat="44.69202" lon="0.54658">
        <ele>86</ele>
        <time>2012-08-05T07:29:36Z</time>
      </trkpt>
      <trkpt lat="44.69209" lon="0.54646">
        <ele>84</ele>
        <time>2012-08-05T07:29:41Z</time>
      </trkpt>
      <trkpt lat="44.69212" lon="0.54631">
        <ele>84</ele>
        <time>2012-08-05T07:29:46Z</time>
      </trkpt>
      <trkpt lat="44.69213" lon="0.54615">
        <ele>84</ele>
        <time>2012-08-05T07:29:51Z</time>
      </trkpt>
      <trkpt lat="44.69218" lon="0.546">
        <ele>86</ele>
        <time>2012-08-05T07:29:56Z</time>
      </trkpt>
      <trkpt lat="44.69227" lon="0.54585">
        <ele>86</ele>
        <time>2012-08-05T07:30:01Z</time>
      </trkpt>
      <trkpt lat="44.69238" lon="0.5457">
        <ele>86</ele>
        <time>2012-08-05T07:30:06Z</time>
      </trkpt>
      <trkpt lat="44.69249" lon="0.54552">
        <ele>86</ele>
        <time>2012-08-05T07:30:11Z</time>
      </trkpt>
      <trkpt lat="44.69262" lon="0.54536">
        <ele>84</ele>
        <time>2012-08-05T07:30:16Z</time>
      </trkpt>
      <trkpt lat="44.69276" lon="0.54522">
        <ele>82</ele>
        <time>2012-08-05T07:30:21Z</time>
      </trkpt>
      <trkpt lat="44.69291" lon="0.54507">
        <ele>82</ele>
        <time>2012-08-05T07:30:26Z</time>
      </trkpt>
      <trkpt lat="44.69302" lon="0.54494">
        <ele>82</ele>
        <time>2012-08-05T07:30:31Z</time>
      </trkpt>
      <trkpt lat="44.69311" lon="0.54483">
        <ele>83</ele>
        <time>2012-08-05T07:30:36Z</time>
      </trkpt>
      <trkpt lat="44.69321" lon="0.54473">
        <ele>84</ele>
        <time>2012-08-05T07:30:41Z</time>
      </trkpt>
      <trkpt lat="44.69331" lon="0.54465">
        <ele>87</ele>
        <time>2012-08-05T07:30:46Z</time>
      </trkpt>
      <trkpt lat="44.6934" lon="0.54453">
        <ele>90</ele>
        <time>2012-08-05T07:30:51Z</time>
      </trkpt>
      <trkpt lat="44.6935" lon="0.54439">
        <ele>91</ele>
        <time>2012-08-05T07:30:56Z</time>
      </trkpt>
      <trkpt lat="44.69358" lon="0.54428">
        <ele>91</ele>
        <time>2012-08-05T07:31:01Z</time>
      </trkpt>
      <trkpt lat="44.69366" lon="0.54417">
        <ele>91</ele>
        <time>2012-08-05T07:31:06Z</time>
      </trkpt>
      <trkpt lat="44.69376" lon="0.54405">
        <ele>91</ele>
        <time>2012-08-05T07:31:11Z</time>
      </trkpt>
      <trkpt lat="44.69386" lon="0.54394">
        <ele>91</ele>
        <time>2012-08-05T07:31:16Z</time>
      </trkpt>
      <trkpt lat="44.69398" lon="0.5438">
        <ele>91</ele>
        <time>2012-08-05T07:31:21Z</time>
      </trkpt>
      <trkpt lat="44.6941" lon="0.54372">
        <ele>95</ele>
        <time>2012-08-05T07:31:26Z</time>
      </trkpt>
      <trkpt lat="44.6942" lon="0.54362">
        <ele>100</ele>
        <time>2012-08-05T07:31:31Z</time>
      </trkpt>
      <trkpt lat="44.69415" lon="0.54347">
        <ele>102</ele>
        <time>2012-08-05T07:31:36Z</time>
      </trkpt>
      <trkpt lat="44.69409" lon="0.54329">
        <ele>102</ele>
        <time>2012-08-05T07:31:41Z</time>
      </trkpt>
      <trkpt lat="44.69401" lon="0.54313">
        <ele>102</ele>
        <time>2012-08-05T07:31:46Z</time>
      </trkpt>
      <trkpt lat="44.69394" lon="0.54297">
        <ele>102</ele>
        <time>2012-08-05T07:31:51Z</time>
      </trkpt>
      <trkpt lat="44.69384" lon="0.54279">
        <ele>102</ele>
        <time>2012-08-05T07:31:56Z</time>
      </trkpt>
      <trkpt lat="44.69378" lon="0.54261">
        <ele>102</ele>
        <time>2012-08-05T07:32:01Z</time>
      </trkpt>
      <trkpt lat="44.69366" lon="0.54239">
        <ele>103</ele>
        <time>2012-08-05T07:32:06Z</time>
      </trkpt>
      <trkpt lat="44.6935" lon="0.54214">
        <ele>104</ele>
        <time>2012-08-05T07:32:11Z</time>
      </trkpt>
      <trkpt lat="44.69332" lon="0.54194">
        <ele>104</ele>
        <time>2012-08-05T07:32:16Z</time>
      </trkpt>
      <trkpt lat="44.69307" lon="0.54187">
        <ele>104</ele>
        <time>2012-08-05T07:32:21Z</time>
      </trkpt>
      <trkpt lat="44.69283" lon="0.54178">
        <ele>104</ele>
        <time>2012-08-05T07:32:26Z</time>
      </trkpt>
      <trkpt lat="44.69259" lon="0.54154">
        <ele>103</ele>
        <time>2012-08-05T07:32:31Z</time>
      </trkpt>
      <trkpt lat="44.69236" lon="0.54123">
        <ele>102</ele>
        <time>2012-08-05T07:32:36Z</time>
      </trkpt>
      <trkpt lat="44.69214" lon="0.54092">
        <ele>101</ele>
        <time>2012-08-05T07:32:41Z</time>
      </trkpt>
      <trkpt lat="44.69193" lon="0.54063">
        <ele>101</ele>
        <time>2012-08-05T07:32:46Z</time>
      </trkpt>
      <trkpt lat="44.6917" lon="0.54042">
        <ele>99</ele>
        <time>2012-08-05T07:32:51Z</time>
      </trkpt>
      <trkpt lat="44.6914" lon="0.5403">
        <ele>98</ele>
        <time>2012-08-05T07:32:56Z</time>
      </trkpt>
      <trkpt lat="44.69112" lon="0.54028">
        <ele>98</ele>
        <time>2012-08-05T07:33:01Z</time>
      </trkpt>
      <trkpt lat="44.69108" lon="0.54015">
        <ele>98</ele>
        <time>2012-08-05T07:33:06Z</time>
      </trkpt>
      <trkpt lat="44.69128" lon="0.53996">
        <ele>98</ele>
        <time>2012-08-05T07:33:11Z</time>
      </trkpt>
      <trkpt lat="44.69157" lon="0.53979">
        <ele>98</ele>
        <time>2012-08-05T07:33:16Z</time>
      </trkpt>
      <trkpt lat="44.69182" lon="0.53963">
        <ele>98</ele>
        <time>2012-08-05T07:33:21Z</time>
      </trkpt>
      <trkpt lat="44.69204" lon="0.53947">
        <ele>98</ele>
        <time>2012-08-05T07:33:26Z</time>
      </trkpt>
      <trkpt lat="44.6923" lon="0.53938">
        <ele>98</ele>
        <time>2012-08-05T07:33:31Z</time>
      </trkpt>
      <trkpt lat="44.69255" lon="0.53938">
        <ele>99</ele>
        <time>2012-08-05T07:33:36Z</time>
      </trkpt>
      <trkpt lat="44.69277" lon="0.53934">
        <ele>100</ele>
        <time>2012-08-05T07:33:41Z</time>
      </trkpt>
      <trkpt lat="44.69296" lon="0.53919">
        <ele>101</ele>
        <time>2012-08-05T07:33:46Z</time>
      </trkpt>
      <trkpt lat="44.69315" lon="0.53903">
        <ele>101</ele>
        <time>2012-08-05T07:33:51Z</time>
      </trkpt>
      <trkpt lat="44.69341" lon="0.53894">
        <ele>101</ele>
        <time>2012-08-05T07:33:56Z</time>
      </trkpt>
      <trkpt lat="44.69365" lon="0.53877">
        <ele>101</ele>
        <time>2012-08-05T07:34:01Z</time>
      </trkpt>
      <trkpt lat="44.69382" lon="0.53881">
        <ele>100</ele>
        <time>2012-08-05T07:34:06Z</time>
      </trkpt>
      <trkpt lat="44.69408" lon="0.53884">
        <ele>100</ele>
        <time>2012-08-05T07:34:11Z</time>
      </trkpt>
      <trkpt lat="44.69441" lon="0.53883">
        <ele>100</ele>
        <time>2012-08-05T07:34:16Z</time>
      </trkpt>
      <trkpt lat="44.69473" lon="0.53885">
        <ele>100</ele>
        <time>2012-08-05T07:34:21Z</time>
      </trkpt>
      <trkpt lat="44.69503" lon="0.53886">
        <ele>100</ele>
        <time>2012-08-05T07:34:26Z</time>
      </trkpt>
      <trkpt lat="44.69533" lon="0.53887">
        <ele>100</ele>
        <time>2012-08-05T07:34:31Z</time>
      </trkpt>
      <trkpt lat="44.69548" lon="0.53858">
        <ele>100</ele>
        <time>2012-08-05T07:34:36Z</time>
      </trkpt>
      <trkpt lat="44.69558" lon="0.53821">
        <ele>100</ele>
        <time>2012-08-05T07:34:41Z</time>
      </trkpt>
      <trkpt lat="44.69578" lon="0.53794">
        <ele>100</ele>
        <time>2012-08-05T07:34:46Z</time>
      </trkpt>
      <trkpt lat="44.69602" lon="0.53772">
        <ele>100</ele>
        <time>2012-08-05T07:34:51Z</time>
      </trkpt>
      <trkpt lat="44.6962" lon="0.53747">
        <ele>100</ele>
        <time>2012-08-05T07:34:56Z</time>
      </trkpt>
      <trkpt lat="44.69634" lon="0.53726">
        <ele>100</ele>
        <time>2012-08-05T07:35:01Z</time>
      </trkpt>
      <trkpt lat="44.69653" lon="0.53714">
        <ele>100</ele>
        <time>2012-08-05T07:35:06Z</time>
      </trkpt>
      <trkpt lat="44.69679" lon="0.53721">
        <ele>100</ele>
        <time>2012-08-05T07:35:11Z</time>
      </trkpt>
      <trkpt lat="44.69701" lon="0.53725">
        <ele>103</ele>
        <time>2012-08-05T07:35:16Z</time>
      </trkpt>
      <trkpt lat="44.69721" lon="0.53727">
        <ele>105</ele>
        <time>2012-08-05T07:35:21Z</time>
      </trkpt>
      <trkpt lat="44.6974" lon="0.53718">
        <ele>105</ele>
        <time>2012-08-05T07:35:26Z</time>
      </trkpt>
      <trkpt lat="44.69758" lon="0.53709">
        <ele>105</ele>
        <time>2012-08-05T07:35:31Z</time>
      </trkpt>
      <trkpt lat="44.69776" lon="0.53701">
        <ele>105</ele>
        <time>2012-08-05T07:35:36Z</time>
      </trkpt>
      <trkpt lat="44.69793" lon="0.53693">
        <ele>105</ele>
        <time>2012-08-05T07:35:41Z</time>
      </trkpt>
      <trkpt lat="44.69806" lon="0.53677">
        <ele>105</ele>
        <time>2012-08-05T07:35:46Z</time>
      </trkpt>
      <trkpt lat="44.6982" lon="0.53662">
        <ele>105</ele>
        <time>2012-08-05T07:35:51Z</time>
      </trkpt>
      <trkpt lat="44.69839" lon="0.53657">
        <ele>104</ele>
        <time>2012-08-05T07:35:56Z</time>
      </trkpt>
      <trkpt lat="44.69863" lon="0.53657">
        <ele>102</ele>
        <time>2012-08-05T07:36:01Z</time>
      </trkpt>
      <trkpt lat="44.69894" lon="0.53658">
        <ele>101</ele>
        <time>2012-08-05T07:36:06Z</time>
      </trkpt>
      <trkpt lat="44.69921" lon="0.53659">
        <ele>98</ele>
        <time>2012-08-05T07:36:11Z</time>
      </trkpt>
      <trkpt lat="44.69941" lon="0.53664">
        <ele>97</ele>
        <time>2012-08-05T07:36:16Z</time>
      </trkpt>
      <trkpt lat="44.69952" lon="0.53675">
        <ele>97</ele>
        <time>2012-08-05T07:36:21Z</time>
      </trkpt>
      <trkpt lat="44.6996" lon="0.53652">
        <ele>97</ele>
        <time>2012-08-05T07:36:26Z</time>
      </trkpt>
      <trkpt lat="44.69973" lon="0.53619">
        <ele>97</ele>
        <time>2012-08-05T07:36:31Z</time>
      </trkpt>
      <trkpt lat="44.69987" lon="0.53575">
        <ele>97</ele>
        <time>2012-08-05T07:36:36Z</time>
      </trkpt>
      <trkpt lat="44.69986" lon="0.5353">
        <ele>96</ele>
        <time>2012-08-05T07:36:41Z</time>
      </trkpt>
      <trkpt lat="44.69975" lon="0.53491">
        <ele>96</ele>
        <time>2012-08-05T07:36:46Z</time>
      </trkpt>
      <trkpt lat="44.6996" lon="0.5345">
        <ele>95</ele>
        <time>2012-08-05T07:36:51Z</time>
      </trkpt>
      <trkpt lat="44.6994" lon="0.53423">
        <ele>94</ele>
        <time>2012-08-05T07:36:56Z</time>
      </trkpt>
      <trkpt lat="44.69912" lon="0.53398">
        <ele>89</ele>
        <time>2012-08-05T07:37:01Z</time>
      </trkpt>
      <trkpt lat="44.6989" lon="0.53359">
        <ele>88</ele>
        <time>2012-08-05T07:37:06Z</time>
      </trkpt>
      <trkpt lat="44.69871" lon="0.53323">
        <ele>87</ele>
        <time>2012-08-05T07:37:11Z</time>
      </trkpt>
      <trkpt lat="44.69853" lon="0.53282">
        <ele>83</ele>
        <time>2012-08-05T07:37:16Z</time>
      </trkpt>
      <trkpt lat="44.69841" lon="0.53243">
        <ele>78</ele>
        <time>2012-08-05T07:37:21Z</time>
      </trkpt>
      <trkpt lat="44.69827" lon="0.53203">
        <ele>73</ele>
        <time>2012-08-05T07:37:26Z</time>
      </trkpt>
      <trkpt lat="44.69813" lon="0.53163">
        <ele>68</ele>
        <time>2012-08-05T07:37:31Z</time>
      </trkpt>
      <trkpt lat="44.69808" lon="0.5312">
        <ele>63</ele>
        <time>2012-08-05T07:37:36Z</time>
      </trkpt>
      <trkpt lat="44.69801" lon="0.5308">
        <ele>61</ele>
        <time>2012-08-05T07:37:41Z</time>
      </trkpt>
      <trkpt lat="44.69803" lon="0.53057">
        <ele>65</ele>
        <time>2012-08-05T07:37:46Z</time>
      </trkpt>
      <trkpt lat="44.69807" lon="0.53045">
        <ele>65</ele>
        <time>2012-08-05T07:37:51Z</time>
      </trkpt>
      <trkpt lat="44.69817" lon="0.53039">
        <ele>65</ele>
        <time>2012-08-05T07:37:56Z</time>
      </trkpt>
      <trkpt lat="44.69829" lon="0.53036">
        <ele>65</ele>
        <time>2012-08-05T07:38:01Z</time>
      </trkpt>
      <trkpt lat="44.69844" lon="0.53031">
        <ele>65</ele>
        <time>2012-08-05T07:38:06Z</time>
      </trkpt>
      <trkpt lat="44.69862" lon="0.53027">
        <ele>65</ele>
        <time>2012-08-05T07:38:11Z</time>
      </trkpt>
      <trkpt lat="44.69878" lon="0.53026">
        <ele>68</ele>
        <time>2012-08-05T07:38:16Z</time>
      </trkpt>
      <trkpt lat="44.69893" lon="0.53027">
        <ele>71</ele>
        <time>2012-08-05T07:38:21Z</time>
      </trkpt>
      <trkpt lat="44.69902" lon="0.53021">
        <ele>71</ele>
        <time>2012-08-05T07:38:26Z</time>
      </trkpt>
      <trkpt lat="44.6991" lon="0.53013">
        <ele>71</ele>
        <time>2012-08-05T07:38:31Z</time>
      </trkpt>
      <trkpt lat="44.6992" lon="0.53006">
        <ele>71</ele>
        <time>2012-08-05T07:38:36Z</time>
      </trkpt>
      <trkpt lat="44.69932" lon="0.53001">
        <ele>71</ele>
        <time>2012-08-05T07:38:41Z</time>
      </trkpt>
      <trkpt lat="44.69949" lon="0.52991">
        <ele>72</ele>
        <time>2012-08-05T07:38:46Z</time>
      </trkpt>
      <trkpt lat="44.6997" lon="0.52961">
        <ele>72</ele>
        <time>2012-08-05T07:38:51Z</time>
      </trkpt>
      <trkpt lat="44.69993" lon="0.52928">
        <ele>71</ele>
        <time>2012-08-05T07:38:56Z</time>
      </trkpt>
      <trkpt lat="44.70015" lon="0.52897">
        <ele>71</ele>
        <time>2012-08-05T07:39:01Z</time>
      </trkpt>
      <trkpt lat="44.70041" lon="0.52877">
        <ele>67</ele>
        <time>2012-08-05T07:39:06Z</time>
      </trkpt>
      <trkpt lat="44.70065" lon="0.5286">
        <ele>66</ele>
        <time>2012-08-05T07:39:11Z</time>
      </trkpt>
      <trkpt lat="44.70087" lon="0.52847">
        <ele>66</ele>
        <time>2012-08-05T07:39:16Z</time>
      </trkpt>
      <trkpt lat="44.70109" lon="0.52834">
        <ele>66</ele>
        <time>2012-08-05T07:39:21Z</time>
      </trkpt>
      <trkpt lat="44.70128" lon="0.52816">
        <ele>65</ele>
        <time>2012-08-05T07:39:26Z</time>
      </trkpt>
      <trkpt lat="44.70145" lon="0.52793">
        <ele>63</ele>
        <time>2012-08-05T07:39:31Z</time>
      </trkpt>
      <trkpt lat="44.70163" lon="0.52772">
        <ele>62</ele>
        <time>2012-08-05T07:39:36Z</time>
      </trkpt>
      <trkpt lat="44.70182" lon="0.52753">
        <ele>62</ele>
        <time>2012-08-05T07:39:41Z</time>
      </trkpt>
      <trkpt lat="44.70203" lon="0.52738">
        <ele>62</ele>
        <time>2012-08-05T07:39:46Z</time>
      </trkpt>
      <trkpt lat="44.70219" lon="0.52728">
        <ele>62</ele>
        <time>2012-08-05T07:39:51Z</time>
      </trkpt>
      <trkpt lat="44.70238" lon="0.52719">
        <ele>62</ele>
        <time>2012-08-05T07:39:56Z</time>
      </trkpt>
      <trkpt lat="44.70259" lon="0.52708">
        <ele>62</ele>
        <time>2012-08-05T07:40:01Z</time>
      </trkpt>
      <trkpt lat="44.70277" lon="0.52695">
        <ele>62</ele>
        <time>2012-08-05T07:40:06Z</time>
      </trkpt>
      <trkpt lat="44.70295" lon="0.52681">
        <ele>62</ele>
        <time>2012-08-05T07:40:11Z</time>
      </trkpt>
      <trkpt lat="44.70315" lon="0.52669">
        <ele>62</ele>
        <time>2012-08-05T07:40:16Z</time>
      </trkpt>
      <trkpt lat="44.70336" lon="0.52658">
        <ele>62</ele>
        <time>2012-08-05T07:40:21Z</time>
      </trkpt>
      <trkpt lat="44.70358" lon="0.52651">
        <ele>62</ele>
        <time>2012-08-05T07:40:26Z</time>
      </trkpt>
      <trkpt lat="44.70381" lon="0.52652">
        <ele>62</ele>
        <time>2012-08-05T07:40:31Z</time>
      </trkpt>
      <trkpt lat="44.70403" lon="0.52658">
        <ele>64</ele>
        <time>2012-08-05T07:40:36Z</time>
      </trkpt>
      <trkpt lat="44.70423" lon="0.52666">
        <ele>66</ele>
        <time>2012-08-05T07:40:41Z</time>
      </trkpt>
      <trkpt lat="44.70441" lon="0.52666">
        <ele>66</ele>
        <time>2012-08-05T07:40:46Z</time>
      </trkpt>
      <trkpt lat="44.70455" lon="0.5265">
        <ele>66</ele>
        <time>2012-08-05T07:40:51Z</time>
      </trkpt>
      <trkpt lat="44.70464" lon="0.52625">
        <ele>66</ele>
        <time>2012-08-05T07:40:56Z</time>
      </trkpt>
      <trkpt lat="44.70473" lon="0.52603">
        <ele>66</ele>
        <time>2012-08-05T07:41:01Z</time>
      </trkpt>
      <trkpt lat="44.70484" lon="0.52582">
        <ele>66</ele>
        <time>2012-08-05T07:41:06Z</time>
      </trkpt>
      <trkpt lat="44.70493" lon="0.52558">
        <ele>66</ele>
        <time>2012-08-05T07:41:11Z</time>
      </trkpt>
      <trkpt lat="44.70504" lon="0.52533">
        <ele>66</ele>
        <time>2012-08-05T07:41:16Z</time>
      </trkpt>
      <trkpt lat="44.70514" lon="0.52507">
        <ele>66</ele>
        <time>2012-08-05T07:41:21Z</time>
      </trkpt>
      <trkpt lat="44.70523" lon="0.52485">
        <ele>65</ele>
        <time>2012-08-05T07:41:26Z</time>
      </trkpt>
      <trkpt lat="44.70532" lon="0.52463">
        <ele>65</ele>
        <time>2012-08-05T07:41:31Z</time>
      </trkpt>
      <trkpt lat="44.7054" lon="0.52441">
        <ele>64</ele>
        <time>2012-08-05T07:41:36Z</time>
      </trkpt>
      <trkpt lat="44.70548" lon="0.52421">
        <ele>63</ele>
        <time>2012-08-05T07:41:41Z</time>
      </trkpt>
      <trkpt lat="44.70558" lon="0.52401">
        <ele>63</ele>
        <time>2012-08-05T07:41:46Z</time>
      </trkpt>
      <trkpt lat="44.70568" lon="0.52386">
        <ele>63</ele>
        <time>2012-08-05T07:41:51Z</time>
      </trkpt>
      <trkpt lat="44.70577" lon="0.52367">
        <ele>65</ele>
        <time>2012-08-05T07:41:56Z</time>
      </trkpt>
      <trkpt lat="44.70586" lon="0.52347">
        <ele>66</ele>
        <time>2012-08-05T07:42:01Z</time>
      </trkpt>
      <trkpt lat="44.70595" lon="0.52328">
        <ele>67</ele>
        <time>2012-08-05T07:42:06Z</time>
      </trkpt>
      <trkpt lat="44.70603" lon="0.52308">
        <ele>69</ele>
        <time>2012-08-05T07:42:11Z</time>
      </trkpt>
      <trkpt lat="44.70613" lon="0.52288">
        <ele>69</ele>
        <time>2012-08-05T07:42:16Z</time>
      </trkpt>
      <trkpt lat="44.70623" lon="0.52269">
        <ele>69</ele>
        <time>2012-08-05T07:42:21Z</time>
      </trkpt>
      <trkpt lat="44.70639" lon="0.52267">
        <ele>69</ele>
        <time>2012-08-05T07:42:26Z</time>
      </trkpt>
      <trkpt lat="44.70656" lon="0.52268">
        <ele>73</ele>
        <time>2012-08-05T07:42:31Z</time>
      </trkpt>
      <trkpt lat="44.7067" lon="0.5227">
        <ele>76</ele>
        <time>2012-08-05T07:42:36Z</time>
      </trkpt>
      <trkpt lat="44.7068" lon="0.52265">
        <ele>78</ele>
        <time>2012-08-05T07:42:41Z</time>
      </trkpt>
      <trkpt lat="44.7068" lon="0.52251">
        <ele>82</ele>
        <time>2012-08-05T07:42:46Z</time>
      </trkpt>
      <trkpt lat="44.70675" lon="0.5224">
        <ele>87</ele>
        <time>2012-08-05T07:42:51Z</time>
      </trkpt>
      <trkpt lat="44.70669" lon="0.52225">
        <ele>92</ele>
        <time>2012-08-05T07:42:56Z</time>
      </trkpt>
      <trkpt lat="44.70666" lon="0.52211">
        <ele>97</ele>
        <time>2012-08-05T07:43:01Z</time>
      </trkpt>
      <trkpt lat="44.70663" lon="0.52194">
        <ele>102</ele>
        <time>2012-08-05T07:43:06Z</time>
      </trkpt>
      <trkpt lat="44.70664" lon="0.5218">
        <ele>107</ele>
        <time>2012-08-05T07:43:11Z</time>
      </trkpt>
      <trkpt lat="44.70664" lon="0.52165">
        <ele>109</ele>
        <time>2012-08-05T07:43:16Z</time>
      </trkpt>
      <trkpt lat="44.70665" lon="0.52153">
        <ele>109</ele>
        <time>2012-08-05T07:43:21Z</time>
      </trkpt>
      <trkpt lat="44.70666" lon="0.52133">
        <ele>109</ele>
        <time>2012-08-05T07:43:26Z</time>
      </trkpt>
      <trkpt lat="44.70676" lon="0.52095">
        <ele>109</ele>
        <time>2012-08-05T07:43:32Z</time>
      </trkpt>
      <trkpt lat="44.70691" lon="0.52063">
        <ele>109</ele>
        <time>2012-08-05T07:43:37Z</time>
      </trkpt>
      <trkpt lat="44.7071" lon="0.52032">
        <ele>105</ele>
        <time>2012-08-05T07:43:42Z</time>
      </trkpt>
      <trkpt lat="44.70713" lon="0.51968">
        <ele>99</ele>
        <time>2012-08-05T07:43:48Z</time>
      </trkpt>
      <trkpt lat="44.70715" lon="0.51897">
        <ele>96</ele>
        <time>2012-08-05T07:43:54Z</time>
      </trkpt>
      <trkpt lat="44.70695" lon="0.51871">
        <ele>94</ele>
        <time>2012-08-05T07:44:00Z</time>
      </trkpt>
      <trkpt lat="44.70661" lon="0.51878">
        <ele>94</ele>
        <time>2012-08-05T07:44:06Z</time>
      </trkpt>
      <trkpt lat="44.70632" lon="0.51886">
        <ele>93</ele>
        <time>2012-08-05T07:44:11Z</time>
      </trkpt>
      <trkpt lat="44.70594" lon="0.51911">
        <ele>89</ele>
        <time>2012-08-05T07:44:17Z</time>
      </trkpt>
      <trkpt lat="44.70557" lon="0.51922">
        <ele>86</ele>
        <time>2012-08-05T07:44:22Z</time>
      </trkpt>
      <trkpt lat="44.70521" lon="0.51911">
        <ele>86</ele>
        <time>2012-08-05T07:44:27Z</time>
      </trkpt>
      <trkpt lat="44.70486" lon="0.51894">
        <ele>86</ele>
        <time>2012-08-05T07:44:33Z</time>
      </trkpt>
      <trkpt lat="44.70465" lon="0.51883">
        <ele>86</ele>
        <time>2012-08-05T07:44:38Z</time>
      </trkpt>
      <trkpt lat="44.70449" lon="0.5188">
        <ele>86</ele>
        <time>2012-08-05T07:44:43Z</time>
      </trkpt>
      <trkpt lat="44.70431" lon="0.51884">
        <ele>87</ele>
        <time>2012-08-05T07:44:49Z</time>
      </trkpt>
      <trkpt lat="44.70421" lon="0.51891">
        <ele>89</ele>
        <time>2012-08-05T07:44:54Z</time>
      </trkpt>
      <trkpt lat="44.70411" lon="0.519">
        <ele>90</ele>
        <time>2012-08-05T07:45:00Z</time>
      </trkpt>
      <trkpt lat="44.70402" lon="0.51907">
        <ele>90</ele>
        <time>2012-08-05T07:45:05Z</time>
      </trkpt>
      <trkpt lat="44.70393" lon="0.51918">
        <ele>91</ele>
        <time>2012-08-05T07:45:10Z</time>
      </trkpt>
      <trkpt lat="44.70385" lon="0.51927">
        <ele>93</ele>
        <time>2012-08-05T07:45:15Z</time>
      </trkpt>
      <trkpt lat="44.70374" lon="0.51935">
        <ele>94</ele>
        <time>2012-08-05T07:45:20Z</time>
      </trkpt>
      <trkpt lat="44.70359" lon="0.51933">
        <ele>94</ele>
        <time>2012-08-05T07:45:25Z</time>
      </trkpt>
      <trkpt lat="44.70346" lon="0.51921">
        <ele>94</ele>
        <time>2012-08-05T07:45:30Z</time>
      </trkpt>
      <trkpt lat="44.70332" lon="0.5191">
        <ele>94</ele>
        <time>2012-08-05T07:45:35Z</time>
      </trkpt>
      <trkpt lat="44.70319" lon="0.51897">
        <ele>95</ele>
        <time>2012-08-05T07:45:40Z</time>
      </trkpt>
      <trkpt lat="44.70305" lon="0.51884">
        <ele>97</ele>
        <time>2012-08-05T07:45:46Z</time>
      </trkpt>
      <trkpt lat="44.70293" lon="0.51875">
        <ele>98</ele>
        <time>2012-08-05T07:45:51Z</time>
      </trkpt>
      <trkpt lat="44.7029" lon="0.51873">
        <ele>98</ele>
        <time>2012-08-05T07:45:57Z</time>
      </trkpt>
      <trkpt lat="44.70288" lon="0.51872">
        <ele>99</ele>
        <time>2012-08-05T07:46:03Z</time>
      </trkpt>
      <trkpt lat="44.70285" lon="0.5187">
        <ele>102</ele>
        <time>2012-08-05T07:46:19Z</time>
      </trkpt>
      <trkpt lat="44.70276" lon="0.51861">
        <ele>103</ele>
        <time>2012-08-05T07:46:24Z</time>
      </trkpt>
      <trkpt lat="44.70266" lon="0.51853">
        <ele>104</ele>
        <time>2012-08-05T07:46:29Z</time>
      </trkpt>
      <trkpt lat="44.70254" lon="0.5184">
        <ele>104</ele>
        <time>2012-08-05T07:46:35Z</time>
      </trkpt>
      <trkpt lat="44.70244" lon="0.51829">
        <ele>104</ele>
        <time>2012-08-05T07:46:40Z</time>
      </trkpt>
      <trkpt lat="44.70232" lon="0.51819">
        <ele>104</ele>
        <time>2012-08-05T07:46:46Z</time>
      </trkpt>
      <trkpt lat="44.70221" lon="0.51819">
        <ele>106</ele>
        <time>2012-08-05T07:46:51Z</time>
      </trkpt>
      <trkpt lat="44.70211" lon="0.51829">
        <ele>107</ele>
        <time>2012-08-05T07:46:56Z</time>
      </trkpt>
      <trkpt lat="44.70202" lon="0.51846">
        <ele>107</ele>
        <time>2012-08-05T07:47:02Z</time>
      </trkpt>
      <trkpt lat="44.70197" lon="0.5187">
        <ele>107</ele>
        <time>2012-08-05T07:47:07Z</time>
      </trkpt>
      <trkpt lat="44.70194" lon="0.51897">
        <ele>107</ele>
        <time>2012-08-05T07:47:12Z</time>
      </trkpt>
      <trkpt lat="44.70191" lon="0.51927">
        <ele>108</ele>
        <time>2012-08-05T07:47:18Z</time>
      </trkpt>
      <trkpt lat="44.70187" lon="0.51955">
        <ele>108</ele>
        <time>2012-08-05T07:47:23Z</time>
      </trkpt>
      <trkpt lat="44.70181" lon="0.51995">
        <ele>108</ele>
        <time>2012-08-05T07:47:29Z</time>
      </trkpt>
      <trkpt lat="44.7017" lon="0.52027">
        <ele>108</ele>
        <time>2012-08-05T07:47:34Z</time>
      </trkpt>
      <trkpt lat="44.70153" lon="0.52056">
        <ele>108</ele>
        <time>2012-08-05T07:47:39Z</time>
      </trkpt>
      <trkpt lat="44.70134" lon="0.52086">
        <ele>108</ele>
        <time>2012-08-05T07:47:44Z</time>
      </trkpt>
      <trkpt lat="44.70109" lon="0.52131">
        <ele>108</ele>
        <time>2012-08-05T07:47:50Z</time>
      </trkpt>
      <trkpt lat="44.70089" lon="0.52172">
        <ele>108</ele>
        <time>2012-08-05T07:47:55Z</time>
      </trkpt>
      <trkpt lat="44.70067" lon="0.52219">
        <ele>108</ele>
        <time>2012-08-05T07:48:00Z</time>
      </trkpt>
      <trkpt lat="44.70036" lon="0.52275">
        <ele>108</ele>
        <time>2012-08-05T07:48:06Z</time>
      </trkpt>
      <trkpt lat="44.69993" lon="0.52317">
        <ele>105</ele>
        <time>2012-08-05T07:48:12Z</time>
      </trkpt>
      <trkpt lat="44.69945" lon="0.52342">
        <ele>102</ele>
        <time>2012-08-05T07:48:18Z</time>
      </trkpt>
      <trkpt lat="44.69902" lon="0.52333">
        <ele>100</ele>
        <time>2012-08-05T07:48:23Z</time>
      </trkpt>
      <trkpt lat="44.69861" lon="0.52306">
        <ele>98</ele>
        <time>2012-08-05T07:48:28Z</time>
      </trkpt>
      <trkpt lat="44.69823" lon="0.52278">
        <ele>97</ele>
        <time>2012-08-05T07:48:33Z</time>
      </trkpt>
      <trkpt lat="44.69786" lon="0.52266">
        <ele>96</ele>
        <time>2012-08-05T07:48:38Z</time>
      </trkpt>
      <trkpt lat="44.69764" lon="0.52266">
        <ele>96</ele>
        <time>2012-08-05T07:48:43Z</time>
      </trkpt>
      <trkpt lat="44.69759" lon="0.52239">
        <ele>96</ele>
        <time>2012-08-05T07:48:48Z</time>
      </trkpt>
      <trkpt lat="44.69757" lon="0.5221">
        <ele>96</ele>
        <time>2012-08-05T07:48:53Z</time>
      </trkpt>
      <trkpt lat="44.69755" lon="0.52182">
        <ele>99</ele>
        <time>2012-08-05T07:48:58Z</time>
      </trkpt>
      <trkpt lat="44.69753" lon="0.52156">
        <ele>100</ele>
        <time>2012-08-05T07:49:03Z</time>
      </trkpt>
      <trkpt lat="44.69752" lon="0.52127">
        <ele>100</ele>
        <time>2012-08-05T07:49:08Z</time>
      </trkpt>
      <trkpt lat="44.69749" lon="0.52101">
        <ele>101</ele>
        <time>2012-08-05T07:49:13Z</time>
      </trkpt>
      <trkpt lat="44.69747" lon="0.52076">
        <ele>101</ele>
        <time>2012-08-05T07:49:18Z</time>
      </trkpt>
      <trkpt lat="44.69744" lon="0.52052">
        <ele>101</ele>
        <time>2012-08-05T07:49:23Z</time>
      </trkpt>
      <trkpt lat="44.69742" lon="0.52029">
        <ele>101</ele>
        <time>2012-08-05T07:49:28Z</time>
      </trkpt>
      <trkpt lat="44.69741" lon="0.52008">
        <ele>101</ele>
        <time>2012-08-05T07:49:33Z</time>
      </trkpt>
      <trkpt lat="44.6974" lon="0.51986">
        <ele>104</ele>
        <time>2012-08-05T07:49:38Z</time>
      </trkpt>
      <trkpt lat="44.69738" lon="0.51966">
        <ele>106</ele>
        <time>2012-08-05T07:49:43Z</time>
      </trkpt>
      <trkpt lat="44.69735" lon="0.51946">
        <ele>107</ele>
        <time>2012-08-05T07:49:48Z</time>
      </trkpt>
      <trkpt lat="44.6973" lon="0.51928">
        <ele>107</ele>
        <time>2012-08-05T07:49:53Z</time>
      </trkpt>
      <trkpt lat="44.69728" lon="0.51906">
        <ele>104</ele>
        <time>2012-08-05T07:49:58Z</time>
      </trkpt>
      <trkpt lat="44.69727" lon="0.51882">
        <ele>104</ele>
        <time>2012-08-05T07:50:03Z</time>
      </trkpt>
      <trkpt lat="44.69727" lon="0.51862">
        <ele>104</ele>
        <time>2012-08-05T07:50:08Z</time>
      </trkpt>
      <trkpt lat="44.69727" lon="0.51846">
        <ele>104</ele>
        <time>2012-08-05T07:50:13Z</time>
      </trkpt>
      <trkpt lat="44.69726" lon="0.51831">
        <ele>104</ele>
        <time>2012-08-05T07:50:18Z</time>
      </trkpt>
      <trkpt lat="44.69726" lon="0.51814">
        <ele>105</ele>
        <time>2012-08-05T07:50:23Z</time>
      </trkpt>
      <trkpt lat="44.69729" lon="0.51797">
        <ele>105</ele>
        <time>2012-08-05T07:50:28Z</time>
      </trkpt>
      <trkpt lat="44.69735" lon="0.51783">
        <ele>106</ele>
        <time>2012-08-05T07:50:33Z</time>
      </trkpt>
      <trkpt lat="44.69743" lon="0.5177">
        <ele>106</ele>
        <time>2012-08-05T07:50:38Z</time>
      </trkpt>
      <trkpt lat="44.69753" lon="0.51755">
        <ele>106</ele>
        <time>2012-08-05T07:50:44Z</time>
      </trkpt>
      <trkpt lat="44.69759" lon="0.51746">
        <ele>106</ele>
        <time>2012-08-05T07:50:49Z</time>
      </trkpt>
      <trkpt lat="44.69767" lon="0.51732">
        <ele>106</ele>
        <time>2012-08-05T07:50:54Z</time>
      </trkpt>
      <trkpt lat="44.69776" lon="0.51718">
        <ele>106</ele>
        <time>2012-08-05T07:50:59Z</time>
      </trkpt>
      <trkpt lat="44.69785" lon="0.51706">
        <ele>106</ele>
        <time>2012-08-05T07:51:04Z</time>
      </trkpt>
      <trkpt lat="44.69794" lon="0.51694">
        <ele>106</ele>
        <time>2012-08-05T07:51:09Z</time>
      </trkpt>
      <trkpt lat="44.69802" lon="0.51683">
        <ele>106</ele>
        <time>2012-08-05T07:51:14Z</time>
      </trkpt>
      <trkpt lat="44.69811" lon="0.51671">
        <ele>106</ele>
        <time>2012-08-05T07:51:19Z</time>
      </trkpt>
      <trkpt lat="44.6982" lon="0.51659">
        <ele>107</ele>
        <time>2012-08-05T07:51:24Z</time>
      </trkpt>
      <trkpt lat="44.69828" lon="0.51645">
        <ele>109</ele>
        <time>2012-08-05T07:51:29Z</time>
      </trkpt>
      <trkpt lat="44.69833" lon="0.5163">
        <ele>113</ele>
        <time>2012-08-05T07:51:34Z</time>
      </trkpt>
      <trkpt lat="44.69838" lon="0.51616">
        <ele>115</ele>
        <time>2012-08-05T07:51:39Z</time>
      </trkpt>
      <trkpt lat="44.69843" lon="0.51599">
        <ele>115</ele>
        <time>2012-08-05T07:51:44Z</time>
      </trkpt>
      <trkpt lat="44.69846" lon="0.51587">
        <ele>115</ele>
        <time>2012-08-05T07:51:49Z</time>
      </trkpt>
      <trkpt lat="44.69852" lon="0.51574">
        <ele>115</ele>
        <time>2012-08-05T07:51:54Z</time>
      </trkpt>
      <trkpt lat="44.69859" lon="0.51559">
        <ele>117</ele>
        <time>2012-08-05T07:51:59Z</time>
      </trkpt>
      <trkpt lat="44.69866" lon="0.51544">
        <ele>119</ele>
        <time>2012-08-05T07:52:04Z</time>
      </trkpt>
      <trkpt lat="44.69861" lon="0.51529">
        <ele>121</ele>
        <time>2012-08-05T07:52:09Z</time>
      </trkpt>
      <trkpt lat="44.69852" lon="0.5152">
        <ele>122</ele>
        <time>2012-08-05T07:52:14Z</time>
      </trkpt>
      <trkpt lat="44.69846" lon="0.51505">
        <ele>122</ele>
        <time>2012-08-05T07:52:19Z</time>
      </trkpt>
      <trkpt lat="44.6985" lon="0.51485">
        <ele>122</ele>
        <time>2012-08-05T07:52:24Z</time>
      </trkpt>
      <trkpt lat="44.6985" lon="0.51469">
        <ele>124</ele>
        <time>2012-08-05T07:52:29Z</time>
      </trkpt>
      <trkpt lat="44.69841" lon="0.51458">
        <ele>125</ele>
        <time>2012-08-05T07:52:34Z</time>
      </trkpt>
      <trkpt lat="44.69828" lon="0.51448">
        <ele>125</ele>
        <time>2012-08-05T07:52:39Z</time>
      </trkpt>
      <trkpt lat="44.69819" lon="0.51434">
        <ele>125</ele>
        <time>2012-08-05T07:52:44Z</time>
      </trkpt>
      <trkpt lat="44.69817" lon="0.51414">
        <ele>126</ele>
        <time>2012-08-05T07:52:49Z</time>
      </trkpt>
      <trkpt lat="44.69822" lon="0.51396">
        <ele>128</ele>
        <time>2012-08-05T07:52:54Z</time>
      </trkpt>
      <trkpt lat="44.69827" lon="0.51379">
        <ele>130</ele>
        <time>2012-08-05T07:52:59Z</time>
      </trkpt>
      <trkpt lat="44.69834" lon="0.51358">
        <ele>131</ele>
        <time>2012-08-05T07:53:04Z</time>
      </trkpt>
      <trkpt lat="44.69838" lon="0.51335">
        <ele>131</ele>
        <time>2012-08-05T07:53:09Z</time>
      </trkpt>
      <trkpt lat="44.69835" lon="0.51319">
        <ele>133</ele>
        <time>2012-08-05T07:53:14Z</time>
      </trkpt>
      <trkpt lat="44.69826" lon="0.51311">
        <ele>136</ele>
        <time>2012-08-05T07:53:19Z</time>
      </trkpt>
      <trkpt lat="44.69818" lon="0.513">
        <ele>138</ele>
        <time>2012-08-05T07:53:24Z</time>
      </trkpt>
      <trkpt lat="44.69809" lon="0.51292">
        <ele>139</ele>
        <time>2012-08-05T07:53:29Z</time>
      </trkpt>
      <trkpt lat="44.69799" lon="0.51285">
        <ele>139</ele>
        <time>2012-08-05T07:53:34Z</time>
      </trkpt>
      <trkpt lat="44.69786" lon="0.51279">
        <ele>139</ele>
        <time>2012-08-05T07:53:39Z</time>
      </trkpt>
      <trkpt lat="44.69771" lon="0.51274">
        <ele>139</ele>
        <time>2012-08-05T07:53:44Z</time>
      </trkpt>
      <trkpt lat="44.69756" lon="0.51273">
        <ele>139</ele>
        <time>2012-08-05T07:53:49Z</time>
      </trkpt>
      <trkpt lat="44.69742" lon="0.51281">
        <ele>139</ele>
        <time>2012-08-05T07:53:54Z</time>
      </trkpt>
      <trkpt lat="44.69733" lon="0.51299">
        <ele>139</ele>
        <time>2012-08-05T07:53:59Z</time>
      </trkpt>
      <trkpt lat="44.69721" lon="0.51315">
        <ele>139</ele>
        <time>2012-08-05T07:54:04Z</time>
      </trkpt>
      <trkpt lat="44.69709" lon="0.51336">
        <ele>139</ele>
        <time>2012-08-05T07:54:09Z</time>
      </trkpt>
      <trkpt lat="44.69697" lon="0.51361">
        <ele>139</ele>
        <time>2012-08-05T07:54:14Z</time>
      </trkpt>
      <trkpt lat="44.69685" lon="0.51389">
        <ele>139</ele>
        <time>2012-08-05T07:54:19Z</time>
      </trkpt>
      <trkpt lat="44.69672" lon="0.51417">
        <ele>143</ele>
        <time>2012-08-05T07:54:24Z</time>
      </trkpt>
      <trkpt lat="44.69659" lon="0.51445">
        <ele>148</ele>
        <time>2012-08-05T07:54:29Z</time>
      </trkpt>
      <trkpt lat="44.69639" lon="0.51471">
        <ele>148</ele>
        <time>2012-08-05T07:54:34Z</time>
      </trkpt>
      <trkpt lat="44.69621" lon="0.51494">
        <ele>148</ele>
        <time>2012-08-05T07:54:39Z</time>
      </trkpt>
      <trkpt lat="44.69603" lon="0.51522">
        <ele>145</ele>
        <time>2012-08-05T07:54:44Z</time>
      </trkpt>
      <trkpt lat="44.69585" lon="0.5155">
        <ele>140</ele>
        <time>2012-08-05T07:54:49Z</time>
      </trkpt>
      <trkpt lat="44.69568" lon="0.51571">
        <ele>135</ele>
        <time>2012-08-05T07:54:54Z</time>
      </trkpt>
      <trkpt lat="44.69551" lon="0.51592">
        <ele>134</ele>
        <time>2012-08-05T07:54:59Z</time>
      </trkpt>
      <trkpt lat="44.69539" lon="0.51615">
        <ele>134</ele>
        <time>2012-08-05T07:55:04Z</time>
      </trkpt>
      <trkpt lat="44.69526" lon="0.51641">
        <ele>134</ele>
        <time>2012-08-05T07:55:09Z</time>
      </trkpt>
      <trkpt lat="44.6951" lon="0.51671">
        <ele>134</ele>
        <time>2012-08-05T07:55:14Z</time>
      </trkpt>
      <trkpt lat="44.69495" lon="0.51696">
        <ele>134</ele>
        <time>2012-08-05T07:55:19Z</time>
      </trkpt>
      <trkpt lat="44.69483" lon="0.51721">
        <ele>134</ele>
        <time>2012-08-05T07:55:24Z</time>
      </trkpt>
      <trkpt lat="44.69468" lon="0.51747">
        <ele>137</ele>
        <time>2012-08-05T07:55:29Z</time>
      </trkpt>
      <trkpt lat="44.6945" lon="0.51771">
        <ele>138</ele>
        <time>2012-08-05T07:55:34Z</time>
      </trkpt>
      <trkpt lat="44.6943" lon="0.51794">
        <ele>138</ele>
        <time>2012-08-05T07:55:39Z</time>
      </trkpt>
      <trkpt lat="44.69413" lon="0.51806">
        <ele>138</ele>
        <time>2012-08-05T07:55:44Z</time>
      </trkpt>
      <trkpt lat="44.69393" lon="0.51821">
        <ele>138</ele>
        <time>2012-08-05T07:55:49Z</time>
      </trkpt>
      <trkpt lat="44.69373" lon="0.5184">
        <ele>136</ele>
        <time>2012-08-05T07:55:54Z</time>
      </trkpt>
      <trkpt lat="44.69356" lon="0.51856">
        <ele>136</ele>
        <time>2012-08-05T07:55:59Z</time>
      </trkpt>
      <trkpt lat="44.69334" lon="0.51866">
        <ele>132</ele>
        <time>2012-08-05T07:56:04Z</time>
      </trkpt>
      <trkpt lat="44.69311" lon="0.51881">
        <ele>130</ele>
        <time>2012-08-05T07:56:09Z</time>
      </trkpt>
      <trkpt lat="44.69289" lon="0.51893">
        <ele>126</ele>
        <time>2012-08-05T07:56:14Z</time>
      </trkpt>
      <trkpt lat="44.69265" lon="0.51908">
        <ele>126</ele>
        <time>2012-08-05T07:56:19Z</time>
      </trkpt>
      <trkpt lat="44.69244" lon="0.51907">
        <ele>126</ele>
        <time>2012-08-05T07:56:24Z</time>
      </trkpt>
      <trkpt lat="44.6924" lon="0.51889">
        <ele>126</ele>
        <time>2012-08-05T07:56:29Z</time>
      </trkpt>
      <trkpt lat="44.69233" lon="0.5185">
        <ele>128</ele>
        <time>2012-08-05T07:56:34Z</time>
      </trkpt>
      <trkpt lat="44.69231" lon="0.51808">
        <ele>132</ele>
        <time>2012-08-05T07:56:39Z</time>
      </trkpt>
      <trkpt lat="44.69233" lon="0.51767">
        <ele>132</ele>
        <time>2012-08-05T07:56:44Z</time>
      </trkpt>
      <trkpt lat="44.69233" lon="0.51721">
        <ele>132</ele>
        <time>2012-08-05T07:56:49Z</time>
      </trkpt>
      <trkpt lat="44.69234" lon="0.51677">
        <ele>132</ele>
        <time>2012-08-05T07:56:54Z</time>
      </trkpt>
      <trkpt lat="44.69236" lon="0.51632">
        <ele>132</ele>
        <time>2012-08-05T07:56:59Z</time>
      </trkpt>
      <trkpt lat="44.69236" lon="0.51592">
        <ele>132</ele>
        <time>2012-08-05T07:57:04Z</time>
      </trkpt>
      <trkpt lat="44.69231" lon="0.51555">
        <ele>132</ele>
        <time>2012-08-05T07:57:09Z</time>
      </trkpt>
      <trkpt lat="44.6924" lon="0.51501">
        <ele>132</ele>
        <time>2012-08-05T07:57:14Z</time>
      </trkpt>
      <trkpt lat="44.69236" lon="0.51435">
        <ele>127</ele>
        <time>2012-08-05T07:57:19Z</time>
      </trkpt>
      <trkpt lat="44.69236" lon="0.51383">
        <ele>122</ele>
        <time>2012-08-05T07:57:24Z</time>
      </trkpt>
      <trkpt lat="44.69223" lon="0.51345">
        <ele>117</ele>
        <time>2012-08-05T07:57:29Z</time>
      </trkpt>
      <trkpt lat="44.69206" lon="0.5131">
        <ele>112</ele>
        <time>2012-08-05T07:57:34Z</time>
      </trkpt>
      <trkpt lat="44.69189" lon="0.51268">
        <ele>106</ele>
        <time>2012-08-05T07:57:39Z</time>
      </trkpt>
      <trkpt lat="44.69169" lon="0.51223">
        <ele>100</ele>
        <time>2012-08-05T07:57:44Z</time>
      </trkpt>
      <trkpt lat="44.69147" lon="0.5118">
        <ele>96</ele>
        <time>2012-08-05T07:57:49Z</time>
      </trkpt>
      <trkpt lat="44.69136" lon="0.51144">
        <ele>96</ele>
        <time>2012-08-05T07:57:54Z</time>
      </trkpt>
      <trkpt lat="44.69147" lon="0.51118">
        <ele>96</ele>
        <time>2012-08-05T07:57:59Z</time>
      </trkpt>
      <trkpt lat="44.69158" lon="0.51096">
        <ele>96</ele>
        <time>2012-08-05T07:58:04Z</time>
      </trkpt>
      <trkpt lat="44.69168" lon="0.5108">
        <ele>96</ele>
        <time>2012-08-05T07:58:09Z</time>
      </trkpt>
      <trkpt lat="44.69176" lon="0.51064">
        <ele>100</ele>
        <time>2012-08-05T07:58:14Z</time>
      </trkpt>
      <trkpt lat="44.6919" lon="0.51051">
        <ele>103</ele>
        <time>2012-08-05T07:58:19Z</time>
      </trkpt>
      <trkpt lat="44.69203" lon="0.51059">
        <ele>103</ele>
        <time>2012-08-05T07:58:24Z</time>
      </trkpt>
      <trkpt lat="44.69212" lon="0.51069">
        <ele>104</ele>
        <time>2012-08-05T07:58:29Z</time>
      </trkpt>
      <trkpt lat="44.69226" lon="0.51071">
        <ele>105</ele>
        <time>2012-08-05T07:58:34Z</time>
      </trkpt>
      <trkpt lat="44.69236" lon="0.51065">
        <ele>106</ele>
        <time>2012-08-05T07:58:39Z</time>
      </trkpt>
      <trkpt lat="44.69248" lon="0.51058">
        <ele>106</ele>
        <time>2012-08-05T07:58:44Z</time>
      </trkpt>
      <trkpt lat="44.69262" lon="0.51054">
        <ele>106</ele>
        <time>2012-08-05T07:58:49Z</time>
      </trkpt>
      <trkpt lat="44.69278" lon="0.51054">
        <ele>106</ele>
        <time>2012-08-05T07:58:54Z</time>
      </trkpt>
      <trkpt lat="44.69292" lon="0.51053">
        <ele>106</ele>
        <time>2012-08-05T07:58:59Z</time>
      </trkpt>
      <trkpt lat="44.6931" lon="0.5105">
        <ele>106</ele>
        <time>2012-08-05T07:59:04Z</time>
      </trkpt>
      <trkpt lat="44.69327" lon="0.51051">
        <ele>106</ele>
        <time>2012-08-05T07:59:09Z</time>
      </trkpt>
      <trkpt lat="44.69346" lon="0.51051">
        <ele>106</ele>
        <time>2012-08-05T07:59:14Z</time>
      </trkpt>
      <trkpt lat="44.69365" lon="0.51056">
        <ele>106</ele>
        <time>2012-08-05T07:59:19Z</time>
      </trkpt>
      <trkpt lat="44.69384" lon="0.51061">
        <ele>106</ele>
        <time>2012-08-05T07:59:24Z</time>
      </trkpt>
      <trkpt lat="44.69404" lon="0.51064">
        <ele>106</ele>
        <time>2012-08-05T07:59:29Z</time>
      </trkpt>
      <trkpt lat="44.69426" lon="0.51068">
        <ele>105</ele>
        <time>2012-08-05T07:59:34Z</time>
      </trkpt>
      <trkpt lat="44.69447" lon="0.51063">
        <ele>105</ele>
        <time>2012-08-05T07:59:39Z</time>
      </trkpt>
      <trkpt lat="44.69469" lon="0.51052">
        <ele>104</ele>
        <time>2012-08-05T07:59:44Z</time>
      </trkpt>
      <trkpt lat="44.69489" lon="0.51036">
        <ele>104</ele>
        <time>2012-08-05T07:59:49Z</time>
      </trkpt>
      <trkpt lat="44.69508" lon="0.51022">
        <ele>104</ele>
        <time>2012-08-05T07:59:54Z</time>
      </trkpt>
      <trkpt lat="44.69527" lon="0.51013">
        <ele>104</ele>
        <time>2012-08-05T07:59:59Z</time>
      </trkpt>
      <trkpt lat="44.69546" lon="0.51003">
        <ele>104</ele>
        <time>2012-08-05T08:00:04Z</time>
      </trkpt>
      <trkpt lat="44.69564" lon="0.50991">
        <ele>104</ele>
        <time>2012-08-05T08:00:09Z</time>
      </trkpt>
      <trkpt lat="44.69581" lon="0.50978">
        <ele>104</ele>
        <time>2012-08-05T08:00:14Z</time>
      </trkpt>
      <trkpt lat="44.69599" lon="0.50966">
        <ele>104</ele>
        <time>2012-08-05T08:00:19Z</time>
      </trkpt>
      <trkpt lat="44.69616" lon="0.50954">
        <ele>104</ele>
        <time>2012-08-05T08:00:24Z</time>
      </trkpt>
      <trkpt lat="44.69634" lon="0.50947">
        <ele>106</ele>
        <time>2012-08-05T08:00:29Z</time>
      </trkpt>
      <trkpt lat="44.69653" lon="0.50944">
        <ele>108</ele>
        <time>2012-08-05T08:00:34Z</time>
      </trkpt>
      <trkpt lat="44.69672" lon="0.50942">
        <ele>112</ele>
        <time>2012-08-05T08:00:39Z</time>
      </trkpt>
      <trkpt lat="44.69692" lon="0.50941">
        <ele>113</ele>
        <time>2012-08-05T08:00:44Z</time>
      </trkpt>
      <trkpt lat="44.69713" lon="0.50943">
        <ele>115</ele>
        <time>2012-08-05T08:00:49Z</time>
      </trkpt>
      <trkpt lat="44.69733" lon="0.50947">
        <ele>119</ele>
        <time>2012-08-05T08:00:54Z</time>
      </trkpt>
      <trkpt lat="44.69753" lon="0.50954">
        <ele>123</ele>
        <time>2012-08-05T08:00:59Z</time>
      </trkpt>
      <trkpt lat="44.69772" lon="0.50962">
        <ele>124</ele>
        <time>2012-08-05T08:01:04Z</time>
      </trkpt>
      <trkpt lat="44.6979" lon="0.50972">
        <ele>125</ele>
        <time>2012-08-05T08:01:09Z</time>
      </trkpt>
      <trkpt lat="44.69806" lon="0.50984">
        <ele>126</ele>
        <time>2012-08-05T08:01:14Z</time>
      </trkpt>
      <trkpt lat="44.6982" lon="0.50995">
        <ele>127</ele>
        <time>2012-08-05T08:01:19Z</time>
      </trkpt>
      <trkpt lat="44.69838" lon="0.51001">
        <ele>127</ele>
        <time>2012-08-05T08:01:24Z</time>
      </trkpt>
      <trkpt lat="44.69854" lon="0.50991">
        <ele>128</ele>
        <time>2012-08-05T08:01:29Z</time>
      </trkpt>
      <trkpt lat="44.69856" lon="0.5097">
        <ele>130</ele>
        <time>2012-08-05T08:01:34Z</time>
      </trkpt>
      <trkpt lat="44.69856" lon="0.50943">
        <ele>132</ele>
        <time>2012-08-05T08:01:39Z</time>
      </trkpt>
      <trkpt lat="44.69854" lon="0.5091">
        <ele>132</ele>
        <time>2012-08-05T08:01:44Z</time>
      </trkpt>
      <trkpt lat="44.69852" lon="0.50875">
        <ele>133</ele>
        <time>2012-08-05T08:01:49Z</time>
      </trkpt>
      <trkpt lat="44.6985" lon="0.50841">
        <ele>134</ele>
        <time>2012-08-05T08:01:54Z</time>
      </trkpt>
      <trkpt lat="44.69848" lon="0.50804">
        <ele>134</ele>
        <time>2012-08-05T08:01:59Z</time>
      </trkpt>
      <trkpt lat="44.69846" lon="0.50766">
        <ele>134</ele>
        <time>2012-08-05T08:02:04Z</time>
      </trkpt>
      <trkpt lat="44.69845" lon="0.50728">
        <ele>134</ele>
        <time>2012-08-05T08:02:09Z</time>
      </trkpt>
      <trkpt lat="44.69846" lon="0.50685">
        <ele>134</ele>
        <time>2012-08-05T08:02:14Z</time>
      </trkpt>
      <trkpt lat="44.69854" lon="0.50641">
        <ele>134</ele>
        <time>2012-08-05T08:02:19Z</time>
      </trkpt>
      <trkpt lat="44.69867" lon="0.50603">
        <ele>134</ele>
        <time>2012-08-05T08:02:24Z</time>
      </trkpt>
      <trkpt lat="44.69883" lon="0.50568">
        <ele>134</ele>
        <time>2012-08-05T08:02:29Z</time>
      </trkpt>
      <trkpt lat="44.69899" lon="0.50538">
        <ele>136</ele>
        <time>2012-08-05T08:02:34Z</time>
      </trkpt>
      <trkpt lat="44.69915" lon="0.50505">
        <ele>137</ele>
        <time>2012-08-05T08:02:39Z</time>
      </trkpt>
      <trkpt lat="44.69923" lon="0.50472">
        <ele>137</ele>
        <time>2012-08-05T08:02:44Z</time>
      </trkpt>
      <trkpt lat="44.69923" lon="0.50436">
        <ele>139</ele>
        <time>2012-08-05T08:02:49Z</time>
      </trkpt>
      <trkpt lat="44.69923" lon="0.50414">
        <ele>142</ele>
        <time>2012-08-05T08:02:54Z</time>
      </trkpt>
      <trkpt lat="44.69924" lon="0.50406">
        <ele>144</ele>
        <time>2012-08-05T08:03:02Z</time>
      </trkpt>
      <trkpt lat="44.69924" lon="0.50403">
        <ele>148</ele>
        <time>2012-08-05T08:03:07Z</time>
      </trkpt>
      <trkpt lat="44.69925" lon="0.504">
        <ele>156</ele>
        <time>2012-08-05T08:03:15Z</time>
      </trkpt>
      <trkpt lat="44.69926" lon="0.50399">
        <ele>163</ele>
        <time>2012-08-05T08:03:22Z</time>
      </trkpt>
      <trkpt lat="44.69926" lon="0.50397">
        <ele>167</ele>
        <time>2012-08-05T08:03:30Z</time>
      </trkpt>
      <trkpt lat="44.69925" lon="0.50399">
        <ele>170</ele>
        <time>2012-08-05T08:03:40Z</time>
      </trkpt>
      <trkpt lat="44.69926" lon="0.50401">
        <ele>170</ele>
        <time>2012-08-05T08:03:51Z</time>
      </trkpt>
      <trkpt lat="44.69925" lon="0.504">
        <ele>166</ele>
        <time>2012-08-05T08:04:01Z</time>
      </trkpt>
      <trkpt lat="44.69919" lon="0.50388">
        <ele>162</ele>
        <time>2012-08-05T08:04:06Z</time>
      </trkpt>
      <trkpt lat="44.69915" lon="0.50366">
        <ele>162</ele>
        <time>2012-08-05T08:04:11Z</time>
      </trkpt>
      <trkpt lat="44.69907" lon="0.50346">
        <ele>157</ele>
        <time>2012-08-05T08:04:16Z</time>
      </trkpt>
      <trkpt lat="44.69891" lon="0.50323">
        <ele>152</ele>
        <time>2012-08-05T08:04:21Z</time>
      </trkpt>
      <trkpt lat="44.69866" lon="0.50302">
        <ele>149</ele>
        <time>2012-08-05T08:04:26Z</time>
      </trkpt>
      <trkpt lat="44.69825" lon="0.50294">
        <ele>144</ele>
        <time>2012-08-05T08:04:31Z</time>
      </trkpt>
      <trkpt lat="44.69785" lon="0.50286">
        <ele>139</ele>
        <time>2012-08-05T08:04:36Z</time>
      </trkpt>
      <trkpt lat="44.69753" lon="0.50267">
        <ele>138</ele>
        <time>2012-08-05T08:04:41Z</time>
      </trkpt>
      <trkpt lat="44.69732" lon="0.50233">
        <ele>138</ele>
        <time>2012-08-05T08:04:46Z</time>
      </trkpt>
      <trkpt lat="44.69718" lon="0.50218">
        <ele>138</ele>
        <time>2012-08-05T08:04:51Z</time>
      </trkpt>
      <trkpt lat="44.69699" lon="0.50221">
        <ele>138</ele>
        <time>2012-08-05T08:04:56Z</time>
      </trkpt>
      <trkpt lat="44.69672" lon="0.50219">
        <ele>137</ele>
        <time>2012-08-05T08:05:01Z</time>
      </trkpt>
      <trkpt lat="44.69642" lon="0.50216">
        <ele>135</ele>
        <time>2012-08-05T08:05:06Z</time>
      </trkpt>
      <trkpt lat="44.69606" lon="0.50214">
        <ele>133</ele>
        <time>2012-08-05T08:05:11Z</time>
      </trkpt>
      <trkpt lat="44.69569" lon="0.50212">
        <ele>130</ele>
        <time>2012-08-05T08:05:16Z</time>
      </trkpt>
      <trkpt lat="44.69532" lon="0.50209">
        <ele>128</ele>
        <time>2012-08-05T08:05:21Z</time>
      </trkpt>
      <trkpt lat="44.69495" lon="0.50199">
        <ele>127</ele>
        <time>2012-08-05T08:05:26Z</time>
      </trkpt>
      <trkpt lat="44.6947" lon="0.50194">
        <ele>127</ele>
        <time>2012-08-05T08:05:31Z</time>
      </trkpt>
      <trkpt lat="44.69459" lon="0.50196">
        <ele>127</ele>
        <time>2012-08-05T08:05:36Z</time>
      </trkpt>
      <trkpt lat="44.6944" lon="0.50191">
        <ele>127</ele>
        <time>2012-08-05T08:05:41Z</time>
      </trkpt>
      <trkpt lat="44.69422" lon="0.50184">
        <ele>127</ele>
        <time>2012-08-05T08:05:46Z</time>
      </trkpt>
      <trkpt lat="44.69407" lon="0.50178">
        <ele>127</ele>
        <time>2012-08-05T08:05:51Z</time>
      </trkpt>
      <trkpt lat="44.69392" lon="0.50173">
        <ele>127</ele>
        <time>2012-08-05T08:05:56Z</time>
      </trkpt>
      <trkpt lat="44.69373" lon="0.5017">
        <ele>127</ele>
        <time>2012-08-05T08:06:01Z</time>
      </trkpt>
      <trkpt lat="44.69354" lon="0.50165">
        <ele>127</ele>
        <time>2012-08-05T08:06:06Z</time>
      </trkpt>
      <trkpt lat="44.69334" lon="0.50164">
        <ele>127</ele>
        <time>2012-08-05T08:06:11Z</time>
      </trkpt>
      <trkpt lat="44.69308" lon="0.5016">
        <ele>127</ele>
        <time>2012-08-05T08:06:16Z</time>
      </trkpt>
      <trkpt lat="44.6927" lon="0.50151">
        <ele>126</ele>
        <time>2012-08-05T08:06:21Z</time>
      </trkpt>
      <trkpt lat="44.69232" lon="0.50145">
        <ele>125</ele>
        <time>2012-08-05T08:06:26Z</time>
      </trkpt>
      <trkpt lat="44.69198" lon="0.50138">
        <ele>124</ele>
        <time>2012-08-05T08:06:31Z</time>
      </trkpt>
      <trkpt lat="44.69183" lon="0.50133">
        <ele>122</ele>
        <time>2012-08-05T08:06:36Z</time>
      </trkpt>
      <trkpt lat="44.69178" lon="0.5009">
        <ele>120</ele>
        <time>2012-08-05T08:06:41Z</time>
      </trkpt>
      <trkpt lat="44.69178" lon="0.50026">
        <ele>117</ele>
        <time>2012-08-05T08:06:46Z</time>
      </trkpt>
      <trkpt lat="44.69182" lon="0.4995">
        <ele>112</ele>
        <time>2012-08-05T08:06:51Z</time>
      </trkpt>
      <trkpt lat="44.69185" lon="0.49889">
        <ele>109</ele>
        <time>2012-08-05T08:06:56Z</time>
      </trkpt>
      <trkpt lat="44.69202" lon="0.49863">
        <ele>109</ele>
        <time>2012-08-05T08:07:01Z</time>
      </trkpt>
      <trkpt lat="44.69234" lon="0.49858">
        <ele>109</ele>
        <time>2012-08-05T08:07:06Z</time>
      </trkpt>
      <trkpt lat="44.69268" lon="0.49853">
        <ele>109</ele>
        <time>2012-08-05T08:07:11Z</time>
      </trkpt>
      <trkpt lat="44.693" lon="0.49845">
        <ele>108</ele>
        <time>2012-08-05T08:07:16Z</time>
      </trkpt>
      <trkpt lat="44.69315" lon="0.4981">
        <ele>106</ele>
        <time>2012-08-05T08:07:21Z</time>
      </trkpt>
      <trkpt lat="44.69323" lon="0.49777">
        <ele>106</ele>
        <time>2012-08-05T08:07:26Z</time>
      </trkpt>
      <trkpt lat="44.69331" lon="0.49741">
        <ele>106</ele>
        <time>2012-08-05T08:07:31Z</time>
      </trkpt>
      <trkpt lat="44.69342" lon="0.49699">
        <ele>106</ele>
        <time>2012-08-05T08:07:36Z</time>
      </trkpt>
      <trkpt lat="44.69351" lon="0.49658">
        <ele>106</ele>
        <time>2012-08-05T08:07:41Z</time>
      </trkpt>
      <trkpt lat="44.69342" lon="0.49617">
        <ele>106</ele>
        <time>2012-08-05T08:07:46Z</time>
      </trkpt>
      <trkpt lat="44.69314" lon="0.49596">
        <ele>103</ele>
        <time>2012-08-05T08:07:51Z</time>
      </trkpt>
      <trkpt lat="44.69294" lon="0.49569">
        <ele>103</ele>
        <time>2012-08-05T08:07:56Z</time>
      </trkpt>
      <trkpt lat="44.69285" lon="0.49538">
        <ele>103</ele>
        <time>2012-08-05T08:08:01Z</time>
      </trkpt>
      <trkpt lat="44.69284" lon="0.49506">
        <ele>103</ele>
        <time>2012-08-05T08:08:06Z</time>
      </trkpt>
      <trkpt lat="44.69268" lon="0.49478">
        <ele>103</ele>
        <time>2012-08-05T08:08:11Z</time>
      </trkpt>
      <trkpt lat="44.69258" lon="0.49445">
        <ele>103</ele>
        <time>2012-08-05T08:08:16Z</time>
      </trkpt>
      <trkpt lat="44.69252" lon="0.4941">
        <ele>103</ele>
        <time>2012-08-05T08:08:21Z</time>
      </trkpt>
      <trkpt lat="44.69247" lon="0.49373">
        <ele>103</ele>
        <time>2012-08-05T08:08:26Z</time>
      </trkpt>
      <trkpt lat="44.6925" lon="0.49336">
        <ele>104</ele>
        <time>2012-08-05T08:08:31Z</time>
      </trkpt>
      <trkpt lat="44.6927" lon="0.49304">
        <ele>105</ele>
        <time>2012-08-05T08:08:36Z</time>
      </trkpt>
      <trkpt lat="44.69293" lon="0.49289">
        <ele>105</ele>
        <time>2012-08-05T08:08:41Z</time>
      </trkpt>
      <trkpt lat="44.69294" lon="0.49269">
        <ele>102</ele>
        <time>2012-08-05T08:08:46Z</time>
      </trkpt>
      <trkpt lat="44.69271" lon="0.49246">
        <ele>100</ele>
        <time>2012-08-05T08:08:51Z</time>
      </trkpt>
      <trkpt lat="44.69254" lon="0.49233">
        <ele>97</ele>
        <time>2012-08-05T08:08:56Z</time>
      </trkpt>
      <trkpt lat="44.69247" lon="0.49196">
        <ele>92</ele>
        <time>2012-08-05T08:09:01Z</time>
      </trkpt>
      <trkpt lat="44.69219" lon="0.4915">
        <ele>87</ele>
        <time>2012-08-05T08:09:06Z</time>
      </trkpt>
      <trkpt lat="44.6921" lon="0.49115">
        <ele>82</ele>
        <time>2012-08-05T08:09:11Z</time>
      </trkpt>
      <trkpt lat="44.69204" lon="0.49092">
        <ele>79</ele>
        <time>2012-08-05T08:09:16Z</time>
      </trkpt>
      <trkpt lat="44.69195" lon="0.49078">
        <ele>80</ele>
        <time>2012-08-05T08:09:21Z</time>
      </trkpt>
      <trkpt lat="44.69192" lon="0.49064">
        <ele>85</ele>
        <time>2012-08-05T08:09:26Z</time>
      </trkpt>
      <trkpt lat="44.69184" lon="0.49052">
        <ele>90</ele>
        <time>2012-08-05T08:09:31Z</time>
      </trkpt>
      <trkpt lat="44.69182" lon="0.49042">
        <ele>95</ele>
        <time>2012-08-05T08:09:36Z</time>
      </trkpt>
      <trkpt lat="44.69181" lon="0.49034">
        <ele>98</ele>
        <time>2012-08-05T08:09:41Z</time>
      </trkpt>
      <trkpt lat="44.6918" lon="0.4902">
        <ele>100</ele>
        <time>2012-08-05T08:09:46Z</time>
      </trkpt>
      <trkpt lat="44.69175" lon="0.49011">
        <ele>100</ele>
        <time>2012-08-05T08:09:51Z</time>
      </trkpt>
      <trkpt lat="44.69173" lon="0.49">
        <ele>103</ele>
        <time>2012-08-05T08:09:56Z</time>
      </trkpt>
      <trkpt lat="44.69172" lon="0.48991">
        <ele>103</ele>
        <time>2012-08-05T08:10:01Z</time>
      </trkpt>
      <trkpt lat="44.69173" lon="0.4898">
        <ele>103</ele>
        <time>2012-08-05T08:10:06Z</time>
      </trkpt>
      <trkpt lat="44.69172" lon="0.48965">
        <ele>103</ele>
        <time>2012-08-05T08:10:11Z</time>
      </trkpt>
      <trkpt lat="44.69172" lon="0.48949">
        <ele>103</ele>
        <time>2012-08-05T08:10:16Z</time>
      </trkpt>
      <trkpt lat="44.69172" lon="0.48933">
        <ele>103</ele>
        <time>2012-08-05T08:10:21Z</time>
      </trkpt>
      <trkpt lat="44.69172" lon="0.48918">
        <ele>103</ele>
        <time>2012-08-05T08:10:26Z</time>
      </trkpt>
      <trkpt lat="44.69173" lon="0.48902">
        <ele>103</ele>
        <time>2012-08-05T08:10:31Z</time>
      </trkpt>
      <trkpt lat="44.69175" lon="0.48887">
        <ele>103</ele>
        <time>2012-08-05T08:10:36Z</time>
      </trkpt>
      <trkpt lat="44.69175" lon="0.48873">
        <ele>105</ele>
        <time>2012-08-05T08:10:41Z</time>
      </trkpt>
      <trkpt lat="44.69175" lon="0.48858">
        <ele>107</ele>
        <time>2012-08-05T08:10:46Z</time>
      </trkpt>
      <trkpt lat="44.69173" lon="0.48845">
        <ele>108</ele>
        <time>2012-08-05T08:10:51Z</time>
      </trkpt>
      <trkpt lat="44.69167" lon="0.48839">
        <ele>108</ele>
        <time>2012-08-05T08:10:56Z</time>
      </trkpt>
      <trkpt lat="44.69157" lon="0.48833">
        <ele>108</ele>
        <time>2012-08-05T08:11:01Z</time>
      </trkpt>
      <trkpt lat="44.69147" lon="0.48828">
        <ele>108</ele>
        <time>2012-08-05T08:11:06Z</time>
      </trkpt>
      <trkpt lat="44.69138" lon="0.48823">
        <ele>108</ele>
        <time>2012-08-05T08:11:11Z</time>
      </trkpt>
      <trkpt lat="44.69129" lon="0.48819">
        <ele>108</ele>
        <time>2012-08-05T08:11:16Z</time>
      </trkpt>
      <trkpt lat="44.69118" lon="0.48813">
        <ele>108</ele>
        <time>2012-08-05T08:11:21Z</time>
      </trkpt>
      <trkpt lat="44.69109" lon="0.48805">
        <ele>108</ele>
        <time>2012-08-05T08:11:26Z</time>
      </trkpt>
      <trkpt lat="44.69101" lon="0.48795">
        <ele>108</ele>
        <time>2012-08-05T08:11:31Z</time>
      </trkpt>
      <trkpt lat="44.69096" lon="0.48784">
        <ele>111</ele>
        <time>2012-08-05T08:11:36Z</time>
      </trkpt>
      <trkpt lat="44.69093" lon="0.48774">
        <ele>112</ele>
        <time>2012-08-05T08:11:41Z</time>
      </trkpt>
      <trkpt lat="44.69091" lon="0.48762">
        <ele>112</ele>
        <time>2012-08-05T08:11:47Z</time>
      </trkpt>
      <trkpt lat="44.69088" lon="0.48752">
        <ele>115</ele>
        <time>2012-08-05T08:11:52Z</time>
      </trkpt>
      <trkpt lat="44.69082" lon="0.48742">
        <ele>119</ele>
        <time>2012-08-05T08:11:58Z</time>
      </trkpt>
      <trkpt lat="44.69081" lon="0.48732">
        <ele>121</ele>
        <time>2012-08-05T08:12:03Z</time>
      </trkpt>
      <trkpt lat="44.69079" lon="0.48719">
        <ele>124</ele>
        <time>2012-08-05T08:12:08Z</time>
      </trkpt>
      <trkpt lat="44.69079" lon="0.4871">
        <ele>125</ele>
        <time>2012-08-05T08:12:13Z</time>
      </trkpt>
      <trkpt lat="44.69077" lon="0.487">
        <ele>125</ele>
        <time>2012-08-05T08:12:18Z</time>
      </trkpt>
      <trkpt lat="44.69074" lon="0.4869">
        <ele>125</ele>
        <time>2012-08-05T08:12:23Z</time>
      </trkpt>
      <trkpt lat="44.69072" lon="0.4868">
        <ele>125</ele>
        <time>2012-08-05T08:12:28Z</time>
      </trkpt>
      <trkpt lat="44.69071" lon="0.4867">
        <ele>125</ele>
        <time>2012-08-05T08:12:33Z</time>
      </trkpt>
      <trkpt lat="44.69069" lon="0.4866">
        <ele>126</ele>
        <time>2012-08-05T08:12:38Z</time>
      </trkpt>
      <trkpt lat="44.69067" lon="0.48651">
        <ele>127</ele>
        <time>2012-08-05T08:12:43Z</time>
      </trkpt>
      <trkpt lat="44.69063" lon="0.48641">
        <ele>128</ele>
        <time>2012-08-05T08:12:49Z</time>
      </trkpt>
      <trkpt lat="44.69063" lon="0.4863">
        <ele>131</ele>
        <time>2012-08-05T08:12:54Z</time>
      </trkpt>
      <trkpt lat="44.69064" lon="0.48622">
        <ele>133</ele>
        <time>2012-08-05T08:12:59Z</time>
      </trkpt>
      <trkpt lat="44.69065" lon="0.48613">
        <ele>134</ele>
        <time>2012-08-05T08:13:04Z</time>
      </trkpt>
      <trkpt lat="44.69065" lon="0.48604">
        <ele>136</ele>
        <time>2012-08-05T08:13:09Z</time>
      </trkpt>
      <trkpt lat="44.69066" lon="0.48593">
        <ele>136</ele>
        <time>2012-08-05T08:13:14Z</time>
      </trkpt>
      <trkpt lat="44.69067" lon="0.48582">
        <ele>136</ele>
        <time>2012-08-05T08:13:19Z</time>
      </trkpt>
      <trkpt lat="44.69067" lon="0.4857">
        <ele>136</ele>
        <time>2012-08-05T08:13:24Z</time>
      </trkpt>
      <trkpt lat="44.69068" lon="0.48557">
        <ele>137</ele>
        <time>2012-08-05T08:13:29Z</time>
      </trkpt>
      <trkpt lat="44.6907" lon="0.48542">
        <ele>137</ele>
        <time>2012-08-05T08:13:34Z</time>
      </trkpt>
      <trkpt lat="44.69073" lon="0.48522">
        <ele>137</ele>
        <time>2012-08-05T08:13:39Z</time>
      </trkpt>
      <trkpt lat="44.69082" lon="0.48494">
        <ele>137</ele>
        <time>2012-08-05T08:13:44Z</time>
      </trkpt>
      <trkpt lat="44.69094" lon="0.48461">
        <ele>137</ele>
        <time>2012-08-05T08:13:49Z</time>
      </trkpt>
      <trkpt lat="44.69108" lon="0.48424">
        <ele>137</ele>
        <time>2012-08-05T08:13:54Z</time>
      </trkpt>
      <trkpt lat="44.69121" lon="0.48386">
        <ele>136</ele>
        <time>2012-08-05T08:13:59Z</time>
      </trkpt>
      <trkpt lat="44.69132" lon="0.48355">
        <ele>136</ele>
        <time>2012-08-05T08:14:04Z</time>
      </trkpt>
      <trkpt lat="44.69142" lon="0.48327">
        <ele>136</ele>
        <time>2012-08-05T08:14:09Z</time>
      </trkpt>
      <trkpt lat="44.69152" lon="0.483">
        <ele>136</ele>
        <time>2012-08-05T08:14:14Z</time>
      </trkpt>
      <trkpt lat="44.69156" lon="0.48272">
        <ele>136</ele>
        <time>2012-08-05T08:14:19Z</time>
      </trkpt>
      <trkpt lat="44.69131" lon="0.48271">
        <ele>136</ele>
        <time>2012-08-05T08:14:24Z</time>
      </trkpt>
      <trkpt lat="44.6912" lon="0.48265">
        <ele>134</ele>
        <time>2012-08-05T08:14:29Z</time>
      </trkpt>
      <trkpt lat="44.69131" lon="0.48256">
        <ele>133</ele>
        <time>2012-08-05T08:14:34Z</time>
      </trkpt>
      <trkpt lat="44.69143" lon="0.48245">
        <ele>132</ele>
        <time>2012-08-05T08:14:39Z</time>
      </trkpt>
      <trkpt lat="44.69147" lon="0.4823">
        <ele>132</ele>
        <time>2012-08-05T08:14:44Z</time>
      </trkpt>
      <trkpt lat="44.69146" lon="0.48215">
        <ele>132</ele>
        <time>2012-08-05T08:14:49Z</time>
      </trkpt>
      <trkpt lat="44.69145" lon="0.48214">
        <ele>132</ele>
        <time>2012-08-05T08:14:52Z</time>
      </trkpt>
    </trkseg>
  </trk>
</gpx>